<?xml version="1.0" encoding="UTF-8" standalone="no" ?>
<gpx xmlns="http://www.topografix.com/GPX/1/1" xmlns:xsi="http://www.w3.org/2001/XMLSchema-instance" xsi:schemaLocation="http://www.topografix.com/GPX/1/1 http://www.topografix.com/GPX/1/1/gpx.xsd" version="1.1" creator="VisuGPX - https://www.visugpx.com">
  <metadata>
    <name>lacapelle biron tourliac</name>
    <desc><![CDATA[
qqqqqqqqqqqqqqqqqqqqqqqqqqqqqqqqqqqqqqqqqqqqqqqqqqqqqqqqqqqqqqqqqqqqqqqqqqqqqqqqqqqqqqqq]]></desc>
  </metadata>
  <trk>
    <name><![CDATA[18-AOU-13 11:37:05]]></name>
    <trkseg>
      <trkpt lat="44.60026" lon="0.89475">
        <ele>174.62</ele>
        <time>2013-08-18T06:29:50Z</time>
      </trkpt>
      <trkpt lat="44.60028" lon="0.89472">
        <ele>173.17</ele>
        <time>2013-08-18T06:30:02Z</time>
      </trkpt>
      <trkpt lat="44.6003" lon="0.89473">
        <ele>173.17</ele>
        <time>2013-08-18T06:30:03Z</time>
      </trkpt>
      <trkpt lat="44.60034" lon="0.89474">
        <ele>173.17</ele>
        <time>2013-08-18T06:30:05Z</time>
      </trkpt>
      <trkpt lat="44.60036" lon="0.89476">
        <ele>173.17</ele>
        <time>2013-08-18T06:30:06Z</time>
      </trkpt>
      <trkpt lat="44.60041" lon="0.89479">
        <ele>172.69</ele>
        <time>2013-08-18T06:30:08Z</time>
      </trkpt>
      <trkpt lat="44.60044" lon="0.8948">
        <ele>172.69</ele>
        <time>2013-08-18T06:30:09Z</time>
      </trkpt>
      <trkpt lat="44.60046" lon="0.89482">
        <ele>173.17</ele>
        <time>2013-08-18T06:30:10Z</time>
      </trkpt>
      <trkpt lat="44.60048" lon="0.89484">
        <ele>173.17</ele>
        <time>2013-08-18T06:30:11Z</time>
      </trkpt>
      <trkpt lat="44.6005" lon="0.89485">
        <ele>173.17</ele>
        <time>2013-08-18T06:30:12Z</time>
      </trkpt>
      <trkpt lat="44.60052" lon="0.89486">
        <ele>173.17</ele>
        <time>2013-08-18T06:30:13Z</time>
      </trkpt>
      <trkpt lat="44.60053" lon="0.89488">
        <ele>173.66</ele>
        <time>2013-08-18T06:30:14Z</time>
      </trkpt>
      <trkpt lat="44.60067" lon="0.89503">
        <ele>174.62</ele>
        <time>2013-08-18T06:30:20Z</time>
      </trkpt>
      <trkpt lat="44.60069" lon="0.89502">
        <ele>174.62</ele>
        <time>2013-08-18T06:30:21Z</time>
      </trkpt>
      <trkpt lat="44.60072" lon="0.89501">
        <ele>174.14</ele>
        <time>2013-08-18T06:30:22Z</time>
      </trkpt>
      <trkpt lat="44.60074" lon="0.89498">
        <ele>174.14</ele>
        <time>2013-08-18T06:30:23Z</time>
      </trkpt>
      <trkpt lat="44.60076" lon="0.89495">
        <ele>174.14</ele>
        <time>2013-08-18T06:30:24Z</time>
      </trkpt>
      <trkpt lat="44.60078" lon="0.89491">
        <ele>173.66</ele>
        <time>2013-08-18T06:30:25Z</time>
      </trkpt>
      <trkpt lat="44.6008" lon="0.89488">
        <ele>173.66</ele>
        <time>2013-08-18T06:30:26Z</time>
      </trkpt>
      <trkpt lat="44.60081" lon="0.89484">
        <ele>173.17</ele>
        <time>2013-08-18T06:30:27Z</time>
      </trkpt>
      <trkpt lat="44.60082" lon="0.8948">
        <ele>173.17</ele>
        <time>2013-08-18T06:30:28Z</time>
      </trkpt>
      <trkpt lat="44.60108" lon="0.8942">
        <ele>172.69</ele>
        <time>2013-08-18T06:30:44Z</time>
      </trkpt>
      <trkpt lat="44.60125" lon="0.89334">
        <ele>172.21</ele>
        <time>2013-08-18T06:31:02Z</time>
      </trkpt>
      <trkpt lat="44.60127" lon="0.89317">
        <ele>171.73</ele>
        <time>2013-08-18T06:31:05Z</time>
      </trkpt>
      <trkpt lat="44.60128" lon="0.89311">
        <ele>171.73</ele>
        <time>2013-08-18T06:31:06Z</time>
      </trkpt>
      <trkpt lat="44.6013" lon="0.89307">
        <ele>171.73</ele>
        <time>2013-08-18T06:31:07Z</time>
      </trkpt>
      <trkpt lat="44.60134" lon="0.89306">
        <ele>170.77</ele>
        <time>2013-08-18T06:31:08Z</time>
      </trkpt>
      <trkpt lat="44.60139" lon="0.89305">
        <ele>169.81</ele>
        <time>2013-08-18T06:31:09Z</time>
      </trkpt>
      <trkpt lat="44.60146" lon="0.89304">
        <ele>169.33</ele>
        <time>2013-08-18T06:31:10Z</time>
      </trkpt>
      <trkpt lat="44.6016" lon="0.89301">
        <ele>167.89</ele>
        <time>2013-08-18T06:31:12Z</time>
      </trkpt>
      <trkpt lat="44.60166" lon="0.89299">
        <ele>167.41</ele>
        <time>2013-08-18T06:31:13Z</time>
      </trkpt>
      <trkpt lat="44.60172" lon="0.89295">
        <ele>167.41</ele>
        <time>2013-08-18T06:31:14Z</time>
      </trkpt>
      <trkpt lat="44.60177" lon="0.8929">
        <ele>166.93</ele>
        <time>2013-08-18T06:31:15Z</time>
      </trkpt>
      <trkpt lat="44.60181" lon="0.89285">
        <ele>166.93</ele>
        <time>2013-08-18T06:31:16Z</time>
      </trkpt>
      <trkpt lat="44.60189" lon="0.89276">
        <ele>166.93</ele>
        <time>2013-08-18T06:31:18Z</time>
      </trkpt>
      <trkpt lat="44.60193" lon="0.89273">
        <ele>166.93</ele>
        <time>2013-08-18T06:31:19Z</time>
      </trkpt>
      <trkpt lat="44.60235" lon="0.89246">
        <ele>169.33</ele>
        <time>2013-08-18T06:31:33Z</time>
      </trkpt>
      <trkpt lat="44.60282" lon="0.89227">
        <ele>167.41</ele>
        <time>2013-08-18T06:31:44Z</time>
      </trkpt>
      <trkpt lat="44.60289" lon="0.89222">
        <ele>167.89</ele>
        <time>2013-08-18T06:31:46Z</time>
      </trkpt>
      <trkpt lat="44.60296" lon="0.89214">
        <ele>168.37</ele>
        <time>2013-08-18T06:31:48Z</time>
      </trkpt>
      <trkpt lat="44.60335" lon="0.89157">
        <ele>169.81</ele>
        <time>2013-08-18T06:32:02Z</time>
      </trkpt>
      <trkpt lat="44.60381" lon="0.89127">
        <ele>174.14</ele>
        <time>2013-08-18T06:32:15Z</time>
      </trkpt>
      <trkpt lat="44.60434" lon="0.89092">
        <ele>177.02</ele>
        <time>2013-08-18T06:32:31Z</time>
      </trkpt>
      <trkpt lat="44.60473" lon="0.89066">
        <ele>180.87</ele>
        <time>2013-08-18T06:32:44Z</time>
      </trkpt>
      <trkpt lat="44.60507" lon="0.89047">
        <ele>179.42</ele>
        <time>2013-08-18T06:32:54Z</time>
      </trkpt>
      <trkpt lat="44.60511" lon="0.89045">
        <ele>179.42</ele>
        <time>2013-08-18T06:32:55Z</time>
      </trkpt>
      <trkpt lat="44.60524" lon="0.89036">
        <ele>178.94</ele>
        <time>2013-08-18T06:32:58Z</time>
      </trkpt>
      <trkpt lat="44.60543" lon="0.89021">
        <ele>178.94</ele>
        <time>2013-08-18T06:33:03Z</time>
      </trkpt>
      <trkpt lat="44.60547" lon="0.89019">
        <ele>178.94</ele>
        <time>2013-08-18T06:33:04Z</time>
      </trkpt>
      <trkpt lat="44.60555" lon="0.89015">
        <ele>179.9</ele>
        <time>2013-08-18T06:33:06Z</time>
      </trkpt>
      <trkpt lat="44.60559" lon="0.89013">
        <ele>179.9</ele>
        <time>2013-08-18T06:33:07Z</time>
      </trkpt>
      <trkpt lat="44.60622" lon="0.88993">
        <ele>181.83</ele>
        <time>2013-08-18T06:33:22Z</time>
      </trkpt>
      <trkpt lat="44.60681" lon="0.88973">
        <ele>183.27</ele>
        <time>2013-08-18T06:33:37Z</time>
      </trkpt>
      <trkpt lat="44.60698" lon="0.88968">
        <ele>183.27</ele>
        <time>2013-08-18T06:33:41Z</time>
      </trkpt>
      <trkpt lat="44.60713" lon="0.88962">
        <ele>183.27</ele>
        <time>2013-08-18T06:33:44Z</time>
      </trkpt>
      <trkpt lat="44.60718" lon="0.88959">
        <ele>182.79</ele>
        <time>2013-08-18T06:33:45Z</time>
      </trkpt>
      <trkpt lat="44.60723" lon="0.88955">
        <ele>182.31</ele>
        <time>2013-08-18T06:33:46Z</time>
      </trkpt>
      <trkpt lat="44.60728" lon="0.88952">
        <ele>182.31</ele>
        <time>2013-08-18T06:33:47Z</time>
      </trkpt>
      <trkpt lat="44.60732" lon="0.8895">
        <ele>181.83</ele>
        <time>2013-08-18T06:33:48Z</time>
      </trkpt>
      <trkpt lat="44.60742" lon="0.88946">
        <ele>181.35</ele>
        <time>2013-08-18T06:33:50Z</time>
      </trkpt>
      <trkpt lat="44.6075" lon="0.88943">
        <ele>181.35</ele>
        <time>2013-08-18T06:33:52Z</time>
      </trkpt>
      <trkpt lat="44.60788" lon="0.8892">
        <ele>182.31</ele>
        <time>2013-08-18T06:34:01Z</time>
      </trkpt>
      <trkpt lat="44.608" lon="0.88913">
        <ele>182.79</ele>
        <time>2013-08-18T06:34:04Z</time>
      </trkpt>
      <trkpt lat="44.60845" lon="0.8888">
        <ele>185.19</ele>
        <time>2013-08-18T06:34:16Z</time>
      </trkpt>
      <trkpt lat="44.60909" lon="0.88835">
        <ele>185.67</ele>
        <time>2013-08-18T06:34:29Z</time>
      </trkpt>
      <trkpt lat="44.60922" lon="0.88819">
        <ele>185.67</ele>
        <time>2013-08-18T06:34:32Z</time>
      </trkpt>
      <trkpt lat="44.60971" lon="0.88777">
        <ele>187.11</ele>
        <time>2013-08-18T06:34:42Z</time>
      </trkpt>
      <trkpt lat="44.61026" lon="0.88736">
        <ele>187.59</ele>
        <time>2013-08-18T06:34:54Z</time>
      </trkpt>
      <trkpt lat="44.61033" lon="0.8869">
        <ele>185.67</ele>
        <time>2013-08-18T06:35:02Z</time>
      </trkpt>
      <trkpt lat="44.61036" lon="0.88637">
        <ele>190</ele>
        <time>2013-08-18T06:35:15Z</time>
      </trkpt>
      <trkpt lat="44.61039" lon="0.88592">
        <ele>190.48</ele>
        <time>2013-08-18T06:35:27Z</time>
      </trkpt>
      <trkpt lat="44.61025" lon="0.88553">
        <ele>193.84</ele>
        <time>2013-08-18T06:35:39Z</time>
      </trkpt>
      <trkpt lat="44.61004" lon="0.88504">
        <ele>196.25</ele>
        <time>2013-08-18T06:35:56Z</time>
      </trkpt>
      <trkpt lat="44.61005" lon="0.88495">
        <ele>196.25</ele>
        <time>2013-08-18T06:35:59Z</time>
      </trkpt>
      <trkpt lat="44.61003" lon="0.88492">
        <ele>196.25</ele>
        <time>2013-08-18T06:36:00Z</time>
      </trkpt>
      <trkpt lat="44.61002" lon="0.88489">
        <ele>196.25</ele>
        <time>2013-08-18T06:36:01Z</time>
      </trkpt>
      <trkpt lat="44.61" lon="0.88486">
        <ele>196.73</ele>
        <time>2013-08-18T06:36:02Z</time>
      </trkpt>
      <trkpt lat="44.60998" lon="0.88482">
        <ele>196.73</ele>
        <time>2013-08-18T06:36:03Z</time>
      </trkpt>
      <trkpt lat="44.60994" lon="0.8847">
        <ele>196.73</ele>
        <time>2013-08-18T06:36:07Z</time>
      </trkpt>
      <trkpt lat="44.60966" lon="0.8843">
        <ele>200.57</ele>
        <time>2013-08-18T06:36:20Z</time>
      </trkpt>
      <trkpt lat="44.60964" lon="0.88427">
        <ele>201.05</ele>
        <time>2013-08-18T06:36:21Z</time>
      </trkpt>
      <trkpt lat="44.60944" lon="0.8841">
        <ele>201.05</ele>
        <time>2013-08-18T06:36:29Z</time>
      </trkpt>
      <trkpt lat="44.60938" lon="0.88396">
        <ele>201.05</ele>
        <time>2013-08-18T06:36:34Z</time>
      </trkpt>
      <trkpt lat="44.60941" lon="0.88376">
        <ele>202.01</ele>
        <time>2013-08-18T06:36:40Z</time>
      </trkpt>
      <trkpt lat="44.60929" lon="0.88365">
        <ele>202.49</ele>
        <time>2013-08-18T06:36:44Z</time>
      </trkpt>
      <trkpt lat="44.60908" lon="0.88361">
        <ele>202.49</ele>
        <time>2013-08-18T06:36:50Z</time>
      </trkpt>
      <trkpt lat="44.60865" lon="0.88348">
        <ele>203.94</ele>
        <time>2013-08-18T06:37:02Z</time>
      </trkpt>
      <trkpt lat="44.60853" lon="0.88347">
        <ele>204.42</ele>
        <time>2013-08-18T06:37:05Z</time>
      </trkpt>
      <trkpt lat="44.60848" lon="0.88325">
        <ele>204.42</ele>
        <time>2013-08-18T06:37:10Z</time>
      </trkpt>
      <trkpt lat="44.60845" lon="0.88258">
        <ele>202.98</ele>
        <time>2013-08-18T06:37:17Z</time>
      </trkpt>
      <trkpt lat="44.60843" lon="0.88215">
        <ele>202.49</ele>
        <time>2013-08-18T06:37:21Z</time>
      </trkpt>
      <trkpt lat="44.60843" lon="0.88194">
        <ele>202.49</ele>
        <time>2013-08-18T06:37:23Z</time>
      </trkpt>
      <trkpt lat="44.60837" lon="0.88163">
        <ele>202.01</ele>
        <time>2013-08-18T06:37:27Z</time>
      </trkpt>
      <trkpt lat="44.60815" lon="0.88165">
        <ele>201.53</ele>
        <time>2013-08-18T06:37:32Z</time>
      </trkpt>
      <trkpt lat="44.60804" lon="0.88171">
        <ele>201.05</ele>
        <time>2013-08-18T06:37:34Z</time>
      </trkpt>
      <trkpt lat="44.60764" lon="0.88162">
        <ele>200.57</ele>
        <time>2013-08-18T06:37:40Z</time>
      </trkpt>
      <trkpt lat="44.60716" lon="0.88145">
        <ele>199.13</ele>
        <time>2013-08-18T06:37:47Z</time>
      </trkpt>
      <trkpt lat="44.60688" lon="0.88122">
        <ele>196.73</ele>
        <time>2013-08-18T06:37:51Z</time>
      </trkpt>
      <trkpt lat="44.60673" lon="0.88092">
        <ele>196.25</ele>
        <time>2013-08-18T06:37:54Z</time>
      </trkpt>
      <trkpt lat="44.60656" lon="0.8806">
        <ele>195.28</ele>
        <time>2013-08-18T06:37:57Z</time>
      </trkpt>
      <trkpt lat="44.60621" lon="0.87983">
        <ele>190</ele>
        <time>2013-08-18T06:38:04Z</time>
      </trkpt>
      <trkpt lat="44.60605" lon="0.87935">
        <ele>188.56</ele>
        <time>2013-08-18T06:38:08Z</time>
      </trkpt>
      <trkpt lat="44.60594" lon="0.87907">
        <ele>187.11</ele>
        <time>2013-08-18T06:38:11Z</time>
      </trkpt>
      <trkpt lat="44.60593" lon="0.87886">
        <ele>185.19</ele>
        <time>2013-08-18T06:38:16Z</time>
      </trkpt>
      <trkpt lat="44.60596" lon="0.8788">
        <ele>181.35</ele>
        <time>2013-08-18T06:38:31Z</time>
      </trkpt>
      <trkpt lat="44.60603" lon="0.87866">
        <ele>178.94</ele>
        <time>2013-08-18T06:38:45Z</time>
      </trkpt>
      <trkpt lat="44.60635" lon="0.87809">
        <ele>176.06</ele>
        <time>2013-08-18T06:39:00Z</time>
      </trkpt>
      <trkpt lat="44.60651" lon="0.87791">
        <ele>173.66</ele>
        <time>2013-08-18T06:39:06Z</time>
      </trkpt>
      <trkpt lat="44.60661" lon="0.87788">
        <ele>173.17</ele>
        <time>2013-08-18T06:39:08Z</time>
      </trkpt>
      <trkpt lat="44.60666" lon="0.87786">
        <ele>172.69</ele>
        <time>2013-08-18T06:39:09Z</time>
      </trkpt>
      <trkpt lat="44.60671" lon="0.87783">
        <ele>172.21</ele>
        <time>2013-08-18T06:39:10Z</time>
      </trkpt>
      <trkpt lat="44.60675" lon="0.87779">
        <ele>171.73</ele>
        <time>2013-08-18T06:39:11Z</time>
      </trkpt>
      <trkpt lat="44.60679" lon="0.87773">
        <ele>171.25</ele>
        <time>2013-08-18T06:39:12Z</time>
      </trkpt>
      <trkpt lat="44.60682" lon="0.87766">
        <ele>170.77</ele>
        <time>2013-08-18T06:39:13Z</time>
      </trkpt>
      <trkpt lat="44.60684" lon="0.87759">
        <ele>170.29</ele>
        <time>2013-08-18T06:39:14Z</time>
      </trkpt>
      <trkpt lat="44.60687" lon="0.87751">
        <ele>169.33</ele>
        <time>2013-08-18T06:39:15Z</time>
      </trkpt>
      <trkpt lat="44.60719" lon="0.87641">
        <ele>163.56</ele>
        <time>2013-08-18T06:39:27Z</time>
      </trkpt>
      <trkpt lat="44.60722" lon="0.87635">
        <ele>164.04</ele>
        <time>2013-08-18T06:39:28Z</time>
      </trkpt>
      <trkpt lat="44.60729" lon="0.87626">
        <ele>164.52</ele>
        <time>2013-08-18T06:39:30Z</time>
      </trkpt>
      <trkpt lat="44.60744" lon="0.87606">
        <ele>165</ele>
        <time>2013-08-18T06:39:36Z</time>
      </trkpt>
      <trkpt lat="44.60765" lon="0.87609">
        <ele>162.6</ele>
        <time>2013-08-18T06:39:41Z</time>
      </trkpt>
      <trkpt lat="44.60784" lon="0.87604">
        <ele>161.64</ele>
        <time>2013-08-18T06:39:45Z</time>
      </trkpt>
      <trkpt lat="44.60821" lon="0.87578">
        <ele>160.68</ele>
        <time>2013-08-18T06:39:52Z</time>
      </trkpt>
      <trkpt lat="44.60851" lon="0.87551">
        <ele>159.24</ele>
        <time>2013-08-18T06:39:57Z</time>
      </trkpt>
      <trkpt lat="44.60866" lon="0.87511">
        <ele>156.35</ele>
        <time>2013-08-18T06:40:02Z</time>
      </trkpt>
      <trkpt lat="44.60873" lon="0.87465">
        <ele>154.91</ele>
        <time>2013-08-18T06:40:10Z</time>
      </trkpt>
      <trkpt lat="44.60884" lon="0.87425">
        <ele>156.83</ele>
        <time>2013-08-18T06:40:19Z</time>
      </trkpt>
      <trkpt lat="44.60909" lon="0.8738">
        <ele>157.79</ele>
        <time>2013-08-18T06:40:30Z</time>
      </trkpt>
      <trkpt lat="44.6092" lon="0.87365">
        <ele>158.75</ele>
        <time>2013-08-18T06:40:34Z</time>
      </trkpt>
      <trkpt lat="44.60956" lon="0.87305">
        <ele>159.24</ele>
        <time>2013-08-18T06:40:48Z</time>
      </trkpt>
      <trkpt lat="44.6098" lon="0.87264">
        <ele>159.24</ele>
        <time>2013-08-18T06:40:59Z</time>
      </trkpt>
      <trkpt lat="44.61006" lon="0.87206">
        <ele>160.2</ele>
        <time>2013-08-18T06:41:11Z</time>
      </trkpt>
      <trkpt lat="44.61035" lon="0.87148">
        <ele>161.64</ele>
        <time>2013-08-18T06:41:23Z</time>
      </trkpt>
      <trkpt lat="44.6105" lon="0.87151">
        <ele>163.08</ele>
        <time>2013-08-18T06:41:29Z</time>
      </trkpt>
      <trkpt lat="44.61075" lon="0.87166">
        <ele>166.45</ele>
        <time>2013-08-18T06:41:41Z</time>
      </trkpt>
      <trkpt lat="44.61077" lon="0.87167">
        <ele>166.45</ele>
        <time>2013-08-18T06:41:43Z</time>
      </trkpt>
      <trkpt lat="44.61083" lon="0.8717">
        <ele>166.93</ele>
        <time>2013-08-18T06:41:47Z</time>
      </trkpt>
      <trkpt lat="44.6111" lon="0.87184">
        <ele>172.69</ele>
        <time>2013-08-18T06:42:01Z</time>
      </trkpt>
      <trkpt lat="44.61142" lon="0.87202">
        <ele>177.02</ele>
        <time>2013-08-18T06:42:16Z</time>
      </trkpt>
      <trkpt lat="44.61174" lon="0.87223">
        <ele>177.02</ele>
        <time>2013-08-18T06:42:29Z</time>
      </trkpt>
      <trkpt lat="44.61199" lon="0.87239">
        <ele>176.06</ele>
        <time>2013-08-18T06:42:35Z</time>
      </trkpt>
      <trkpt lat="44.61252" lon="0.87277">
        <ele>177.02</ele>
        <time>2013-08-18T06:42:50Z</time>
      </trkpt>
      <trkpt lat="44.61281" lon="0.87282">
        <ele>175.58</ele>
        <time>2013-08-18T06:42:57Z</time>
      </trkpt>
      <trkpt lat="44.61304" lon="0.87274">
        <ele>173.66</ele>
        <time>2013-08-18T06:43:02Z</time>
      </trkpt>
      <trkpt lat="44.61339" lon="0.87264">
        <ele>172.21</ele>
        <time>2013-08-18T06:43:08Z</time>
      </trkpt>
      <trkpt lat="44.61393" lon="0.87281">
        <ele>173.17</ele>
        <time>2013-08-18T06:43:20Z</time>
      </trkpt>
      <trkpt lat="44.61416" lon="0.87292">
        <ele>173.66</ele>
        <time>2013-08-18T06:43:25Z</time>
      </trkpt>
      <trkpt lat="44.6145" lon="0.87295">
        <ele>173.17</ele>
        <time>2013-08-18T06:43:31Z</time>
      </trkpt>
      <trkpt lat="44.61496" lon="0.87314">
        <ele>172.21</ele>
        <time>2013-08-18T06:43:39Z</time>
      </trkpt>
      <trkpt lat="44.61515" lon="0.87322">
        <ele>172.69</ele>
        <time>2013-08-18T06:43:43Z</time>
      </trkpt>
      <trkpt lat="44.6152" lon="0.87324">
        <ele>172.69</ele>
        <time>2013-08-18T06:43:44Z</time>
      </trkpt>
      <trkpt lat="44.61585" lon="0.87363">
        <ele>173.17</ele>
        <time>2013-08-18T06:43:59Z</time>
      </trkpt>
      <trkpt lat="44.61589" lon="0.87365">
        <ele>173.17</ele>
        <time>2013-08-18T06:44:00Z</time>
      </trkpt>
      <trkpt lat="44.61593" lon="0.87365">
        <ele>173.17</ele>
        <time>2013-08-18T06:44:01Z</time>
      </trkpt>
      <trkpt lat="44.6161" lon="0.87375">
        <ele>174.14</ele>
        <time>2013-08-18T06:44:06Z</time>
      </trkpt>
      <trkpt lat="44.61614" lon="0.87378">
        <ele>173.66</ele>
        <time>2013-08-18T06:44:07Z</time>
      </trkpt>
      <trkpt lat="44.61625" lon="0.87384">
        <ele>173.17</ele>
        <time>2013-08-18T06:44:09Z</time>
      </trkpt>
      <trkpt lat="44.61643" lon="0.87396">
        <ele>171.73</ele>
        <time>2013-08-18T06:44:12Z</time>
      </trkpt>
      <trkpt lat="44.6167" lon="0.8741">
        <ele>170.29</ele>
        <time>2013-08-18T06:44:16Z</time>
      </trkpt>
      <trkpt lat="44.61694" lon="0.87429">
        <ele>168.85</ele>
        <time>2013-08-18T06:44:21Z</time>
      </trkpt>
      <trkpt lat="44.6171" lon="0.87446">
        <ele>168.37</ele>
        <time>2013-08-18T06:44:25Z</time>
      </trkpt>
      <trkpt lat="44.61722" lon="0.87453">
        <ele>168.37</ele>
        <time>2013-08-18T06:44:28Z</time>
      </trkpt>
      <trkpt lat="44.61759" lon="0.8746">
        <ele>170.29</ele>
        <time>2013-08-18T06:44:38Z</time>
      </trkpt>
      <trkpt lat="44.61773" lon="0.87453">
        <ele>172.69</ele>
        <time>2013-08-18T06:44:43Z</time>
      </trkpt>
      <trkpt lat="44.6181" lon="0.87453">
        <ele>180.38</ele>
        <time>2013-08-18T06:44:54Z</time>
      </trkpt>
      <trkpt lat="44.61837" lon="0.87433">
        <ele>183.75</ele>
        <time>2013-08-18T06:45:05Z</time>
      </trkpt>
      <trkpt lat="44.61866" lon="0.8741">
        <ele>186.15</ele>
        <time>2013-08-18T06:45:18Z</time>
      </trkpt>
      <trkpt lat="44.61893" lon="0.8739">
        <ele>187.59</ele>
        <time>2013-08-18T06:45:29Z</time>
      </trkpt>
      <trkpt lat="44.61926" lon="0.87378">
        <ele>187.11</ele>
        <time>2013-08-18T06:45:40Z</time>
      </trkpt>
      <trkpt lat="44.61959" lon="0.87392">
        <ele>189.04</ele>
        <time>2013-08-18T06:45:52Z</time>
      </trkpt>
      <trkpt lat="44.61996" lon="0.87409">
        <ele>190</ele>
        <time>2013-08-18T06:46:03Z</time>
      </trkpt>
      <trkpt lat="44.62025" lon="0.87411">
        <ele>190</ele>
        <time>2013-08-18T06:46:09Z</time>
      </trkpt>
      <trkpt lat="44.62046" lon="0.87414">
        <ele>189.52</ele>
        <time>2013-08-18T06:46:13Z</time>
      </trkpt>
      <trkpt lat="44.62068" lon="0.87422">
        <ele>188.56</ele>
        <time>2013-08-18T06:46:17Z</time>
      </trkpt>
      <trkpt lat="44.62088" lon="0.87425">
        <ele>188.56</ele>
        <time>2013-08-18T06:46:21Z</time>
      </trkpt>
      <trkpt lat="44.62131" lon="0.87425">
        <ele>188.56</ele>
        <time>2013-08-18T06:46:30Z</time>
      </trkpt>
      <trkpt lat="44.62174" lon="0.87427">
        <ele>188.08</ele>
        <time>2013-08-18T06:46:37Z</time>
      </trkpt>
      <trkpt lat="44.62217" lon="0.87436">
        <ele>188.08</ele>
        <time>2013-08-18T06:46:44Z</time>
      </trkpt>
      <trkpt lat="44.62281" lon="0.87456">
        <ele>188.56</ele>
        <time>2013-08-18T06:46:56Z</time>
      </trkpt>
      <trkpt lat="44.62286" lon="0.87459">
        <ele>188.56</ele>
        <time>2013-08-18T06:46:57Z</time>
      </trkpt>
      <trkpt lat="44.62319" lon="0.87464">
        <ele>189.04</ele>
        <time>2013-08-18T06:47:06Z</time>
      </trkpt>
      <trkpt lat="44.62338" lon="0.87433">
        <ele>192.4</ele>
        <time>2013-08-18T06:47:16Z</time>
      </trkpt>
      <trkpt lat="44.62342" lon="0.87418">
        <ele>192.88</ele>
        <time>2013-08-18T06:47:20Z</time>
      </trkpt>
      <trkpt lat="44.62367" lon="0.87375">
        <ele>191.92</ele>
        <time>2013-08-18T06:47:32Z</time>
      </trkpt>
      <trkpt lat="44.62392" lon="0.87325">
        <ele>194.8</ele>
        <time>2013-08-18T06:47:43Z</time>
      </trkpt>
      <trkpt lat="44.62417" lon="0.87278">
        <ele>195.28</ele>
        <time>2013-08-18T06:47:54Z</time>
      </trkpt>
      <trkpt lat="44.62441" lon="0.87222">
        <ele>195.28</ele>
        <time>2013-08-18T06:48:06Z</time>
      </trkpt>
      <trkpt lat="44.62468" lon="0.87172">
        <ele>191.44</ele>
        <time>2013-08-18T06:48:17Z</time>
      </trkpt>
      <trkpt lat="44.62473" lon="0.87172">
        <ele>190.96</ele>
        <time>2013-08-18T06:48:18Z</time>
      </trkpt>
      <trkpt lat="44.62476" lon="0.87174">
        <ele>190.96</ele>
        <time>2013-08-18T06:48:19Z</time>
      </trkpt>
      <trkpt lat="44.62484" lon="0.87181">
        <ele>190</ele>
        <time>2013-08-18T06:48:21Z</time>
      </trkpt>
      <trkpt lat="44.62488" lon="0.87185">
        <ele>189.52</ele>
        <time>2013-08-18T06:48:22Z</time>
      </trkpt>
      <trkpt lat="44.62493" lon="0.87188">
        <ele>189.04</ele>
        <time>2013-08-18T06:48:23Z</time>
      </trkpt>
      <trkpt lat="44.6251" lon="0.87189">
        <ele>187.11</ele>
        <time>2013-08-18T06:48:29Z</time>
      </trkpt>
      <trkpt lat="44.62512" lon="0.8719">
        <ele>187.11</ele>
        <time>2013-08-18T06:48:30Z</time>
      </trkpt>
      <trkpt lat="44.62515" lon="0.87191">
        <ele>185.67</ele>
        <time>2013-08-18T06:48:44Z</time>
      </trkpt>
      <trkpt lat="44.62529" lon="0.87204">
        <ele>185.67</ele>
        <time>2013-08-18T06:48:55Z</time>
      </trkpt>
      <trkpt lat="44.6256" lon="0.87236">
        <ele>185.67</ele>
        <time>2013-08-18T06:49:11Z</time>
      </trkpt>
      <trkpt lat="44.62601" lon="0.87282">
        <ele>185.67</ele>
        <time>2013-08-18T06:49:29Z</time>
      </trkpt>
      <trkpt lat="44.62611" lon="0.8729">
        <ele>185.67</ele>
        <time>2013-08-18T06:49:33Z</time>
      </trkpt>
      <trkpt lat="44.62613" lon="0.87289">
        <ele>185.67</ele>
        <time>2013-08-18T06:49:34Z</time>
      </trkpt>
      <trkpt lat="44.62623" lon="0.87268">
        <ele>185.19</ele>
        <time>2013-08-18T06:49:39Z</time>
      </trkpt>
      <trkpt lat="44.62644" lon="0.87257">
        <ele>183.75</ele>
        <time>2013-08-18T06:49:45Z</time>
      </trkpt>
      <trkpt lat="44.62664" lon="0.87262">
        <ele>183.27</ele>
        <time>2013-08-18T06:49:50Z</time>
      </trkpt>
      <trkpt lat="44.62681" lon="0.87263">
        <ele>183.27</ele>
        <time>2013-08-18T06:49:54Z</time>
      </trkpt>
      <trkpt lat="44.62729" lon="0.87282">
        <ele>186.15</ele>
        <time>2013-08-18T06:50:08Z</time>
      </trkpt>
      <trkpt lat="44.62742" lon="0.87294">
        <ele>188.56</ele>
        <time>2013-08-18T06:50:14Z</time>
      </trkpt>
      <trkpt lat="44.62774" lon="0.87323">
        <ele>190.48</ele>
        <time>2013-08-18T06:50:26Z</time>
      </trkpt>
      <trkpt lat="44.62795" lon="0.87336">
        <ele>189.04</ele>
        <time>2013-08-18T06:50:31Z</time>
      </trkpt>
      <trkpt lat="44.62839" lon="0.87345">
        <ele>187.11</ele>
        <time>2013-08-18T06:50:40Z</time>
      </trkpt>
      <trkpt lat="44.6286" lon="0.87346">
        <ele>186.15</ele>
        <time>2013-08-18T06:50:45Z</time>
      </trkpt>
      <trkpt lat="44.62877" lon="0.87337">
        <ele>185.67</ele>
        <time>2013-08-18T06:50:49Z</time>
      </trkpt>
      <trkpt lat="44.62888" lon="0.87325">
        <ele>185.67</ele>
        <time>2013-08-18T06:50:52Z</time>
      </trkpt>
      <trkpt lat="44.62908" lon="0.87315">
        <ele>186.15</ele>
        <time>2013-08-18T06:50:57Z</time>
      </trkpt>
      <trkpt lat="44.62945" lon="0.87311">
        <ele>188.56</ele>
        <time>2013-08-18T06:51:10Z</time>
      </trkpt>
      <trkpt lat="44.62973" lon="0.873">
        <ele>194.32</ele>
        <time>2013-08-18T06:51:25Z</time>
      </trkpt>
      <trkpt lat="44.62996" lon="0.87315">
        <ele>196.25</ele>
        <time>2013-08-18T06:51:38Z</time>
      </trkpt>
      <trkpt lat="44.63021" lon="0.87331">
        <ele>200.09</ele>
        <time>2013-08-18T06:51:53Z</time>
      </trkpt>
      <trkpt lat="44.63028" lon="0.87331">
        <ele>201.53</ele>
        <time>2013-08-18T06:51:57Z</time>
      </trkpt>
      <trkpt lat="44.63029" lon="0.87332">
        <ele>201.53</ele>
        <time>2013-08-18T06:51:58Z</time>
      </trkpt>
      <trkpt lat="44.63059" lon="0.87327">
        <ele>202.98</ele>
        <time>2013-08-18T06:52:12Z</time>
      </trkpt>
      <trkpt lat="44.63072" lon="0.87289">
        <ele>205.86</ele>
        <time>2013-08-18T06:52:28Z</time>
      </trkpt>
      <trkpt lat="44.63075" lon="0.87223">
        <ele>207.78</ele>
        <time>2013-08-18T06:52:48Z</time>
      </trkpt>
      <trkpt lat="44.63082" lon="0.87171">
        <ele>209.7</ele>
        <time>2013-08-18T06:53:06Z</time>
      </trkpt>
      <trkpt lat="44.63086" lon="0.8715">
        <ele>210.67</ele>
        <time>2013-08-18T06:53:20Z</time>
      </trkpt>
      <trkpt lat="44.63086" lon="0.8715">
        <ele>210.67</ele>
        <time>2013-08-18T06:53:38Z</time>
      </trkpt>
      <trkpt lat="44.63089" lon="0.8715">
        <ele>210.67</ele>
        <time>2013-08-18T06:53:47Z</time>
      </trkpt>
      <trkpt lat="44.63106" lon="0.87135">
        <ele>211.15</ele>
        <time>2013-08-18T06:53:58Z</time>
      </trkpt>
      <trkpt lat="44.63136" lon="0.87116">
        <ele>212.11</ele>
        <time>2013-08-18T06:54:13Z</time>
      </trkpt>
      <trkpt lat="44.63169" lon="0.87109">
        <ele>215.47</ele>
        <time>2013-08-18T06:54:28Z</time>
      </trkpt>
      <trkpt lat="44.63213" lon="0.87117">
        <ele>215.95</ele>
        <time>2013-08-18T06:54:45Z</time>
      </trkpt>
      <trkpt lat="44.6325" lon="0.87145">
        <ele>217.4</ele>
        <time>2013-08-18T06:55:01Z</time>
      </trkpt>
      <trkpt lat="44.63277" lon="0.87187">
        <ele>216.91</ele>
        <time>2013-08-18T06:55:15Z</time>
      </trkpt>
      <trkpt lat="44.63293" lon="0.87261">
        <ele>216.43</ele>
        <time>2013-08-18T06:55:31Z</time>
      </trkpt>
      <trkpt lat="44.63317" lon="0.87336">
        <ele>215.95</ele>
        <time>2013-08-18T06:55:45Z</time>
      </trkpt>
      <trkpt lat="44.63321" lon="0.87341">
        <ele>215.47</ele>
        <time>2013-08-18T06:55:46Z</time>
      </trkpt>
      <trkpt lat="44.63367" lon="0.87424">
        <ele>209.22</ele>
        <time>2013-08-18T06:55:58Z</time>
      </trkpt>
      <trkpt lat="44.63431" lon="0.87576">
        <ele>201.53</ele>
        <time>2013-08-18T06:56:13Z</time>
      </trkpt>
      <trkpt lat="44.63467" lon="0.87703">
        <ele>199.13</ele>
        <time>2013-08-18T06:56:27Z</time>
      </trkpt>
      <trkpt lat="44.63494" lon="0.87812">
        <ele>198.65</ele>
        <time>2013-08-18T06:56:41Z</time>
      </trkpt>
      <trkpt lat="44.63496" lon="0.87819">
        <ele>199.13</ele>
        <time>2013-08-18T06:56:42Z</time>
      </trkpt>
      <trkpt lat="44.63498" lon="0.87824">
        <ele>199.13</ele>
        <time>2013-08-18T06:56:43Z</time>
      </trkpt>
      <trkpt lat="44.63501" lon="0.87829">
        <ele>199.13</ele>
        <time>2013-08-18T06:56:44Z</time>
      </trkpt>
      <trkpt lat="44.63504" lon="0.87833">
        <ele>199.13</ele>
        <time>2013-08-18T06:56:45Z</time>
      </trkpt>
      <trkpt lat="44.63508" lon="0.87837">
        <ele>199.61</ele>
        <time>2013-08-18T06:56:46Z</time>
      </trkpt>
      <trkpt lat="44.63556" lon="0.87891">
        <ele>202.01</ele>
        <time>2013-08-18T06:57:01Z</time>
      </trkpt>
      <trkpt lat="44.63592" lon="0.87929">
        <ele>205.38</ele>
        <time>2013-08-18T06:57:14Z</time>
      </trkpt>
      <trkpt lat="44.6364" lon="0.87962">
        <ele>210.19</ele>
        <time>2013-08-18T06:57:29Z</time>
      </trkpt>
      <trkpt lat="44.63716" lon="0.88007">
        <ele>209.7</ele>
        <time>2013-08-18T06:57:43Z</time>
      </trkpt>
      <trkpt lat="44.63818" lon="0.88064">
        <ele>206.34</ele>
        <time>2013-08-18T06:57:58Z</time>
      </trkpt>
      <trkpt lat="44.63946" lon="0.88108">
        <ele>201.53</ele>
        <time>2013-08-18T06:58:13Z</time>
      </trkpt>
      <trkpt lat="44.64049" lon="0.88146">
        <ele>196.25</ele>
        <time>2013-08-18T06:58:26Z</time>
      </trkpt>
      <trkpt lat="44.6406" lon="0.88149">
        <ele>195.28</ele>
        <time>2013-08-18T06:58:28Z</time>
      </trkpt>
      <trkpt lat="44.64064" lon="0.88147">
        <ele>194.32</ele>
        <time>2013-08-18T06:58:29Z</time>
      </trkpt>
      <trkpt lat="44.64066" lon="0.88144">
        <ele>193.84</ele>
        <time>2013-08-18T06:58:30Z</time>
      </trkpt>
      <trkpt lat="44.64068" lon="0.88139">
        <ele>193.36</ele>
        <time>2013-08-18T06:58:31Z</time>
      </trkpt>
      <trkpt lat="44.64069" lon="0.88134">
        <ele>192.88</ele>
        <time>2013-08-18T06:58:32Z</time>
      </trkpt>
      <trkpt lat="44.64073" lon="0.88123">
        <ele>192.4</ele>
        <time>2013-08-18T06:58:34Z</time>
      </trkpt>
      <trkpt lat="44.64079" lon="0.88103">
        <ele>191.92</ele>
        <time>2013-08-18T06:58:38Z</time>
      </trkpt>
      <trkpt lat="44.64089" lon="0.88098">
        <ele>191.44</ele>
        <time>2013-08-18T06:58:41Z</time>
      </trkpt>
      <trkpt lat="44.64127" lon="0.88068">
        <ele>192.4</ele>
        <time>2013-08-18T06:58:53Z</time>
      </trkpt>
      <trkpt lat="44.64142" lon="0.88057">
        <ele>192.88</ele>
        <time>2013-08-18T06:58:57Z</time>
      </trkpt>
      <trkpt lat="44.64146" lon="0.88056">
        <ele>192.4</ele>
        <time>2013-08-18T06:58:58Z</time>
      </trkpt>
      <trkpt lat="44.64149" lon="0.88057">
        <ele>192.4</ele>
        <time>2013-08-18T06:58:59Z</time>
      </trkpt>
      <trkpt lat="44.64152" lon="0.88059">
        <ele>192.4</ele>
        <time>2013-08-18T06:59:00Z</time>
      </trkpt>
      <trkpt lat="44.64156" lon="0.88062">
        <ele>192.4</ele>
        <time>2013-08-18T06:59:01Z</time>
      </trkpt>
      <trkpt lat="44.64163" lon="0.88063">
        <ele>192.4</ele>
        <time>2013-08-18T06:59:03Z</time>
      </trkpt>
      <trkpt lat="44.64167" lon="0.8806">
        <ele>191.92</ele>
        <time>2013-08-18T06:59:04Z</time>
      </trkpt>
      <trkpt lat="44.64173" lon="0.8805">
        <ele>192.4</ele>
        <time>2013-08-18T06:59:06Z</time>
      </trkpt>
      <trkpt lat="44.64179" lon="0.88037">
        <ele>192.4</ele>
        <time>2013-08-18T06:59:08Z</time>
      </trkpt>
      <trkpt lat="44.64182" lon="0.88031">
        <ele>192.4</ele>
        <time>2013-08-18T06:59:09Z</time>
      </trkpt>
      <trkpt lat="44.6419" lon="0.88019">
        <ele>192.4</ele>
        <time>2013-08-18T06:59:11Z</time>
      </trkpt>
      <trkpt lat="44.64195" lon="0.88014">
        <ele>192.4</ele>
        <time>2013-08-18T06:59:12Z</time>
      </trkpt>
      <trkpt lat="44.64201" lon="0.88009">
        <ele>192.88</ele>
        <time>2013-08-18T06:59:13Z</time>
      </trkpt>
      <trkpt lat="44.64206" lon="0.88005">
        <ele>192.88</ele>
        <time>2013-08-18T06:59:14Z</time>
      </trkpt>
      <trkpt lat="44.64212" lon="0.88002">
        <ele>193.36</ele>
        <time>2013-08-18T06:59:15Z</time>
      </trkpt>
      <trkpt lat="44.64217" lon="0.87999">
        <ele>193.84</ele>
        <time>2013-08-18T06:59:16Z</time>
      </trkpt>
      <trkpt lat="44.64228" lon="0.87992">
        <ele>194.32</ele>
        <time>2013-08-18T06:59:18Z</time>
      </trkpt>
      <trkpt lat="44.64259" lon="0.87975">
        <ele>197.69</ele>
        <time>2013-08-18T06:59:23Z</time>
      </trkpt>
      <trkpt lat="44.64272" lon="0.87968">
        <ele>199.13</ele>
        <time>2013-08-18T06:59:25Z</time>
      </trkpt>
      <trkpt lat="44.64328" lon="0.87955">
        <ele>208.26</ele>
        <time>2013-08-18T06:59:35Z</time>
      </trkpt>
      <trkpt lat="44.64363" lon="0.87948">
        <ele>215.47</ele>
        <time>2013-08-18T06:59:45Z</time>
      </trkpt>
      <trkpt lat="44.64367" lon="0.87948">
        <ele>215.95</ele>
        <time>2013-08-18T06:59:46Z</time>
      </trkpt>
      <trkpt lat="44.64402" lon="0.87937">
        <ele>220.76</ele>
        <time>2013-08-18T06:59:53Z</time>
      </trkpt>
      <trkpt lat="44.64439" lon="0.87936">
        <ele>224.12</ele>
        <time>2013-08-18T07:00:04Z</time>
      </trkpt>
      <trkpt lat="44.64445" lon="0.87933">
        <ele>223.64</ele>
        <time>2013-08-18T07:00:16Z</time>
      </trkpt>
      <trkpt lat="44.64461" lon="0.87909">
        <ele>220.76</ele>
        <time>2013-08-18T07:00:23Z</time>
      </trkpt>
      <trkpt lat="44.6447" lon="0.8789">
        <ele>214.99</ele>
        <time>2013-08-18T07:00:29Z</time>
      </trkpt>
      <trkpt lat="44.64473" lon="0.87884">
        <ele>213.55</ele>
        <time>2013-08-18T07:00:32Z</time>
      </trkpt>
      <trkpt lat="44.64479" lon="0.87872">
        <ele>213.55</ele>
        <time>2013-08-18T07:00:37Z</time>
      </trkpt>
      <trkpt lat="44.64488" lon="0.87822">
        <ele>208.26</ele>
        <time>2013-08-18T07:00:50Z</time>
      </trkpt>
      <trkpt lat="44.64494" lon="0.87784">
        <ele>203.46</ele>
        <time>2013-08-18T07:01:03Z</time>
      </trkpt>
      <trkpt lat="44.64529" lon="0.87764">
        <ele>201.05</ele>
        <time>2013-08-18T07:01:16Z</time>
      </trkpt>
      <trkpt lat="44.6457" lon="0.8774">
        <ele>203.46</ele>
        <time>2013-08-18T07:01:30Z</time>
      </trkpt>
      <trkpt lat="44.64592" lon="0.87714">
        <ele>206.82</ele>
        <time>2013-08-18T07:01:40Z</time>
      </trkpt>
      <trkpt lat="44.64613" lon="0.87693">
        <ele>208.26</ele>
        <time>2013-08-18T07:01:48Z</time>
      </trkpt>
      <trkpt lat="44.64631" lon="0.87676">
        <ele>208.74</ele>
        <time>2013-08-18T07:01:53Z</time>
      </trkpt>
      <trkpt lat="44.64644" lon="0.87671">
        <ele>208.26</ele>
        <time>2013-08-18T07:01:56Z</time>
      </trkpt>
      <trkpt lat="44.64657" lon="0.87668">
        <ele>207.3</ele>
        <time>2013-08-18T07:01:59Z</time>
      </trkpt>
      <trkpt lat="44.64681" lon="0.87649">
        <ele>205.86</ele>
        <time>2013-08-18T07:02:06Z</time>
      </trkpt>
      <trkpt lat="44.647" lon="0.87661">
        <ele>202.49</ele>
        <time>2013-08-18T07:02:15Z</time>
      </trkpt>
      <trkpt lat="44.64734" lon="0.87648">
        <ele>202.01</ele>
        <time>2013-08-18T07:02:23Z</time>
      </trkpt>
      <trkpt lat="44.64746" lon="0.87641">
        <ele>202.49</ele>
        <time>2013-08-18T07:02:25Z</time>
      </trkpt>
      <trkpt lat="44.64805" lon="0.87625">
        <ele>202.98</ele>
        <time>2013-08-18T07:02:34Z</time>
      </trkpt>
      <trkpt lat="44.64839" lon="0.87636">
        <ele>201.05</ele>
        <time>2013-08-18T07:02:40Z</time>
      </trkpt>
      <trkpt lat="44.64851" lon="0.87647">
        <ele>199.61</ele>
        <time>2013-08-18T07:02:42Z</time>
      </trkpt>
      <trkpt lat="44.64891" lon="0.8764">
        <ele>191.44</ele>
        <time>2013-08-18T07:02:50Z</time>
      </trkpt>
      <trkpt lat="44.64915" lon="0.87589">
        <ele>182.79</ele>
        <time>2013-08-18T07:02:56Z</time>
      </trkpt>
      <trkpt lat="44.64921" lon="0.87566">
        <ele>179.42</ele>
        <time>2013-08-18T07:02:59Z</time>
      </trkpt>
      <trkpt lat="44.64915" lon="0.87516">
        <ele>174.62</ele>
        <time>2013-08-18T07:03:08Z</time>
      </trkpt>
      <trkpt lat="44.64913" lon="0.87466">
        <ele>171.25</ele>
        <time>2013-08-18T07:03:16Z</time>
      </trkpt>
      <trkpt lat="44.64911" lon="0.87439">
        <ele>168.85</ele>
        <time>2013-08-18T07:03:19Z</time>
      </trkpt>
      <trkpt lat="44.64928" lon="0.87402">
        <ele>163.56</ele>
        <time>2013-08-18T07:03:24Z</time>
      </trkpt>
      <trkpt lat="44.64953" lon="0.87386">
        <ele>159.24</ele>
        <time>2013-08-18T07:03:33Z</time>
      </trkpt>
      <trkpt lat="44.64958" lon="0.87383">
        <ele>156.35</ele>
        <time>2013-08-18T07:03:47Z</time>
      </trkpt>
      <trkpt lat="44.64963" lon="0.8738">
        <ele>153.95</ele>
        <time>2013-08-18T07:04:09Z</time>
      </trkpt>
      <trkpt lat="44.64963" lon="0.8738">
        <ele>154.91</ele>
        <time>2013-08-18T07:04:35Z</time>
      </trkpt>
      <trkpt lat="44.64962" lon="0.87378">
        <ele>153.95</ele>
        <time>2013-08-18T07:04:58Z</time>
      </trkpt>
      <trkpt lat="44.64962" lon="0.87379">
        <ele>154.43</ele>
        <time>2013-08-18T07:05:00Z</time>
      </trkpt>
      <trkpt lat="44.64971" lon="0.87393">
        <ele>152.51</ele>
        <time>2013-08-18T07:05:07Z</time>
      </trkpt>
      <trkpt lat="44.64977" lon="0.87399">
        <ele>152.99</ele>
        <time>2013-08-18T07:05:10Z</time>
      </trkpt>
      <trkpt lat="44.65" lon="0.87363">
        <ele>154.43</ele>
        <time>2013-08-18T07:05:21Z</time>
      </trkpt>
      <trkpt lat="44.65005" lon="0.87355">
        <ele>153.95</ele>
        <time>2013-08-18T07:05:24Z</time>
      </trkpt>
      <trkpt lat="44.65007" lon="0.87347">
        <ele>152.51</ele>
        <time>2013-08-18T07:05:39Z</time>
      </trkpt>
      <trkpt lat="44.65008" lon="0.87343">
        <ele>152.51</ele>
        <time>2013-08-18T07:05:54Z</time>
      </trkpt>
      <trkpt lat="44.65011" lon="0.87337">
        <ele>151.06</ele>
        <time>2013-08-18T07:05:58Z</time>
      </trkpt>
      <trkpt lat="44.65029" lon="0.87301">
        <ele>148.66</ele>
        <time>2013-08-18T07:06:11Z</time>
      </trkpt>
      <trkpt lat="44.65037" lon="0.87267">
        <ele>149.62</ele>
        <time>2013-08-18T07:06:16Z</time>
      </trkpt>
      <trkpt lat="44.65047" lon="0.87229">
        <ele>151.06</ele>
        <time>2013-08-18T07:06:22Z</time>
      </trkpt>
      <trkpt lat="44.6507" lon="0.87176">
        <ele>151.54</ele>
        <time>2013-08-18T07:06:32Z</time>
      </trkpt>
      <trkpt lat="44.6509" lon="0.87148">
        <ele>150.58</ele>
        <time>2013-08-18T07:06:38Z</time>
      </trkpt>
      <trkpt lat="44.65147" lon="0.87105">
        <ele>146.74</ele>
        <time>2013-08-18T07:06:48Z</time>
      </trkpt>
      <trkpt lat="44.65218" lon="0.87043">
        <ele>142.41</ele>
        <time>2013-08-18T07:07:00Z</time>
      </trkpt>
      <trkpt lat="44.6523" lon="0.87033">
        <ele>141.93</ele>
        <time>2013-08-18T07:07:02Z</time>
      </trkpt>
      <trkpt lat="44.65275" lon="0.86994">
        <ele>141.93</ele>
        <time>2013-08-18T07:07:09Z</time>
      </trkpt>
      <trkpt lat="44.65303" lon="0.8698">
        <ele>142.89</ele>
        <time>2013-08-18T07:07:14Z</time>
      </trkpt>
      <trkpt lat="44.65315" lon="0.86982">
        <ele>144.34</ele>
        <time>2013-08-18T07:07:20Z</time>
      </trkpt>
      <trkpt lat="44.65336" lon="0.87">
        <ele>153.95</ele>
        <time>2013-08-18T07:07:33Z</time>
      </trkpt>
      <trkpt lat="44.6535" lon="0.87014">
        <ele>161.64</ele>
        <time>2013-08-18T07:07:44Z</time>
      </trkpt>
      <trkpt lat="44.65368" lon="0.8703">
        <ele>168.85</ele>
        <time>2013-08-18T07:07:58Z</time>
      </trkpt>
      <trkpt lat="44.6539" lon="0.87044">
        <ele>172.21</ele>
        <time>2013-08-18T07:08:11Z</time>
      </trkpt>
      <trkpt lat="44.65412" lon="0.87053">
        <ele>175.1</ele>
        <time>2013-08-18T07:08:24Z</time>
      </trkpt>
      <trkpt lat="44.6542" lon="0.87054">
        <ele>177.02</ele>
        <time>2013-08-18T07:08:28Z</time>
      </trkpt>
      <trkpt lat="44.65443" lon="0.87054">
        <ele>181.83</ele>
        <time>2013-08-18T07:08:44Z</time>
      </trkpt>
      <trkpt lat="44.65462" lon="0.87044">
        <ele>185.67</ele>
        <time>2013-08-18T07:09:00Z</time>
      </trkpt>
      <trkpt lat="44.65472" lon="0.8703">
        <ele>187.59</ele>
        <time>2013-08-18T07:09:12Z</time>
      </trkpt>
      <trkpt lat="44.65456" lon="0.86999">
        <ele>189.04</ele>
        <time>2013-08-18T07:09:25Z</time>
      </trkpt>
      <trkpt lat="44.6545" lon="0.86972">
        <ele>193.36</ele>
        <time>2013-08-18T07:09:38Z</time>
      </trkpt>
      <trkpt lat="44.6545" lon="0.86949">
        <ele>190.96</ele>
        <time>2013-08-18T07:09:58Z</time>
      </trkpt>
      <trkpt lat="44.65449" lon="0.86942">
        <ele>191.92</ele>
        <time>2013-08-18T07:10:00Z</time>
      </trkpt>
      <trkpt lat="44.65446" lon="0.86916">
        <ele>192.4</ele>
        <time>2013-08-18T07:10:04Z</time>
      </trkpt>
      <trkpt lat="44.65434" lon="0.8688">
        <ele>191.92</ele>
        <time>2013-08-18T07:10:10Z</time>
      </trkpt>
      <trkpt lat="44.65431" lon="0.86866">
        <ele>191.44</ele>
        <time>2013-08-18T07:10:12Z</time>
      </trkpt>
      <trkpt lat="44.65425" lon="0.86832">
        <ele>190</ele>
        <time>2013-08-18T07:10:16Z</time>
      </trkpt>
      <trkpt lat="44.65431" lon="0.86793">
        <ele>186.63</ele>
        <time>2013-08-18T07:10:20Z</time>
      </trkpt>
      <trkpt lat="44.65436" lon="0.86767">
        <ele>183.27</ele>
        <time>2013-08-18T07:10:23Z</time>
      </trkpt>
      <trkpt lat="44.65477" lon="0.86665">
        <ele>175.1</ele>
        <time>2013-08-18T07:10:34Z</time>
      </trkpt>
      <trkpt lat="44.65481" lon="0.86654">
        <ele>174.62</ele>
        <time>2013-08-18T07:10:35Z</time>
      </trkpt>
      <trkpt lat="44.65488" lon="0.86617">
        <ele>170.77</ele>
        <time>2013-08-18T07:10:39Z</time>
      </trkpt>
      <trkpt lat="44.65492" lon="0.8659">
        <ele>165</ele>
        <time>2013-08-18T07:10:45Z</time>
      </trkpt>
      <trkpt lat="44.65492" lon="0.86571">
        <ele>162.12</ele>
        <time>2013-08-18T07:10:48Z</time>
      </trkpt>
      <trkpt lat="44.65489" lon="0.86516">
        <ele>159.24</ele>
        <time>2013-08-18T07:10:55Z</time>
      </trkpt>
      <trkpt lat="44.65482" lon="0.86439">
        <ele>155.87</ele>
        <time>2013-08-18T07:11:04Z</time>
      </trkpt>
      <trkpt lat="44.6548" lon="0.86392">
        <ele>153.95</ele>
        <time>2013-08-18T07:11:10Z</time>
      </trkpt>
      <trkpt lat="44.65487" lon="0.86351">
        <ele>152.51</ele>
        <time>2013-08-18T07:11:16Z</time>
      </trkpt>
      <trkpt lat="44.65507" lon="0.86275">
        <ele>149.62</ele>
        <time>2013-08-18T07:11:28Z</time>
      </trkpt>
      <trkpt lat="44.6551" lon="0.86266">
        <ele>149.14</ele>
        <time>2013-08-18T07:11:30Z</time>
      </trkpt>
      <trkpt lat="44.65531" lon="0.8626">
        <ele>147.7</ele>
        <time>2013-08-18T07:11:39Z</time>
      </trkpt>
      <trkpt lat="44.65537" lon="0.86262">
        <ele>148.18</ele>
        <time>2013-08-18T07:11:43Z</time>
      </trkpt>
      <trkpt lat="44.65543" lon="0.8625">
        <ele>146.26</ele>
        <time>2013-08-18T07:11:47Z</time>
      </trkpt>
      <trkpt lat="44.65544" lon="0.86244">
        <ele>145.78</ele>
        <time>2013-08-18T07:11:48Z</time>
      </trkpt>
      <trkpt lat="44.65548" lon="0.86222">
        <ele>144.34</ele>
        <time>2013-08-18T07:11:52Z</time>
      </trkpt>
      <trkpt lat="44.6555" lon="0.86216">
        <ele>143.85</ele>
        <time>2013-08-18T07:11:53Z</time>
      </trkpt>
      <trkpt lat="44.65552" lon="0.8621">
        <ele>143.85</ele>
        <time>2013-08-18T07:11:54Z</time>
      </trkpt>
      <trkpt lat="44.65554" lon="0.86203">
        <ele>143.37</ele>
        <time>2013-08-18T07:11:55Z</time>
      </trkpt>
      <trkpt lat="44.65558" lon="0.86197">
        <ele>143.37</ele>
        <time>2013-08-18T07:11:56Z</time>
      </trkpt>
      <trkpt lat="44.65563" lon="0.86191">
        <ele>142.89</ele>
        <time>2013-08-18T07:11:57Z</time>
      </trkpt>
      <trkpt lat="44.65569" lon="0.86186">
        <ele>142.41</ele>
        <time>2013-08-18T07:11:58Z</time>
      </trkpt>
      <trkpt lat="44.65592" lon="0.86162">
        <ele>137.13</ele>
        <time>2013-08-18T07:12:06Z</time>
      </trkpt>
      <trkpt lat="44.65597" lon="0.86156">
        <ele>131.36</ele>
        <time>2013-08-18T07:12:28Z</time>
      </trkpt>
      <trkpt lat="44.65597" lon="0.86156">
        <ele>129.43</ele>
        <time>2013-08-18T07:12:44Z</time>
      </trkpt>
      <trkpt lat="44.65598" lon="0.86154">
        <ele>128.95</ele>
        <time>2013-08-18T07:12:48Z</time>
      </trkpt>
      <trkpt lat="44.65598" lon="0.86152">
        <ele>128.95</ele>
        <time>2013-08-18T07:12:49Z</time>
      </trkpt>
      <trkpt lat="44.65597" lon="0.86149">
        <ele>128.95</ele>
        <time>2013-08-18T07:12:50Z</time>
      </trkpt>
      <trkpt lat="44.65573" lon="0.86093">
        <ele>127.03</ele>
        <time>2013-08-18T07:13:04Z</time>
      </trkpt>
      <trkpt lat="44.6553" lon="0.86">
        <ele>126.07</ele>
        <time>2013-08-18T07:13:20Z</time>
      </trkpt>
      <trkpt lat="44.65503" lon="0.85944">
        <ele>127.51</ele>
        <time>2013-08-18T07:13:32Z</time>
      </trkpt>
      <trkpt lat="44.65502" lon="0.85939">
        <ele>127.99</ele>
        <time>2013-08-18T07:13:33Z</time>
      </trkpt>
      <trkpt lat="44.65504" lon="0.85933">
        <ele>128.47</ele>
        <time>2013-08-18T07:13:34Z</time>
      </trkpt>
      <trkpt lat="44.65506" lon="0.85929">
        <ele>128.95</ele>
        <time>2013-08-18T07:13:35Z</time>
      </trkpt>
      <trkpt lat="44.65509" lon="0.85925">
        <ele>129.43</ele>
        <time>2013-08-18T07:13:36Z</time>
      </trkpt>
      <trkpt lat="44.65512" lon="0.85922">
        <ele>129.92</ele>
        <time>2013-08-18T07:13:37Z</time>
      </trkpt>
      <trkpt lat="44.65526" lon="0.85906">
        <ele>131.36</ele>
        <time>2013-08-18T07:13:41Z</time>
      </trkpt>
      <trkpt lat="44.6553" lon="0.85902">
        <ele>131.84</ele>
        <time>2013-08-18T07:13:42Z</time>
      </trkpt>
      <trkpt lat="44.6555" lon="0.85877">
        <ele>132.8</ele>
        <time>2013-08-18T07:13:47Z</time>
      </trkpt>
      <trkpt lat="44.65553" lon="0.85873">
        <ele>132.8</ele>
        <time>2013-08-18T07:13:48Z</time>
      </trkpt>
      <trkpt lat="44.65557" lon="0.85868">
        <ele>133.28</ele>
        <time>2013-08-18T07:13:49Z</time>
      </trkpt>
      <trkpt lat="44.65561" lon="0.85863">
        <ele>133.28</ele>
        <time>2013-08-18T07:13:50Z</time>
      </trkpt>
      <trkpt lat="44.65565" lon="0.85858">
        <ele>133.28</ele>
        <time>2013-08-18T07:13:51Z</time>
      </trkpt>
      <trkpt lat="44.65604" lon="0.85797">
        <ele>138.57</ele>
        <time>2013-08-18T07:14:03Z</time>
      </trkpt>
      <trkpt lat="44.65607" lon="0.85792">
        <ele>139.05</ele>
        <time>2013-08-18T07:14:04Z</time>
      </trkpt>
      <trkpt lat="44.6561" lon="0.85787">
        <ele>139.05</ele>
        <time>2013-08-18T07:14:05Z</time>
      </trkpt>
      <trkpt lat="44.65617" lon="0.85772">
        <ele>140.49</ele>
        <time>2013-08-18T07:14:08Z</time>
      </trkpt>
      <trkpt lat="44.65619" lon="0.85767">
        <ele>140.97</ele>
        <time>2013-08-18T07:14:09Z</time>
      </trkpt>
      <trkpt lat="44.65622" lon="0.85764">
        <ele>140.97</ele>
        <time>2013-08-18T07:14:10Z</time>
      </trkpt>
      <trkpt lat="44.65626" lon="0.85764">
        <ele>141.45</ele>
        <time>2013-08-18T07:14:11Z</time>
      </trkpt>
      <trkpt lat="44.65628" lon="0.85766">
        <ele>141.45</ele>
        <time>2013-08-18T07:14:12Z</time>
      </trkpt>
      <trkpt lat="44.65629" lon="0.85769">
        <ele>141.45</ele>
        <time>2013-08-18T07:14:13Z</time>
      </trkpt>
      <trkpt lat="44.65631" lon="0.85771">
        <ele>140.97</ele>
        <time>2013-08-18T07:14:14Z</time>
      </trkpt>
      <trkpt lat="44.65632" lon="0.85774">
        <ele>140.97</ele>
        <time>2013-08-18T07:14:15Z</time>
      </trkpt>
      <trkpt lat="44.65632" lon="0.85776">
        <ele>140.97</ele>
        <time>2013-08-18T07:14:16Z</time>
      </trkpt>
      <trkpt lat="44.65654" lon="0.85835">
        <ele>136.16</ele>
        <time>2013-08-18T07:14:29Z</time>
      </trkpt>
      <trkpt lat="44.65672" lon="0.85895">
        <ele>132.32</ele>
        <time>2013-08-18T07:14:41Z</time>
      </trkpt>
      <trkpt lat="44.65679" lon="0.85912">
        <ele>130.4</ele>
        <time>2013-08-18T07:14:45Z</time>
      </trkpt>
      <trkpt lat="44.65691" lon="0.85916">
        <ele>129.92</ele>
        <time>2013-08-18T07:14:49Z</time>
      </trkpt>
      <trkpt lat="44.65724" lon="0.85898">
        <ele>133.76</ele>
        <time>2013-08-18T07:15:01Z</time>
      </trkpt>
      <trkpt lat="44.65742" lon="0.85871">
        <ele>139.53</ele>
        <time>2013-08-18T07:15:14Z</time>
      </trkpt>
      <trkpt lat="44.65756" lon="0.85838">
        <ele>144.34</ele>
        <time>2013-08-18T07:15:26Z</time>
      </trkpt>
      <trkpt lat="44.65774" lon="0.85825">
        <ele>143.85</ele>
        <time>2013-08-18T07:15:34Z</time>
      </trkpt>
      <trkpt lat="44.65782" lon="0.85827">
        <ele>147.22</ele>
        <time>2013-08-18T07:15:39Z</time>
      </trkpt>
      <trkpt lat="44.6579" lon="0.85817">
        <ele>152.03</ele>
        <time>2013-08-18T07:15:45Z</time>
      </trkpt>
      <trkpt lat="44.65798" lon="0.85813">
        <ele>155.39</ele>
        <time>2013-08-18T07:15:50Z</time>
      </trkpt>
      <trkpt lat="44.65828" lon="0.85801">
        <ele>162.6</ele>
        <time>2013-08-18T07:16:05Z</time>
      </trkpt>
      <trkpt lat="44.65861" lon="0.85787">
        <ele>169.81</ele>
        <time>2013-08-18T07:16:20Z</time>
      </trkpt>
      <trkpt lat="44.65888" lon="0.85779">
        <ele>175.1</ele>
        <time>2013-08-18T07:16:33Z</time>
      </trkpt>
      <trkpt lat="44.65917" lon="0.85773">
        <ele>178.94</ele>
        <time>2013-08-18T07:16:45Z</time>
      </trkpt>
      <trkpt lat="44.65929" lon="0.85765">
        <ele>179.9</ele>
        <time>2013-08-18T07:16:52Z</time>
      </trkpt>
      <trkpt lat="44.65937" lon="0.85764">
        <ele>177.98</ele>
        <time>2013-08-18T07:16:57Z</time>
      </trkpt>
      <trkpt lat="44.6596" lon="0.85765">
        <ele>172.69</ele>
        <time>2013-08-18T07:17:08Z</time>
      </trkpt>
      <trkpt lat="44.65968" lon="0.85758">
        <ele>171.73</ele>
        <time>2013-08-18T07:17:21Z</time>
      </trkpt>
      <trkpt lat="44.65971" lon="0.85756">
        <ele>167.89</ele>
        <time>2013-08-18T07:17:34Z</time>
      </trkpt>
      <trkpt lat="44.65971" lon="0.8575">
        <ele>167.41</ele>
        <time>2013-08-18T07:17:48Z</time>
      </trkpt>
      <trkpt lat="44.65971" lon="0.85745">
        <ele>167.89</ele>
        <time>2013-08-18T07:18:00Z</time>
      </trkpt>
      <trkpt lat="44.6598" lon="0.85724">
        <ele>168.37</ele>
        <time>2013-08-18T07:18:10Z</time>
      </trkpt>
      <trkpt lat="44.65981" lon="0.85692">
        <ele>165.96</ele>
        <time>2013-08-18T07:18:22Z</time>
      </trkpt>
      <trkpt lat="44.65976" lon="0.85651">
        <ele>162.12</ele>
        <time>2013-08-18T07:18:41Z</time>
      </trkpt>
      <trkpt lat="44.65971" lon="0.85615">
        <ele>164.52</ele>
        <time>2013-08-18T07:18:55Z</time>
      </trkpt>
      <trkpt lat="44.65971" lon="0.85612">
        <ele>164.52</ele>
        <time>2013-08-18T07:18:56Z</time>
      </trkpt>
      <trkpt lat="44.65973" lon="0.85607">
        <ele>163.56</ele>
        <time>2013-08-18T07:19:09Z</time>
      </trkpt>
      <trkpt lat="44.65973" lon="0.85606">
        <ele>164.52</ele>
        <time>2013-08-18T07:19:28Z</time>
      </trkpt>
      <trkpt lat="44.65978" lon="0.85607">
        <ele>165.96</ele>
        <time>2013-08-18T07:19:43Z</time>
      </trkpt>
      <trkpt lat="44.65997" lon="0.85601">
        <ele>167.89</ele>
        <time>2013-08-18T07:19:54Z</time>
      </trkpt>
      <trkpt lat="44.6603" lon="0.85586">
        <ele>169.81</ele>
        <time>2013-08-18T07:20:07Z</time>
      </trkpt>
      <trkpt lat="44.66052" lon="0.85576">
        <ele>171.25</ele>
        <time>2013-08-18T07:20:15Z</time>
      </trkpt>
      <trkpt lat="44.66071" lon="0.85563">
        <ele>172.21</ele>
        <time>2013-08-18T07:20:24Z</time>
      </trkpt>
      <trkpt lat="44.66092" lon="0.85554">
        <ele>174.14</ele>
        <time>2013-08-18T07:20:34Z</time>
      </trkpt>
      <trkpt lat="44.66124" lon="0.85562">
        <ele>174.14</ele>
        <time>2013-08-18T07:20:45Z</time>
      </trkpt>
      <trkpt lat="44.66156" lon="0.85576">
        <ele>174.62</ele>
        <time>2013-08-18T07:21:00Z</time>
      </trkpt>
      <trkpt lat="44.66184" lon="0.85588">
        <ele>176.06</ele>
        <time>2013-08-18T07:21:14Z</time>
      </trkpt>
      <trkpt lat="44.66213" lon="0.85609">
        <ele>177.5</ele>
        <time>2013-08-18T07:21:30Z</time>
      </trkpt>
      <trkpt lat="44.66241" lon="0.8561">
        <ele>177.5</ele>
        <time>2013-08-18T07:21:42Z</time>
      </trkpt>
      <trkpt lat="44.66278" lon="0.85608">
        <ele>177.98</ele>
        <time>2013-08-18T07:21:53Z</time>
      </trkpt>
      <trkpt lat="44.66321" lon="0.856">
        <ele>178.94</ele>
        <time>2013-08-18T07:22:06Z</time>
      </trkpt>
      <trkpt lat="44.66338" lon="0.85582">
        <ele>182.31</ele>
        <time>2013-08-18T07:22:19Z</time>
      </trkpt>
      <trkpt lat="44.66347" lon="0.85556">
        <ele>185.19</ele>
        <time>2013-08-18T07:22:32Z</time>
      </trkpt>
      <trkpt lat="44.66349" lon="0.8555">
        <ele>185.67</ele>
        <time>2013-08-18T07:22:35Z</time>
      </trkpt>
      <trkpt lat="44.66354" lon="0.85544">
        <ele>186.15</ele>
        <time>2013-08-18T07:22:39Z</time>
      </trkpt>
      <trkpt lat="44.66391" lon="0.8555">
        <ele>186.63</ele>
        <time>2013-08-18T07:22:49Z</time>
      </trkpt>
      <trkpt lat="44.66407" lon="0.85552">
        <ele>186.63</ele>
        <time>2013-08-18T07:22:52Z</time>
      </trkpt>
      <trkpt lat="44.66441" lon="0.8555">
        <ele>186.63</ele>
        <time>2013-08-18T07:22:58Z</time>
      </trkpt>
      <trkpt lat="44.66477" lon="0.85541">
        <ele>188.08</ele>
        <time>2013-08-18T07:23:04Z</time>
      </trkpt>
      <trkpt lat="44.6649" lon="0.85532">
        <ele>188.56</ele>
        <time>2013-08-18T07:23:07Z</time>
      </trkpt>
      <trkpt lat="44.6652" lon="0.85498">
        <ele>190.96</ele>
        <time>2013-08-18T07:23:17Z</time>
      </trkpt>
      <trkpt lat="44.66555" lon="0.85487">
        <ele>193.84</ele>
        <time>2013-08-18T07:23:28Z</time>
      </trkpt>
      <trkpt lat="44.66583" lon="0.85469">
        <ele>197.21</ele>
        <time>2013-08-18T07:23:37Z</time>
      </trkpt>
      <trkpt lat="44.6659" lon="0.85465">
        <ele>197.69</ele>
        <time>2013-08-18T07:23:39Z</time>
      </trkpt>
      <trkpt lat="44.66601" lon="0.85436">
        <ele>199.13</ele>
        <time>2013-08-18T07:23:46Z</time>
      </trkpt>
      <trkpt lat="44.66606" lon="0.85426">
        <ele>198.65</ele>
        <time>2013-08-18T07:23:48Z</time>
      </trkpt>
      <trkpt lat="44.66616" lon="0.85422">
        <ele>198.17</ele>
        <time>2013-08-18T07:23:56Z</time>
      </trkpt>
      <trkpt lat="44.66621" lon="0.85421">
        <ele>196.73</ele>
        <time>2013-08-18T07:24:13Z</time>
      </trkpt>
      <trkpt lat="44.66622" lon="0.85418">
        <ele>196.73</ele>
        <time>2013-08-18T07:24:35Z</time>
      </trkpt>
      <trkpt lat="44.66624" lon="0.85418">
        <ele>195.28</ele>
        <time>2013-08-18T07:24:53Z</time>
      </trkpt>
      <trkpt lat="44.66625" lon="0.85419">
        <ele>195.77</ele>
        <time>2013-08-18T07:25:15Z</time>
      </trkpt>
      <trkpt lat="44.6664" lon="0.85411">
        <ele>197.21</ele>
        <time>2013-08-18T07:25:36Z</time>
      </trkpt>
      <trkpt lat="44.66665" lon="0.85385">
        <ele>202.01</ele>
        <time>2013-08-18T07:25:46Z</time>
      </trkpt>
      <trkpt lat="44.66683" lon="0.85338">
        <ele>203.94</ele>
        <time>2013-08-18T07:25:56Z</time>
      </trkpt>
      <trkpt lat="44.66695" lon="0.85295">
        <ele>205.38</ele>
        <time>2013-08-18T07:26:07Z</time>
      </trkpt>
      <trkpt lat="44.66694" lon="0.8526">
        <ele>205.38</ele>
        <time>2013-08-18T07:26:20Z</time>
      </trkpt>
      <trkpt lat="44.66695" lon="0.85252">
        <ele>205.38</ele>
        <time>2013-08-18T07:26:25Z</time>
      </trkpt>
      <trkpt lat="44.66703" lon="0.85224">
        <ele>205.86</ele>
        <time>2013-08-18T07:26:38Z</time>
      </trkpt>
      <trkpt lat="44.66699" lon="0.85201">
        <ele>206.82</ele>
        <time>2013-08-18T07:26:44Z</time>
      </trkpt>
      <trkpt lat="44.66689" lon="0.85157">
        <ele>208.26</ele>
        <time>2013-08-18T07:26:58Z</time>
      </trkpt>
      <trkpt lat="44.66687" lon="0.85149">
        <ele>208.74</ele>
        <time>2013-08-18T07:27:01Z</time>
      </trkpt>
      <trkpt lat="44.66682" lon="0.85133">
        <ele>210.67</ele>
        <time>2013-08-18T07:27:07Z</time>
      </trkpt>
      <trkpt lat="44.66666" lon="0.85083">
        <ele>215.47</ele>
        <time>2013-08-18T07:27:20Z</time>
      </trkpt>
      <trkpt lat="44.66669" lon="0.85044">
        <ele>214.03</ele>
        <time>2013-08-18T07:27:31Z</time>
      </trkpt>
      <trkpt lat="44.66684" lon="0.8502">
        <ele>214.03</ele>
        <time>2013-08-18T07:27:41Z</time>
      </trkpt>
      <trkpt lat="44.66692" lon="0.85004">
        <ele>212.11</ele>
        <time>2013-08-18T07:27:53Z</time>
      </trkpt>
      <trkpt lat="44.66702" lon="0.84991">
        <ele>210.67</ele>
        <time>2013-08-18T07:28:17Z</time>
      </trkpt>
      <trkpt lat="44.66714" lon="0.84981">
        <ele>209.7</ele>
        <time>2013-08-18T07:28:23Z</time>
      </trkpt>
      <trkpt lat="44.66732" lon="0.84957">
        <ele>209.22</ele>
        <time>2013-08-18T07:28:34Z</time>
      </trkpt>
      <trkpt lat="44.66732" lon="0.84955">
        <ele>209.22</ele>
        <time>2013-08-18T07:28:51Z</time>
      </trkpt>
      <trkpt lat="44.66732" lon="0.84953">
        <ele>208.74</ele>
        <time>2013-08-18T07:28:59Z</time>
      </trkpt>
      <trkpt lat="44.66723" lon="0.84908">
        <ele>208.74</ele>
        <time>2013-08-18T07:29:11Z</time>
      </trkpt>
      <trkpt lat="44.66709" lon="0.8484">
        <ele>206.82</ele>
        <time>2013-08-18T07:29:23Z</time>
      </trkpt>
      <trkpt lat="44.66706" lon="0.84828">
        <ele>206.82</ele>
        <time>2013-08-18T07:29:25Z</time>
      </trkpt>
      <trkpt lat="44.66705" lon="0.84822">
        <ele>206.82</ele>
        <time>2013-08-18T07:29:26Z</time>
      </trkpt>
      <trkpt lat="44.66704" lon="0.84816">
        <ele>206.34</ele>
        <time>2013-08-18T07:29:27Z</time>
      </trkpt>
      <trkpt lat="44.66703" lon="0.84809">
        <ele>206.34</ele>
        <time>2013-08-18T07:29:28Z</time>
      </trkpt>
      <trkpt lat="44.66701" lon="0.84803">
        <ele>206.34</ele>
        <time>2013-08-18T07:29:29Z</time>
      </trkpt>
      <trkpt lat="44.667" lon="0.84797">
        <ele>206.82</ele>
        <time>2013-08-18T07:29:30Z</time>
      </trkpt>
      <trkpt lat="44.66681" lon="0.84703">
        <ele>203.46</ele>
        <time>2013-08-18T07:29:45Z</time>
      </trkpt>
      <trkpt lat="44.66678" lon="0.84685">
        <ele>202.98</ele>
        <time>2013-08-18T07:29:48Z</time>
      </trkpt>
      <trkpt lat="44.66677" lon="0.84679">
        <ele>202.98</ele>
        <time>2013-08-18T07:29:49Z</time>
      </trkpt>
      <trkpt lat="44.66675" lon="0.84667">
        <ele>202.98</ele>
        <time>2013-08-18T07:29:51Z</time>
      </trkpt>
      <trkpt lat="44.66675" lon="0.84661">
        <ele>202.98</ele>
        <time>2013-08-18T07:29:52Z</time>
      </trkpt>
      <trkpt lat="44.66672" lon="0.84643">
        <ele>202.98</ele>
        <time>2013-08-18T07:29:55Z</time>
      </trkpt>
      <trkpt lat="44.66671" lon="0.84637">
        <ele>202.98</ele>
        <time>2013-08-18T07:29:56Z</time>
      </trkpt>
      <trkpt lat="44.66664" lon="0.8457">
        <ele>199.61</ele>
        <time>2013-08-18T07:30:09Z</time>
      </trkpt>
      <trkpt lat="44.66659" lon="0.84545">
        <ele>199.13</ele>
        <time>2013-08-18T07:30:16Z</time>
      </trkpt>
      <trkpt lat="44.66656" lon="0.84544">
        <ele>199.61</ele>
        <time>2013-08-18T07:30:17Z</time>
      </trkpt>
      <trkpt lat="44.6665" lon="0.84545">
        <ele>200.09</ele>
        <time>2013-08-18T07:30:19Z</time>
      </trkpt>
      <trkpt lat="44.66639" lon="0.84545">
        <ele>200.57</ele>
        <time>2013-08-18T07:30:22Z</time>
      </trkpt>
      <trkpt lat="44.66586" lon="0.84546">
        <ele>204.42</ele>
        <time>2013-08-18T07:30:36Z</time>
      </trkpt>
      <trkpt lat="44.66578" lon="0.84547">
        <ele>204.9</ele>
        <time>2013-08-18T07:30:38Z</time>
      </trkpt>
      <trkpt lat="44.66538" lon="0.84552">
        <ele>208.74</ele>
        <time>2013-08-18T07:30:47Z</time>
      </trkpt>
      <trkpt lat="44.66496" lon="0.84548">
        <ele>211.15</ele>
        <time>2013-08-18T07:30:57Z</time>
      </trkpt>
      <trkpt lat="44.66475" lon="0.84546">
        <ele>214.51</ele>
        <time>2013-08-18T07:31:07Z</time>
      </trkpt>
      <trkpt lat="44.6646" lon="0.84547">
        <ele>217.4</ele>
        <time>2013-08-18T07:31:21Z</time>
      </trkpt>
      <trkpt lat="44.66435" lon="0.84545">
        <ele>216.91</ele>
        <time>2013-08-18T07:31:32Z</time>
      </trkpt>
      <trkpt lat="44.66405" lon="0.8454">
        <ele>215.95</ele>
        <time>2013-08-18T07:31:44Z</time>
      </trkpt>
      <trkpt lat="44.66381" lon="0.84557">
        <ele>214.03</ele>
        <time>2013-08-18T07:31:55Z</time>
      </trkpt>
      <trkpt lat="44.66359" lon="0.84588">
        <ele>212.11</ele>
        <time>2013-08-18T07:32:03Z</time>
      </trkpt>
      <trkpt lat="44.66311" lon="0.84661">
        <ele>205.38</ele>
        <time>2013-08-18T07:32:14Z</time>
      </trkpt>
      <trkpt lat="44.66267" lon="0.84729">
        <ele>203.94</ele>
        <time>2013-08-18T07:32:23Z</time>
      </trkpt>
      <trkpt lat="44.6625" lon="0.8478">
        <ele>201.05</ele>
        <time>2013-08-18T07:32:30Z</time>
      </trkpt>
      <trkpt lat="44.66225" lon="0.84822">
        <ele>197.69</ele>
        <time>2013-08-18T07:32:36Z</time>
      </trkpt>
      <trkpt lat="44.66211" lon="0.84828">
        <ele>196.73</ele>
        <time>2013-08-18T07:32:41Z</time>
      </trkpt>
      <trkpt lat="44.66205" lon="0.84824">
        <ele>196.25</ele>
        <time>2013-08-18T07:32:53Z</time>
      </trkpt>
      <trkpt lat="44.66203" lon="0.8482">
        <ele>196.25</ele>
        <time>2013-08-18T07:33:05Z</time>
      </trkpt>
      <trkpt lat="44.66202" lon="0.84807">
        <ele>196.73</ele>
        <time>2013-08-18T07:33:10Z</time>
      </trkpt>
      <trkpt lat="44.66195" lon="0.84775">
        <ele>197.21</ele>
        <time>2013-08-18T07:33:18Z</time>
      </trkpt>
      <trkpt lat="44.66188" lon="0.84717">
        <ele>197.69</ele>
        <time>2013-08-18T07:33:30Z</time>
      </trkpt>
      <trkpt lat="44.66188" lon="0.84712">
        <ele>197.21</ele>
        <time>2013-08-18T07:33:31Z</time>
      </trkpt>
      <trkpt lat="44.66184" lon="0.84692">
        <ele>196.73</ele>
        <time>2013-08-18T07:33:35Z</time>
      </trkpt>
      <trkpt lat="44.66184" lon="0.8466">
        <ele>192.4</ele>
        <time>2013-08-18T07:33:48Z</time>
      </trkpt>
      <trkpt lat="44.66181" lon="0.84619">
        <ele>191.44</ele>
        <time>2013-08-18T07:33:59Z</time>
      </trkpt>
      <trkpt lat="44.66164" lon="0.84582">
        <ele>192.88</ele>
        <time>2013-08-18T07:34:08Z</time>
      </trkpt>
      <trkpt lat="44.66156" lon="0.84543">
        <ele>193.36</ele>
        <time>2013-08-18T07:34:15Z</time>
      </trkpt>
      <trkpt lat="44.66155" lon="0.84536">
        <ele>193.36</ele>
        <time>2013-08-18T07:34:16Z</time>
      </trkpt>
      <trkpt lat="44.66153" lon="0.8453">
        <ele>193.36</ele>
        <time>2013-08-18T07:34:17Z</time>
      </trkpt>
      <trkpt lat="44.66125" lon="0.84437">
        <ele>196.25</ele>
        <time>2013-08-18T07:34:28Z</time>
      </trkpt>
      <trkpt lat="44.66123" lon="0.84427">
        <ele>196.73</ele>
        <time>2013-08-18T07:34:29Z</time>
      </trkpt>
      <trkpt lat="44.66121" lon="0.84418">
        <ele>196.73</ele>
        <time>2013-08-18T07:34:30Z</time>
      </trkpt>
      <trkpt lat="44.66112" lon="0.84367">
        <ele>195.28</ele>
        <time>2013-08-18T07:34:38Z</time>
      </trkpt>
      <trkpt lat="44.66113" lon="0.84365">
        <ele>194.8</ele>
        <time>2013-08-18T07:34:39Z</time>
      </trkpt>
      <trkpt lat="44.66114" lon="0.84364">
        <ele>194.8</ele>
        <time>2013-08-18T07:34:40Z</time>
      </trkpt>
      <trkpt lat="44.66116" lon="0.84364">
        <ele>194.8</ele>
        <time>2013-08-18T07:34:41Z</time>
      </trkpt>
      <trkpt lat="44.66117" lon="0.84364">
        <ele>194.32</ele>
        <time>2013-08-18T07:34:42Z</time>
      </trkpt>
      <trkpt lat="44.66118" lon="0.84364">
        <ele>194.32</ele>
        <time>2013-08-18T07:34:43Z</time>
      </trkpt>
      <trkpt lat="44.6612" lon="0.84365">
        <ele>193.84</ele>
        <time>2013-08-18T07:34:44Z</time>
      </trkpt>
      <trkpt lat="44.66122" lon="0.84365">
        <ele>193.84</ele>
        <time>2013-08-18T07:34:45Z</time>
      </trkpt>
      <trkpt lat="44.66124" lon="0.84365">
        <ele>193.84</ele>
        <time>2013-08-18T07:34:46Z</time>
      </trkpt>
      <trkpt lat="44.66126" lon="0.84365">
        <ele>193.84</ele>
        <time>2013-08-18T07:34:47Z</time>
      </trkpt>
      <trkpt lat="44.66128" lon="0.84365">
        <ele>193.84</ele>
        <time>2013-08-18T07:34:48Z</time>
      </trkpt>
      <trkpt lat="44.66131" lon="0.84364">
        <ele>193.84</ele>
        <time>2013-08-18T07:34:49Z</time>
      </trkpt>
      <trkpt lat="44.66175" lon="0.84364">
        <ele>193.84</ele>
        <time>2013-08-18T07:35:04Z</time>
      </trkpt>
      <trkpt lat="44.6624" lon="0.84367">
        <ele>196.73</ele>
        <time>2013-08-18T07:35:23Z</time>
      </trkpt>
      <trkpt lat="44.66286" lon="0.84343">
        <ele>198.65</ele>
        <time>2013-08-18T07:35:37Z</time>
      </trkpt>
      <trkpt lat="44.66345" lon="0.8429">
        <ele>196.73</ele>
        <time>2013-08-18T07:35:54Z</time>
      </trkpt>
      <trkpt lat="44.66354" lon="0.84284">
        <ele>196.73</ele>
        <time>2013-08-18T07:35:56Z</time>
      </trkpt>
      <trkpt lat="44.66358" lon="0.84282">
        <ele>196.73</ele>
        <time>2013-08-18T07:35:57Z</time>
      </trkpt>
      <trkpt lat="44.66391" lon="0.84273">
        <ele>196.73</ele>
        <time>2013-08-18T07:36:04Z</time>
      </trkpt>
      <trkpt lat="44.66485" lon="0.84241">
        <ele>196.25</ele>
        <time>2013-08-18T07:36:22Z</time>
      </trkpt>
      <trkpt lat="44.6657" lon="0.84238">
        <ele>193.36</ele>
        <time>2013-08-18T07:36:36Z</time>
      </trkpt>
      <trkpt lat="44.66626" lon="0.84232">
        <ele>193.36</ele>
        <time>2013-08-18T07:36:48Z</time>
      </trkpt>
      <trkpt lat="44.66647" lon="0.84229">
        <ele>193.84</ele>
        <time>2013-08-18T07:36:54Z</time>
      </trkpt>
      <trkpt lat="44.66692" lon="0.84216">
        <ele>197.69</ele>
        <time>2013-08-18T07:37:08Z</time>
      </trkpt>
      <trkpt lat="44.66741" lon="0.84222">
        <ele>197.21</ele>
        <time>2013-08-18T07:37:21Z</time>
      </trkpt>
      <trkpt lat="44.66804" lon="0.8425">
        <ele>195.28</ele>
        <time>2013-08-18T07:37:30Z</time>
      </trkpt>
      <trkpt lat="44.66865" lon="0.8428">
        <ele>192.4</ele>
        <time>2013-08-18T07:37:39Z</time>
      </trkpt>
      <trkpt lat="44.66878" lon="0.84286">
        <ele>191.44</ele>
        <time>2013-08-18T07:37:41Z</time>
      </trkpt>
      <trkpt lat="44.66888" lon="0.84292">
        <ele>190.96</ele>
        <time>2013-08-18T07:37:43Z</time>
      </trkpt>
      <trkpt lat="44.66906" lon="0.84305">
        <ele>190</ele>
        <time>2013-08-18T07:37:48Z</time>
      </trkpt>
      <trkpt lat="44.66953" lon="0.84338">
        <ele>189.52</ele>
        <time>2013-08-18T07:38:00Z</time>
      </trkpt>
      <trkpt lat="44.66961" lon="0.84344">
        <ele>189.52</ele>
        <time>2013-08-18T07:38:02Z</time>
      </trkpt>
      <trkpt lat="44.67001" lon="0.84369">
        <ele>190</ele>
        <time>2013-08-18T07:38:14Z</time>
      </trkpt>
      <trkpt lat="44.67003" lon="0.84371">
        <ele>190.48</ele>
        <time>2013-08-18T07:38:15Z</time>
      </trkpt>
      <trkpt lat="44.6701" lon="0.84381">
        <ele>189.52</ele>
        <time>2013-08-18T07:38:27Z</time>
      </trkpt>
      <trkpt lat="44.67014" lon="0.84387">
        <ele>189.04</ele>
        <time>2013-08-18T07:38:44Z</time>
      </trkpt>
      <trkpt lat="44.67016" lon="0.844">
        <ele>187.59</ele>
        <time>2013-08-18T07:38:49Z</time>
      </trkpt>
      <trkpt lat="44.67025" lon="0.84441">
        <ele>189.04</ele>
        <time>2013-08-18T07:39:01Z</time>
      </trkpt>
      <trkpt lat="44.67026" lon="0.84446">
        <ele>190</ele>
        <time>2013-08-18T07:39:03Z</time>
      </trkpt>
      <trkpt lat="44.67028" lon="0.84456">
        <ele>190.96</ele>
        <time>2013-08-18T07:39:07Z</time>
      </trkpt>
      <trkpt lat="44.67036" lon="0.84475">
        <ele>192.4</ele>
        <time>2013-08-18T07:39:14Z</time>
      </trkpt>
      <trkpt lat="44.67045" lon="0.84482">
        <ele>192.88</ele>
        <time>2013-08-18T07:39:19Z</time>
      </trkpt>
      <trkpt lat="44.67064" lon="0.845">
        <ele>194.8</ele>
        <time>2013-08-18T07:39:33Z</time>
      </trkpt>
      <trkpt lat="44.67069" lon="0.84506">
        <ele>194.8</ele>
        <time>2013-08-18T07:39:47Z</time>
      </trkpt>
      <trkpt lat="44.67073" lon="0.8451">
        <ele>194.8</ele>
        <time>2013-08-18T07:39:51Z</time>
      </trkpt>
      <trkpt lat="44.67088" lon="0.84536">
        <ele>193.84</ele>
        <time>2013-08-18T07:40:01Z</time>
      </trkpt>
      <trkpt lat="44.67098" lon="0.8456">
        <ele>195.77</ele>
        <time>2013-08-18T07:40:10Z</time>
      </trkpt>
      <trkpt lat="44.67124" lon="0.84584">
        <ele>199.13</ele>
        <time>2013-08-18T07:40:22Z</time>
      </trkpt>
      <trkpt lat="44.67134" lon="0.84586">
        <ele>201.05</ele>
        <time>2013-08-18T07:40:30Z</time>
      </trkpt>
      <trkpt lat="44.67138" lon="0.84585">
        <ele>199.13</ele>
        <time>2013-08-18T07:40:45Z</time>
      </trkpt>
      <trkpt lat="44.67136" lon="0.84587">
        <ele>200.57</ele>
        <time>2013-08-18T07:41:28Z</time>
      </trkpt>
      <trkpt lat="44.67138" lon="0.84583">
        <ele>202.49</ele>
        <time>2013-08-18T07:41:37Z</time>
      </trkpt>
      <trkpt lat="44.67142" lon="0.8457">
        <ele>203.46</ele>
        <time>2013-08-18T07:41:43Z</time>
      </trkpt>
      <trkpt lat="44.67154" lon="0.8453">
        <ele>204.9</ele>
        <time>2013-08-18T07:41:56Z</time>
      </trkpt>
      <trkpt lat="44.67167" lon="0.8448">
        <ele>204.9</ele>
        <time>2013-08-18T07:42:09Z</time>
      </trkpt>
      <trkpt lat="44.67171" lon="0.84467">
        <ele>204.9</ele>
        <time>2013-08-18T07:42:11Z</time>
      </trkpt>
      <trkpt lat="44.67172" lon="0.8446">
        <ele>205.38</ele>
        <time>2013-08-18T07:42:12Z</time>
      </trkpt>
      <trkpt lat="44.67174" lon="0.84454">
        <ele>205.38</ele>
        <time>2013-08-18T07:42:13Z</time>
      </trkpt>
      <trkpt lat="44.67205" lon="0.84392">
        <ele>209.22</ele>
        <time>2013-08-18T07:42:27Z</time>
      </trkpt>
      <trkpt lat="44.67225" lon="0.84362">
        <ele>214.99</ele>
        <time>2013-08-18T07:42:37Z</time>
      </trkpt>
      <trkpt lat="44.67248" lon="0.84324">
        <ele>221.72</ele>
        <time>2013-08-18T07:42:49Z</time>
      </trkpt>
      <trkpt lat="44.67274" lon="0.84278">
        <ele>225.57</ele>
        <time>2013-08-18T07:43:00Z</time>
      </trkpt>
      <trkpt lat="44.67294" lon="0.84243">
        <ele>223.16</ele>
        <time>2013-08-18T07:43:09Z</time>
      </trkpt>
      <trkpt lat="44.67306" lon="0.84222">
        <ele>222.68</ele>
        <time>2013-08-18T07:43:13Z</time>
      </trkpt>
      <trkpt lat="44.67347" lon="0.84135">
        <ele>217.4</ele>
        <time>2013-08-18T07:43:26Z</time>
      </trkpt>
      <trkpt lat="44.6735" lon="0.84128">
        <ele>216.91</ele>
        <time>2013-08-18T07:43:27Z</time>
      </trkpt>
      <trkpt lat="44.67387" lon="0.84068">
        <ele>214.99</ele>
        <time>2013-08-18T07:43:38Z</time>
      </trkpt>
      <trkpt lat="44.67413" lon="0.84034">
        <ele>214.03</ele>
        <time>2013-08-18T07:43:45Z</time>
      </trkpt>
      <trkpt lat="44.67426" lon="0.84017">
        <ele>212.59</ele>
        <time>2013-08-18T07:43:48Z</time>
      </trkpt>
      <trkpt lat="44.67438" lon="0.84004">
        <ele>211.63</ele>
        <time>2013-08-18T07:43:51Z</time>
      </trkpt>
      <trkpt lat="44.67469" lon="0.83963">
        <ele>208.26</ele>
        <time>2013-08-18T07:43:58Z</time>
      </trkpt>
      <trkpt lat="44.67486" lon="0.83926">
        <ele>205.86</ele>
        <time>2013-08-18T07:44:03Z</time>
      </trkpt>
      <trkpt lat="44.67526" lon="0.83867">
        <ele>201.53</ele>
        <time>2013-08-18T07:44:10Z</time>
      </trkpt>
      <trkpt lat="44.676" lon="0.83785">
        <ele>193.36</ele>
        <time>2013-08-18T07:44:20Z</time>
      </trkpt>
      <trkpt lat="44.6762" lon="0.83759">
        <ele>190.96</ele>
        <time>2013-08-18T07:44:26Z</time>
      </trkpt>
      <trkpt lat="44.67621" lon="0.83759">
        <ele>190</ele>
        <time>2013-08-18T07:44:38Z</time>
      </trkpt>
      <trkpt lat="44.67622" lon="0.83759">
        <ele>189.52</ele>
        <time>2013-08-18T07:45:01Z</time>
      </trkpt>
      <trkpt lat="44.67621" lon="0.83758">
        <ele>190</ele>
        <time>2013-08-18T07:45:28Z</time>
      </trkpt>
      <trkpt lat="44.67622" lon="0.83758">
        <ele>190</ele>
        <time>2013-08-18T07:45:51Z</time>
      </trkpt>
      <trkpt lat="44.67622" lon="0.83756">
        <ele>190</ele>
        <time>2013-08-18T07:45:56Z</time>
      </trkpt>
      <trkpt lat="44.67622" lon="0.83753">
        <ele>190</ele>
        <time>2013-08-18T07:45:57Z</time>
      </trkpt>
      <trkpt lat="44.67622" lon="0.8375">
        <ele>190</ele>
        <time>2013-08-18T07:45:58Z</time>
      </trkpt>
      <trkpt lat="44.67624" lon="0.83735">
        <ele>189.04</ele>
        <time>2013-08-18T07:46:01Z</time>
      </trkpt>
      <trkpt lat="44.67633" lon="0.83688">
        <ele>188.08</ele>
        <time>2013-08-18T07:46:08Z</time>
      </trkpt>
      <trkpt lat="44.67634" lon="0.83579">
        <ele>183.27</ele>
        <time>2013-08-18T07:46:21Z</time>
      </trkpt>
      <trkpt lat="44.67615" lon="0.83478">
        <ele>177.98</ele>
        <time>2013-08-18T07:46:31Z</time>
      </trkpt>
      <trkpt lat="44.67615" lon="0.83467">
        <ele>177.5</ele>
        <time>2013-08-18T07:46:32Z</time>
      </trkpt>
      <trkpt lat="44.67615" lon="0.83457">
        <ele>177.02</ele>
        <time>2013-08-18T07:46:33Z</time>
      </trkpt>
      <trkpt lat="44.67629" lon="0.83354">
        <ele>177.5</ele>
        <time>2013-08-18T07:46:45Z</time>
      </trkpt>
      <trkpt lat="44.67629" lon="0.8334">
        <ele>177.5</ele>
        <time>2013-08-18T07:46:47Z</time>
      </trkpt>
      <trkpt lat="44.67628" lon="0.83333">
        <ele>177.5</ele>
        <time>2013-08-18T07:46:48Z</time>
      </trkpt>
      <trkpt lat="44.67626" lon="0.83326">
        <ele>177.5</ele>
        <time>2013-08-18T07:46:49Z</time>
      </trkpt>
      <trkpt lat="44.67622" lon="0.83313">
        <ele>177.98</ele>
        <time>2013-08-18T07:46:51Z</time>
      </trkpt>
      <trkpt lat="44.67619" lon="0.83308">
        <ele>177.98</ele>
        <time>2013-08-18T07:46:52Z</time>
      </trkpt>
      <trkpt lat="44.67584" lon="0.83259">
        <ele>179.9</ele>
        <time>2013-08-18T07:47:02Z</time>
      </trkpt>
      <trkpt lat="44.67562" lon="0.83216">
        <ele>181.83</ele>
        <time>2013-08-18T07:47:09Z</time>
      </trkpt>
      <trkpt lat="44.67559" lon="0.8321">
        <ele>181.83</ele>
        <time>2013-08-18T07:47:10Z</time>
      </trkpt>
      <trkpt lat="44.67555" lon="0.83206">
        <ele>182.31</ele>
        <time>2013-08-18T07:47:11Z</time>
      </trkpt>
      <trkpt lat="44.6755" lon="0.83202">
        <ele>182.31</ele>
        <time>2013-08-18T07:47:12Z</time>
      </trkpt>
      <trkpt lat="44.67545" lon="0.83198">
        <ele>182.79</ele>
        <time>2013-08-18T07:47:13Z</time>
      </trkpt>
      <trkpt lat="44.67541" lon="0.83195">
        <ele>182.79</ele>
        <time>2013-08-18T07:47:14Z</time>
      </trkpt>
      <trkpt lat="44.67535" lon="0.83192">
        <ele>183.27</ele>
        <time>2013-08-18T07:47:15Z</time>
      </trkpt>
      <trkpt lat="44.6753" lon="0.8319">
        <ele>183.27</ele>
        <time>2013-08-18T07:47:16Z</time>
      </trkpt>
      <trkpt lat="44.67524" lon="0.83188">
        <ele>183.75</ele>
        <time>2013-08-18T07:47:17Z</time>
      </trkpt>
      <trkpt lat="44.67499" lon="0.83172">
        <ele>184.71</ele>
        <time>2013-08-18T07:47:22Z</time>
      </trkpt>
      <trkpt lat="44.67494" lon="0.83167">
        <ele>184.71</ele>
        <time>2013-08-18T07:47:23Z</time>
      </trkpt>
      <trkpt lat="44.67465" lon="0.83136">
        <ele>183.27</ele>
        <time>2013-08-18T07:47:29Z</time>
      </trkpt>
      <trkpt lat="44.67459" lon="0.83133">
        <ele>182.79</ele>
        <time>2013-08-18T07:47:30Z</time>
      </trkpt>
      <trkpt lat="44.67455" lon="0.83132">
        <ele>182.79</ele>
        <time>2013-08-18T07:47:31Z</time>
      </trkpt>
      <trkpt lat="44.67449" lon="0.83132">
        <ele>181.83</ele>
        <time>2013-08-18T07:47:33Z</time>
      </trkpt>
      <trkpt lat="44.67446" lon="0.83132">
        <ele>181.35</ele>
        <time>2013-08-18T07:47:35Z</time>
      </trkpt>
      <trkpt lat="44.6744" lon="0.83115">
        <ele>178.46</ele>
        <time>2013-08-18T07:47:41Z</time>
      </trkpt>
      <trkpt lat="44.67437" lon="0.83106">
        <ele>177.02</ele>
        <time>2013-08-18T07:47:43Z</time>
      </trkpt>
      <trkpt lat="44.67413" lon="0.83083">
        <ele>170.29</ele>
        <time>2013-08-18T07:47:51Z</time>
      </trkpt>
      <trkpt lat="44.67398" lon="0.83027">
        <ele>163.08</ele>
        <time>2013-08-18T07:47:58Z</time>
      </trkpt>
      <trkpt lat="44.67392" lon="0.83014">
        <ele>161.16</ele>
        <time>2013-08-18T07:48:00Z</time>
      </trkpt>
      <trkpt lat="44.67382" lon="0.82988">
        <ele>158.27</ele>
        <time>2013-08-18T07:48:04Z</time>
      </trkpt>
      <trkpt lat="44.67349" lon="0.82993">
        <ele>152.51</ele>
        <time>2013-08-18T07:48:12Z</time>
      </trkpt>
      <trkpt lat="44.67324" lon="0.82986">
        <ele>149.62</ele>
        <time>2013-08-18T07:48:16Z</time>
      </trkpt>
      <trkpt lat="44.67311" lon="0.82975">
        <ele>147.7</ele>
        <time>2013-08-18T07:48:18Z</time>
      </trkpt>
      <trkpt lat="44.67279" lon="0.82981">
        <ele>144.34</ele>
        <time>2013-08-18T07:48:23Z</time>
      </trkpt>
      <trkpt lat="44.67247" lon="0.83024">
        <ele>140.01</ele>
        <time>2013-08-18T07:48:29Z</time>
      </trkpt>
      <trkpt lat="44.67222" lon="0.83015">
        <ele>136.16</ele>
        <time>2013-08-18T07:48:35Z</time>
      </trkpt>
      <trkpt lat="44.67219" lon="0.83006">
        <ele>135.2</ele>
        <time>2013-08-18T07:48:36Z</time>
      </trkpt>
      <trkpt lat="44.6718" lon="0.82864">
        <ele>129.92</ele>
        <time>2013-08-18T07:48:50Z</time>
      </trkpt>
      <trkpt lat="44.67176" lon="0.82857">
        <ele>129.92</ele>
        <time>2013-08-18T07:48:51Z</time>
      </trkpt>
      <trkpt lat="44.67133" lon="0.82792">
        <ele>134.72</ele>
        <time>2013-08-18T07:49:01Z</time>
      </trkpt>
      <trkpt lat="44.67108" lon="0.82761">
        <ele>140.97</ele>
        <time>2013-08-18T07:49:12Z</time>
      </trkpt>
      <trkpt lat="44.67097" lon="0.82727">
        <ele>143.37</ele>
        <time>2013-08-18T07:49:25Z</time>
      </trkpt>
      <trkpt lat="44.67082" lon="0.827">
        <ele>144.82</ele>
        <time>2013-08-18T07:49:40Z</time>
      </trkpt>
      <trkpt lat="44.67068" lon="0.82657">
        <ele>142.89</ele>
        <time>2013-08-18T07:49:52Z</time>
      </trkpt>
      <trkpt lat="44.67062" lon="0.82641">
        <ele>142.41</ele>
        <time>2013-08-18T07:50:02Z</time>
      </trkpt>
      <trkpt lat="44.67062" lon="0.82641">
        <ele>142.89</ele>
        <time>2013-08-18T07:50:26Z</time>
      </trkpt>
      <trkpt lat="44.67062" lon="0.82642">
        <ele>143.37</ele>
        <time>2013-08-18T07:50:41Z</time>
      </trkpt>
      <trkpt lat="44.67062" lon="0.82641">
        <ele>142.41</ele>
        <time>2013-08-18T07:51:06Z</time>
      </trkpt>
      <trkpt lat="44.67052" lon="0.82613">
        <ele>141.93</ele>
        <time>2013-08-18T07:51:18Z</time>
      </trkpt>
      <trkpt lat="44.67034" lon="0.82575">
        <ele>140.49</ele>
        <time>2013-08-18T07:51:25Z</time>
      </trkpt>
      <trkpt lat="44.67032" lon="0.82569">
        <ele>140.49</ele>
        <time>2013-08-18T07:51:26Z</time>
      </trkpt>
      <trkpt lat="44.67031" lon="0.82562">
        <ele>140.49</ele>
        <time>2013-08-18T07:51:27Z</time>
      </trkpt>
      <trkpt lat="44.6703" lon="0.82555">
        <ele>140.49</ele>
        <time>2013-08-18T07:51:28Z</time>
      </trkpt>
      <trkpt lat="44.67029" lon="0.82548">
        <ele>140.49</ele>
        <time>2013-08-18T07:51:29Z</time>
      </trkpt>
      <trkpt lat="44.67029" lon="0.82541">
        <ele>140.49</ele>
        <time>2013-08-18T07:51:30Z</time>
      </trkpt>
      <trkpt lat="44.67029" lon="0.82535">
        <ele>140.49</ele>
        <time>2013-08-18T07:51:31Z</time>
      </trkpt>
      <trkpt lat="44.67029" lon="0.82522">
        <ele>140.49</ele>
        <time>2013-08-18T07:51:33Z</time>
      </trkpt>
      <trkpt lat="44.67028" lon="0.8251">
        <ele>140.49</ele>
        <time>2013-08-18T07:51:35Z</time>
      </trkpt>
      <trkpt lat="44.67027" lon="0.82504">
        <ele>140.49</ele>
        <time>2013-08-18T07:51:36Z</time>
      </trkpt>
      <trkpt lat="44.67023" lon="0.82492">
        <ele>140.49</ele>
        <time>2013-08-18T07:51:38Z</time>
      </trkpt>
      <trkpt lat="44.67002" lon="0.82444">
        <ele>141.45</ele>
        <time>2013-08-18T07:51:48Z</time>
      </trkpt>
      <trkpt lat="44.67002" lon="0.82439">
        <ele>140.97</ele>
        <time>2013-08-18T07:51:49Z</time>
      </trkpt>
      <trkpt lat="44.67004" lon="0.82434">
        <ele>140.97</ele>
        <time>2013-08-18T07:51:50Z</time>
      </trkpt>
      <trkpt lat="44.67005" lon="0.82429">
        <ele>140.97</ele>
        <time>2013-08-18T07:51:51Z</time>
      </trkpt>
      <trkpt lat="44.67033" lon="0.82349">
        <ele>138.57</ele>
        <time>2013-08-18T07:52:03Z</time>
      </trkpt>
      <trkpt lat="44.67045" lon="0.82326">
        <ele>136.64</ele>
        <time>2013-08-18T07:52:06Z</time>
      </trkpt>
      <trkpt lat="44.67056" lon="0.82308">
        <ele>135.2</ele>
        <time>2013-08-18T07:52:08Z</time>
      </trkpt>
      <trkpt lat="44.67107" lon="0.82168">
        <ele>122.71</ele>
        <time>2013-08-18T07:52:20Z</time>
      </trkpt>
      <trkpt lat="44.67133" lon="0.821">
        <ele>116.46</ele>
        <time>2013-08-18T07:52:26Z</time>
      </trkpt>
      <trkpt lat="44.67139" lon="0.8206">
        <ele>113.09</ele>
        <time>2013-08-18T07:52:30Z</time>
      </trkpt>
      <trkpt lat="44.67159" lon="0.8206">
        <ele>113.09</ele>
        <time>2013-08-18T07:52:37Z</time>
      </trkpt>
      <trkpt lat="44.67176" lon="0.82068">
        <ele>113.09</ele>
        <time>2013-08-18T07:52:42Z</time>
      </trkpt>
      <trkpt lat="44.67182" lon="0.82065">
        <ele>113.09</ele>
        <time>2013-08-18T07:52:45Z</time>
      </trkpt>
      <trkpt lat="44.67184" lon="0.82054">
        <ele>113.57</ele>
        <time>2013-08-18T07:52:49Z</time>
      </trkpt>
      <trkpt lat="44.67175" lon="0.82003">
        <ele>114.53</ele>
        <time>2013-08-18T07:53:03Z</time>
      </trkpt>
      <trkpt lat="44.67158" lon="0.81946">
        <ele>113.57</ele>
        <time>2013-08-18T07:53:18Z</time>
      </trkpt>
      <trkpt lat="44.67134" lon="0.81871">
        <ele>113.57</ele>
        <time>2013-08-18T07:53:34Z</time>
      </trkpt>
      <trkpt lat="44.67116" lon="0.81815">
        <ele>113.09</ele>
        <time>2013-08-18T07:53:45Z</time>
      </trkpt>
      <trkpt lat="44.67109" lon="0.81703">
        <ele>115.01</ele>
        <time>2013-08-18T07:54:03Z</time>
      </trkpt>
      <trkpt lat="44.67109" lon="0.81613">
        <ele>114.53</ele>
        <time>2013-08-18T07:54:18Z</time>
      </trkpt>
      <trkpt lat="44.67118" lon="0.81532">
        <ele>115.98</ele>
        <time>2013-08-18T07:54:34Z</time>
      </trkpt>
      <trkpt lat="44.67115" lon="0.81456">
        <ele>115.5</ele>
        <time>2013-08-18T07:54:47Z</time>
      </trkpt>
      <trkpt lat="44.6711" lon="0.81405">
        <ele>114.53</ele>
        <time>2013-08-18T07:54:57Z</time>
      </trkpt>
      <trkpt lat="44.67106" lon="0.81382">
        <ele>114.05</ele>
        <time>2013-08-18T07:55:01Z</time>
      </trkpt>
      <trkpt lat="44.67095" lon="0.81313">
        <ele>115.01</ele>
        <time>2013-08-18T07:55:14Z</time>
      </trkpt>
      <trkpt lat="44.67093" lon="0.81214">
        <ele>114.53</ele>
        <time>2013-08-18T07:55:29Z</time>
      </trkpt>
      <trkpt lat="44.67114" lon="0.81114">
        <ele>114.05</ele>
        <time>2013-08-18T07:55:44Z</time>
      </trkpt>
      <trkpt lat="44.67145" lon="0.81032">
        <ele>114.53</ele>
        <time>2013-08-18T07:55:57Z</time>
      </trkpt>
      <trkpt lat="44.67174" lon="0.81003">
        <ele>115.01</ele>
        <time>2013-08-18T07:56:05Z</time>
      </trkpt>
      <trkpt lat="44.67186" lon="0.80995">
        <ele>115.5</ele>
        <time>2013-08-18T07:56:08Z</time>
      </trkpt>
      <trkpt lat="44.67198" lon="0.8099">
        <ele>115.5</ele>
        <time>2013-08-18T07:56:11Z</time>
      </trkpt>
      <trkpt lat="44.67224" lon="0.80993">
        <ele>115.01</ele>
        <time>2013-08-18T07:56:16Z</time>
      </trkpt>
      <trkpt lat="44.67285" lon="0.81028">
        <ele>115.01</ele>
        <time>2013-08-18T07:56:30Z</time>
      </trkpt>
      <trkpt lat="44.67294" lon="0.81031">
        <ele>115.5</ele>
        <time>2013-08-18T07:56:32Z</time>
      </trkpt>
      <trkpt lat="44.67307" lon="0.81031">
        <ele>115.5</ele>
        <time>2013-08-18T07:56:35Z</time>
      </trkpt>
      <trkpt lat="44.67368" lon="0.80993">
        <ele>115.5</ele>
        <time>2013-08-18T07:56:49Z</time>
      </trkpt>
      <trkpt lat="44.67381" lon="0.80984">
        <ele>115.5</ele>
        <time>2013-08-18T07:56:52Z</time>
      </trkpt>
      <trkpt lat="44.67395" lon="0.80976">
        <ele>115.01</ele>
        <time>2013-08-18T07:56:55Z</time>
      </trkpt>
      <trkpt lat="44.67424" lon="0.80976">
        <ele>115.01</ele>
        <time>2013-08-18T07:57:01Z</time>
      </trkpt>
      <trkpt lat="44.67486" lon="0.80988">
        <ele>114.05</ele>
        <time>2013-08-18T07:57:15Z</time>
      </trkpt>
      <trkpt lat="44.67527" lon="0.80993">
        <ele>113.57</ele>
        <time>2013-08-18T07:57:25Z</time>
      </trkpt>
      <trkpt lat="44.67552" lon="0.80945">
        <ele>115.01</ele>
        <time>2013-08-18T07:57:35Z</time>
      </trkpt>
      <trkpt lat="44.67531" lon="0.80916">
        <ele>114.05</ele>
        <time>2013-08-18T07:57:44Z</time>
      </trkpt>
      <trkpt lat="44.67481" lon="0.80883">
        <ele>115.01</ele>
        <time>2013-08-18T07:57:59Z</time>
      </trkpt>
      <trkpt lat="44.67438" lon="0.80855">
        <ele>116.46</ele>
        <time>2013-08-18T07:58:11Z</time>
      </trkpt>
      <trkpt lat="44.67397" lon="0.80846">
        <ele>115.5</ele>
        <time>2013-08-18T07:58:21Z</time>
      </trkpt>
      <trkpt lat="44.67354" lon="0.80839">
        <ele>114.05</ele>
        <time>2013-08-18T07:58:31Z</time>
      </trkpt>
      <trkpt lat="44.67327" lon="0.80824">
        <ele>112.61</ele>
        <time>2013-08-18T07:58:38Z</time>
      </trkpt>
      <trkpt lat="44.67318" lon="0.80806">
        <ele>112.13</ele>
        <time>2013-08-18T07:58:42Z</time>
      </trkpt>
      <trkpt lat="44.67311" lon="0.80758">
        <ele>112.61</ele>
        <time>2013-08-18T07:58:51Z</time>
      </trkpt>
      <trkpt lat="44.67313" lon="0.80735">
        <ele>112.61</ele>
        <time>2013-08-18T07:58:55Z</time>
      </trkpt>
      <trkpt lat="44.67345" lon="0.80671">
        <ele>113.09</ele>
        <time>2013-08-18T07:59:09Z</time>
      </trkpt>
      <trkpt lat="44.6736" lon="0.8064">
        <ele>113.09</ele>
        <time>2013-08-18T07:59:15Z</time>
      </trkpt>
      <trkpt lat="44.6735" lon="0.80587">
        <ele>113.57</ele>
        <time>2013-08-18T07:59:24Z</time>
      </trkpt>
      <trkpt lat="44.67349" lon="0.8056">
        <ele>114.05</ele>
        <time>2013-08-18T07:59:29Z</time>
      </trkpt>
      <trkpt lat="44.67374" lon="0.80502">
        <ele>120.78</ele>
        <time>2013-08-18T07:59:42Z</time>
      </trkpt>
      <trkpt lat="44.67391" lon="0.80456">
        <ele>125.11</ele>
        <time>2013-08-18T07:59:54Z</time>
      </trkpt>
      <trkpt lat="44.6743" lon="0.80445">
        <ele>129.92</ele>
        <time>2013-08-18T08:00:07Z</time>
      </trkpt>
      <trkpt lat="44.67489" lon="0.80434">
        <ele>131.84</ele>
        <time>2013-08-18T08:00:25Z</time>
      </trkpt>
      <trkpt lat="44.67545" lon="0.80414">
        <ele>130.88</ele>
        <time>2013-08-18T08:00:41Z</time>
      </trkpt>
      <trkpt lat="44.67553" lon="0.80381">
        <ele>129.43</ele>
        <time>2013-08-18T08:00:48Z</time>
      </trkpt>
      <trkpt lat="44.67549" lon="0.80334">
        <ele>127.03</ele>
        <time>2013-08-18T08:00:55Z</time>
      </trkpt>
      <trkpt lat="44.67539" lon="0.80311">
        <ele>125.59</ele>
        <time>2013-08-18T08:00:59Z</time>
      </trkpt>
      <trkpt lat="44.67518" lon="0.80277">
        <ele>122.71</ele>
        <time>2013-08-18T08:01:05Z</time>
      </trkpt>
      <trkpt lat="44.67507" lon="0.80262">
        <ele>120.78</ele>
        <time>2013-08-18T08:01:08Z</time>
      </trkpt>
      <trkpt lat="44.67493" lon="0.80238">
        <ele>117.9</ele>
        <time>2013-08-18T08:01:12Z</time>
      </trkpt>
      <trkpt lat="44.67474" lon="0.80206">
        <ele>113.57</ele>
        <time>2013-08-18T08:01:18Z</time>
      </trkpt>
      <trkpt lat="44.67469" lon="0.80182">
        <ele>111.17</ele>
        <time>2013-08-18T08:01:22Z</time>
      </trkpt>
      <trkpt lat="44.67469" lon="0.80162">
        <ele>111.17</ele>
        <time>2013-08-18T08:01:25Z</time>
      </trkpt>
      <trkpt lat="44.67439" lon="0.80119">
        <ele>112.13</ele>
        <time>2013-08-18T08:01:36Z</time>
      </trkpt>
      <trkpt lat="44.674" lon="0.8009">
        <ele>113.09</ele>
        <time>2013-08-18T08:01:50Z</time>
      </trkpt>
      <trkpt lat="44.67375" lon="0.80068">
        <ele>111.65</ele>
        <time>2013-08-18T08:01:58Z</time>
      </trkpt>
      <trkpt lat="44.67349" lon="0.80006">
        <ele>112.13</ele>
        <time>2013-08-18T08:02:12Z</time>
      </trkpt>
      <trkpt lat="44.67343" lon="0.79949">
        <ele>112.61</ele>
        <time>2013-08-18T08:02:25Z</time>
      </trkpt>
      <trkpt lat="44.67368" lon="0.79918">
        <ele>115.01</ele>
        <time>2013-08-18T08:02:37Z</time>
      </trkpt>
      <trkpt lat="44.67388" lon="0.79875">
        <ele>115.5</ele>
        <time>2013-08-18T08:02:48Z</time>
      </trkpt>
      <trkpt lat="44.67363" lon="0.79834">
        <ele>115.5</ele>
        <time>2013-08-18T08:02:59Z</time>
      </trkpt>
      <trkpt lat="44.67357" lon="0.7983">
        <ele>115.5</ele>
        <time>2013-08-18T08:03:01Z</time>
      </trkpt>
      <trkpt lat="44.67353" lon="0.7983">
        <ele>115.5</ele>
        <time>2013-08-18T08:03:02Z</time>
      </trkpt>
      <trkpt lat="44.6735" lon="0.79831">
        <ele>115.98</ele>
        <time>2013-08-18T08:03:03Z</time>
      </trkpt>
      <trkpt lat="44.67335" lon="0.79841">
        <ele>115.98</ele>
        <time>2013-08-18T08:03:07Z</time>
      </trkpt>
      <trkpt lat="44.6733" lon="0.79842">
        <ele>115.98</ele>
        <time>2013-08-18T08:03:08Z</time>
      </trkpt>
      <trkpt lat="44.67326" lon="0.79843">
        <ele>115.5</ele>
        <time>2013-08-18T08:03:09Z</time>
      </trkpt>
      <trkpt lat="44.67321" lon="0.79841">
        <ele>115.5</ele>
        <time>2013-08-18T08:03:10Z</time>
      </trkpt>
      <trkpt lat="44.67317" lon="0.79839">
        <ele>115.5</ele>
        <time>2013-08-18T08:03:11Z</time>
      </trkpt>
      <trkpt lat="44.67313" lon="0.79836">
        <ele>115.5</ele>
        <time>2013-08-18T08:03:12Z</time>
      </trkpt>
      <trkpt lat="44.6731" lon="0.79833">
        <ele>115.5</ele>
        <time>2013-08-18T08:03:13Z</time>
      </trkpt>
      <trkpt lat="44.67291" lon="0.79809">
        <ele>115.5</ele>
        <time>2013-08-18T08:03:19Z</time>
      </trkpt>
      <trkpt lat="44.67288" lon="0.79804">
        <ele>115.5</ele>
        <time>2013-08-18T08:03:20Z</time>
      </trkpt>
      <trkpt lat="44.67286" lon="0.79799">
        <ele>115.01</ele>
        <time>2013-08-18T08:03:21Z</time>
      </trkpt>
      <trkpt lat="44.67264" lon="0.79727">
        <ele>115.01</ele>
        <time>2013-08-18T08:03:35Z</time>
      </trkpt>
      <trkpt lat="44.67258" lon="0.79713">
        <ele>115.5</ele>
        <time>2013-08-18T08:03:41Z</time>
      </trkpt>
      <trkpt lat="44.67257" lon="0.79709">
        <ele>115.5</ele>
        <time>2013-08-18T08:03:42Z</time>
      </trkpt>
      <trkpt lat="44.67256" lon="0.79705">
        <ele>115.5</ele>
        <time>2013-08-18T08:03:43Z</time>
      </trkpt>
      <trkpt lat="44.67255" lon="0.79702">
        <ele>115.5</ele>
        <time>2013-08-18T08:03:44Z</time>
      </trkpt>
      <trkpt lat="44.67254" lon="0.79698">
        <ele>115.5</ele>
        <time>2013-08-18T08:03:45Z</time>
      </trkpt>
      <trkpt lat="44.67253" lon="0.79694">
        <ele>115.5</ele>
        <time>2013-08-18T08:03:46Z</time>
      </trkpt>
      <trkpt lat="44.67251" lon="0.79689">
        <ele>115.5</ele>
        <time>2013-08-18T08:03:47Z</time>
      </trkpt>
      <trkpt lat="44.67227" lon="0.79643">
        <ele>115.98</ele>
        <time>2013-08-18T08:04:00Z</time>
      </trkpt>
      <trkpt lat="44.67195" lon="0.79611">
        <ele>117.42</ele>
        <time>2013-08-18T08:04:14Z</time>
      </trkpt>
      <trkpt lat="44.67192" lon="0.79607">
        <ele>117.42</ele>
        <time>2013-08-18T08:04:26Z</time>
      </trkpt>
      <trkpt lat="44.67192" lon="0.79606">
        <ele>116.46</ele>
        <time>2013-08-18T08:04:56Z</time>
      </trkpt>
      <trkpt lat="44.67192" lon="0.79607">
        <ele>115.01</ele>
        <time>2013-08-18T08:05:32Z</time>
      </trkpt>
      <trkpt lat="44.67194" lon="0.79605">
        <ele>117.42</ele>
        <time>2013-08-18T08:06:04Z</time>
      </trkpt>
      <trkpt lat="44.67192" lon="0.79606">
        <ele>118.38</ele>
        <time>2013-08-18T08:06:48Z</time>
      </trkpt>
      <trkpt lat="44.67194" lon="0.79605">
        <ele>116.46</ele>
        <time>2013-08-18T08:07:21Z</time>
      </trkpt>
      <trkpt lat="44.67192" lon="0.79602">
        <ele>117.9</ele>
        <time>2013-08-18T08:07:58Z</time>
      </trkpt>
      <trkpt lat="44.67194" lon="0.79605">
        <ele>121.26</ele>
        <time>2013-08-18T08:08:30Z</time>
      </trkpt>
      <trkpt lat="44.67193" lon="0.79603">
        <ele>116.46</ele>
        <time>2013-08-18T08:08:59Z</time>
      </trkpt>
      <trkpt lat="44.67192" lon="0.79599">
        <ele>120.3</ele>
        <time>2013-08-18T08:09:38Z</time>
      </trkpt>
      <trkpt lat="44.67194" lon="0.79602">
        <ele>120.78</ele>
        <time>2013-08-18T08:10:17Z</time>
      </trkpt>
      <trkpt lat="44.67195" lon="0.79607">
        <ele>120.78</ele>
        <time>2013-08-18T08:10:44Z</time>
      </trkpt>
      <trkpt lat="44.67192" lon="0.79601">
        <ele>118.38</ele>
        <time>2013-08-18T08:11:17Z</time>
      </trkpt>
      <trkpt lat="44.67191" lon="0.79605">
        <ele>118.86</ele>
        <time>2013-08-18T08:11:33Z</time>
      </trkpt>
      <trkpt lat="44.67191" lon="0.79605">
        <ele>117.9</ele>
        <time>2013-08-18T08:11:50Z</time>
      </trkpt>
      <trkpt lat="44.67179" lon="0.79587">
        <ele>116.94</ele>
        <time>2013-08-18T08:12:03Z</time>
      </trkpt>
      <trkpt lat="44.67144" lon="0.79563">
        <ele>115.98</ele>
        <time>2013-08-18T08:12:15Z</time>
      </trkpt>
      <trkpt lat="44.67125" lon="0.79558">
        <ele>113.57</ele>
        <time>2013-08-18T08:12:19Z</time>
      </trkpt>
      <trkpt lat="44.67091" lon="0.79567">
        <ele>105.4</ele>
        <time>2013-08-18T08:12:25Z</time>
      </trkpt>
      <trkpt lat="44.67018" lon="0.79587">
        <ele>101.56</ele>
        <time>2013-08-18T08:12:35Z</time>
      </trkpt>
      <trkpt lat="44.67011" lon="0.79588">
        <ele>101.56</ele>
        <time>2013-08-18T08:12:36Z</time>
      </trkpt>
      <trkpt lat="44.67006" lon="0.7959">
        <ele>101.56</ele>
        <time>2013-08-18T08:12:37Z</time>
      </trkpt>
      <trkpt lat="44.67" lon="0.79593">
        <ele>101.56</ele>
        <time>2013-08-18T08:12:38Z</time>
      </trkpt>
      <trkpt lat="44.66996" lon="0.79597">
        <ele>101.56</ele>
        <time>2013-08-18T08:12:39Z</time>
      </trkpt>
      <trkpt lat="44.66992" lon="0.79602">
        <ele>101.56</ele>
        <time>2013-08-18T08:12:40Z</time>
      </trkpt>
      <trkpt lat="44.66988" lon="0.79607">
        <ele>101.56</ele>
        <time>2013-08-18T08:12:41Z</time>
      </trkpt>
      <trkpt lat="44.66983" lon="0.79616">
        <ele>102.04</ele>
        <time>2013-08-18T08:12:43Z</time>
      </trkpt>
      <trkpt lat="44.66981" lon="0.79621">
        <ele>102.04</ele>
        <time>2013-08-18T08:12:44Z</time>
      </trkpt>
      <trkpt lat="44.66979" lon="0.79626">
        <ele>102.04</ele>
        <time>2013-08-18T08:12:45Z</time>
      </trkpt>
      <trkpt lat="44.66978" lon="0.79632">
        <ele>102.52</ele>
        <time>2013-08-18T08:12:46Z</time>
      </trkpt>
      <trkpt lat="44.66978" lon="0.79638">
        <ele>102.52</ele>
        <time>2013-08-18T08:12:47Z</time>
      </trkpt>
      <trkpt lat="44.66978" lon="0.79644">
        <ele>102.52</ele>
        <time>2013-08-18T08:12:48Z</time>
      </trkpt>
      <trkpt lat="44.66977" lon="0.7965">
        <ele>102.52</ele>
        <time>2013-08-18T08:12:49Z</time>
      </trkpt>
      <trkpt lat="44.66972" lon="0.79744">
        <ele>103.48</ele>
        <time>2013-08-18T08:13:04Z</time>
      </trkpt>
      <trkpt lat="44.66954" lon="0.79797">
        <ele>108.77</ele>
        <time>2013-08-18T08:13:18Z</time>
      </trkpt>
      <trkpt lat="44.66924" lon="0.79851">
        <ele>111.17</ele>
        <time>2013-08-18T08:13:34Z</time>
      </trkpt>
      <trkpt lat="44.66882" lon="0.79903">
        <ele>112.61</ele>
        <time>2013-08-18T08:13:52Z</time>
      </trkpt>
      <trkpt lat="44.66839" lon="0.79959">
        <ele>115.5</ele>
        <time>2013-08-18T08:14:11Z</time>
      </trkpt>
      <trkpt lat="44.66833" lon="0.79986">
        <ele>117.9</ele>
        <time>2013-08-18T08:14:20Z</time>
      </trkpt>
      <trkpt lat="44.66806" lon="0.79976">
        <ele>117.9</ele>
        <time>2013-08-18T08:14:33Z</time>
      </trkpt>
      <trkpt lat="44.66803" lon="0.79972">
        <ele>117.9</ele>
        <time>2013-08-18T08:14:34Z</time>
      </trkpt>
      <trkpt lat="44.66799" lon="0.79968">
        <ele>117.42</ele>
        <time>2013-08-18T08:14:35Z</time>
      </trkpt>
      <trkpt lat="44.66795" lon="0.79965">
        <ele>117.42</ele>
        <time>2013-08-18T08:14:36Z</time>
      </trkpt>
      <trkpt lat="44.6679" lon="0.79965">
        <ele>117.42</ele>
        <time>2013-08-18T08:14:37Z</time>
      </trkpt>
      <trkpt lat="44.66786" lon="0.79965">
        <ele>117.42</ele>
        <time>2013-08-18T08:14:38Z</time>
      </trkpt>
      <trkpt lat="44.66782" lon="0.79966">
        <ele>117.42</ele>
        <time>2013-08-18T08:14:39Z</time>
      </trkpt>
      <trkpt lat="44.66779" lon="0.79969">
        <ele>117.42</ele>
        <time>2013-08-18T08:14:40Z</time>
      </trkpt>
      <trkpt lat="44.66776" lon="0.79972">
        <ele>117.42</ele>
        <time>2013-08-18T08:14:41Z</time>
      </trkpt>
      <trkpt lat="44.6673" lon="0.79998">
        <ele>120.78</ele>
        <time>2013-08-18T08:14:56Z</time>
      </trkpt>
      <trkpt lat="44.66688" lon="0.80009">
        <ele>122.22</ele>
        <time>2013-08-18T08:15:09Z</time>
      </trkpt>
      <trkpt lat="44.66685" lon="0.80007">
        <ele>122.22</ele>
        <time>2013-08-18T08:15:10Z</time>
      </trkpt>
      <trkpt lat="44.66683" lon="0.80004">
        <ele>122.22</ele>
        <time>2013-08-18T08:15:11Z</time>
      </trkpt>
      <trkpt lat="44.66651" lon="0.79948">
        <ele>127.03</ele>
        <time>2013-08-18T08:15:27Z</time>
      </trkpt>
      <trkpt lat="44.66617" lon="0.79888">
        <ele>134.24</ele>
        <time>2013-08-18T08:15:45Z</time>
      </trkpt>
      <trkpt lat="44.66615" lon="0.79886">
        <ele>134.72</ele>
        <time>2013-08-18T08:15:46Z</time>
      </trkpt>
      <trkpt lat="44.66612" lon="0.79886">
        <ele>134.72</ele>
        <time>2013-08-18T08:15:47Z</time>
      </trkpt>
      <trkpt lat="44.66609" lon="0.79886">
        <ele>135.2</ele>
        <time>2013-08-18T08:15:48Z</time>
      </trkpt>
      <trkpt lat="44.66606" lon="0.79888">
        <ele>135.2</ele>
        <time>2013-08-18T08:15:49Z</time>
      </trkpt>
      <trkpt lat="44.66603" lon="0.79889">
        <ele>135.68</ele>
        <time>2013-08-18T08:15:50Z</time>
      </trkpt>
      <trkpt lat="44.666" lon="0.79891">
        <ele>135.68</ele>
        <time>2013-08-18T08:15:51Z</time>
      </trkpt>
      <trkpt lat="44.66549" lon="0.79916">
        <ele>140.01</ele>
        <time>2013-08-18T08:16:08Z</time>
      </trkpt>
      <trkpt lat="44.66506" lon="0.79937">
        <ele>145.3</ele>
        <time>2013-08-18T08:16:23Z</time>
      </trkpt>
      <trkpt lat="44.66464" lon="0.79947">
        <ele>149.14</ele>
        <time>2013-08-18T08:16:37Z</time>
      </trkpt>
      <trkpt lat="44.66419" lon="0.7998">
        <ele>153.95</ele>
        <time>2013-08-18T08:16:53Z</time>
      </trkpt>
      <trkpt lat="44.66359" lon="0.80037">
        <ele>158.75</ele>
        <time>2013-08-18T08:17:14Z</time>
      </trkpt>
      <trkpt lat="44.66325" lon="0.80014">
        <ele>163.56</ele>
        <time>2013-08-18T08:17:26Z</time>
      </trkpt>
      <trkpt lat="44.66293" lon="0.80014">
        <ele>165.48</ele>
        <time>2013-08-18T08:17:38Z</time>
      </trkpt>
      <trkpt lat="44.66257" lon="0.80062">
        <ele>166.45</ele>
        <time>2013-08-18T08:17:53Z</time>
      </trkpt>
      <trkpt lat="44.66223" lon="0.80106">
        <ele>166.45</ele>
        <time>2013-08-18T08:18:06Z</time>
      </trkpt>
      <trkpt lat="44.66221" lon="0.80133">
        <ele>167.41</ele>
        <time>2013-08-18T08:18:16Z</time>
      </trkpt>
      <trkpt lat="44.66224" lon="0.80143">
        <ele>167.89</ele>
        <time>2013-08-18T08:18:27Z</time>
      </trkpt>
      <trkpt lat="44.66223" lon="0.80143">
        <ele>167.41</ele>
        <time>2013-08-18T08:18:49Z</time>
      </trkpt>
      <trkpt lat="44.66224" lon="0.80143">
        <ele>167.89</ele>
        <time>2013-08-18T08:19:11Z</time>
      </trkpt>
      <trkpt lat="44.66224" lon="0.80143">
        <ele>166.45</ele>
        <time>2013-08-18T08:19:31Z</time>
      </trkpt>
      <trkpt lat="44.66224" lon="0.80143">
        <ele>165.48</ele>
        <time>2013-08-18T08:19:57Z</time>
      </trkpt>
      <trkpt lat="44.66224" lon="0.80141">
        <ele>166.93</ele>
        <time>2013-08-18T08:20:17Z</time>
      </trkpt>
      <trkpt lat="44.66224" lon="0.80142">
        <ele>167.41</ele>
        <time>2013-08-18T08:20:31Z</time>
      </trkpt>
      <trkpt lat="44.66224" lon="0.80144">
        <ele>166.93</ele>
        <time>2013-08-18T08:20:43Z</time>
      </trkpt>
      <trkpt lat="44.66202" lon="0.80183">
        <ele>165</ele>
        <time>2013-08-18T08:20:53Z</time>
      </trkpt>
      <trkpt lat="44.66172" lon="0.80235">
        <ele>162.12</ele>
        <time>2013-08-18T08:21:02Z</time>
      </trkpt>
      <trkpt lat="44.66168" lon="0.80238">
        <ele>161.64</ele>
        <time>2013-08-18T08:21:03Z</time>
      </trkpt>
      <trkpt lat="44.66163" lon="0.80241">
        <ele>161.16</ele>
        <time>2013-08-18T08:21:04Z</time>
      </trkpt>
      <trkpt lat="44.66159" lon="0.80241">
        <ele>160.68</ele>
        <time>2013-08-18T08:21:05Z</time>
      </trkpt>
      <trkpt lat="44.66154" lon="0.80241">
        <ele>159.72</ele>
        <time>2013-08-18T08:21:06Z</time>
      </trkpt>
      <trkpt lat="44.66145" lon="0.80241">
        <ele>157.31</ele>
        <time>2013-08-18T08:21:08Z</time>
      </trkpt>
      <trkpt lat="44.66141" lon="0.80244">
        <ele>156.83</ele>
        <time>2013-08-18T08:21:09Z</time>
      </trkpt>
      <trkpt lat="44.66139" lon="0.80249">
        <ele>155.87</ele>
        <time>2013-08-18T08:21:10Z</time>
      </trkpt>
      <trkpt lat="44.66138" lon="0.80255">
        <ele>154.91</ele>
        <time>2013-08-18T08:21:11Z</time>
      </trkpt>
      <trkpt lat="44.66139" lon="0.80263">
        <ele>153.95</ele>
        <time>2013-08-18T08:21:12Z</time>
      </trkpt>
      <trkpt lat="44.6614" lon="0.80271">
        <ele>152.99</ele>
        <time>2013-08-18T08:21:13Z</time>
      </trkpt>
      <trkpt lat="44.66144" lon="0.80306">
        <ele>149.62</ele>
        <time>2013-08-18T08:21:17Z</time>
      </trkpt>
      <trkpt lat="44.66143" lon="0.80313">
        <ele>149.14</ele>
        <time>2013-08-18T08:21:18Z</time>
      </trkpt>
      <trkpt lat="44.66143" lon="0.80319">
        <ele>148.66</ele>
        <time>2013-08-18T08:21:19Z</time>
      </trkpt>
      <trkpt lat="44.6613" lon="0.80338">
        <ele>146.26</ele>
        <time>2013-08-18T08:21:26Z</time>
      </trkpt>
      <trkpt lat="44.66127" lon="0.80336">
        <ele>146.26</ele>
        <time>2013-08-18T08:21:27Z</time>
      </trkpt>
      <trkpt lat="44.66099" lon="0.80318">
        <ele>146.74</ele>
        <time>2013-08-18T08:21:35Z</time>
      </trkpt>
      <trkpt lat="44.6604" lon="0.80337">
        <ele>143.37</ele>
        <time>2013-08-18T08:21:49Z</time>
      </trkpt>
      <trkpt lat="44.66035" lon="0.80338">
        <ele>142.89</ele>
        <time>2013-08-18T08:21:50Z</time>
      </trkpt>
      <trkpt lat="44.66013" lon="0.80342">
        <ele>142.89</ele>
        <time>2013-08-18T08:21:54Z</time>
      </trkpt>
      <trkpt lat="44.65959" lon="0.80342">
        <ele>138.09</ele>
        <time>2013-08-18T08:22:02Z</time>
      </trkpt>
      <trkpt lat="44.65952" lon="0.80345">
        <ele>137.13</ele>
        <time>2013-08-18T08:22:03Z</time>
      </trkpt>
      <trkpt lat="44.65945" lon="0.80348">
        <ele>136.16</ele>
        <time>2013-08-18T08:22:04Z</time>
      </trkpt>
      <trkpt lat="44.65938" lon="0.80353">
        <ele>135.2</ele>
        <time>2013-08-18T08:22:05Z</time>
      </trkpt>
      <trkpt lat="44.65932" lon="0.8036">
        <ele>134.72</ele>
        <time>2013-08-18T08:22:06Z</time>
      </trkpt>
      <trkpt lat="44.65926" lon="0.80369">
        <ele>133.76</ele>
        <time>2013-08-18T08:22:07Z</time>
      </trkpt>
      <trkpt lat="44.65922" lon="0.80379">
        <ele>132.8</ele>
        <time>2013-08-18T08:22:08Z</time>
      </trkpt>
      <trkpt lat="44.659" lon="0.80417">
        <ele>130.88</ele>
        <time>2013-08-18T08:22:12Z</time>
      </trkpt>
      <trkpt lat="44.65893" lon="0.80425">
        <ele>130.4</ele>
        <time>2013-08-18T08:22:13Z</time>
      </trkpt>
      <trkpt lat="44.65885" lon="0.80431">
        <ele>129.92</ele>
        <time>2013-08-18T08:22:14Z</time>
      </trkpt>
      <trkpt lat="44.65876" lon="0.80435">
        <ele>128.95</ele>
        <time>2013-08-18T08:22:15Z</time>
      </trkpt>
      <trkpt lat="44.65866" lon="0.80439">
        <ele>128.47</ele>
        <time>2013-08-18T08:22:16Z</time>
      </trkpt>
      <trkpt lat="44.65837" lon="0.8045">
        <ele>126.07</ele>
        <time>2013-08-18T08:22:19Z</time>
      </trkpt>
      <trkpt lat="44.65827" lon="0.80454">
        <ele>125.59</ele>
        <time>2013-08-18T08:22:20Z</time>
      </trkpt>
      <trkpt lat="44.6569" lon="0.80501">
        <ele>116.46</ele>
        <time>2013-08-18T08:22:33Z</time>
      </trkpt>
      <trkpt lat="44.65681" lon="0.80507">
        <ele>116.46</ele>
        <time>2013-08-18T08:22:34Z</time>
      </trkpt>
      <trkpt lat="44.65672" lon="0.80514">
        <ele>116.46</ele>
        <time>2013-08-18T08:22:35Z</time>
      </trkpt>
      <trkpt lat="44.65605" lon="0.80583">
        <ele>117.42</ele>
        <time>2013-08-18T08:22:45Z</time>
      </trkpt>
      <trkpt lat="44.65598" lon="0.80587">
        <ele>117.9</ele>
        <time>2013-08-18T08:22:46Z</time>
      </trkpt>
      <trkpt lat="44.6559" lon="0.80589">
        <ele>117.9</ele>
        <time>2013-08-18T08:22:47Z</time>
      </trkpt>
      <trkpt lat="44.65582" lon="0.80588">
        <ele>117.9</ele>
        <time>2013-08-18T08:22:48Z</time>
      </trkpt>
      <trkpt lat="44.65573" lon="0.80586">
        <ele>117.9</ele>
        <time>2013-08-18T08:22:49Z</time>
      </trkpt>
      <trkpt lat="44.65565" lon="0.80584">
        <ele>117.9</ele>
        <time>2013-08-18T08:22:50Z</time>
      </trkpt>
      <trkpt lat="44.65486" lon="0.80552">
        <ele>112.13</ele>
        <time>2013-08-18T08:23:00Z</time>
      </trkpt>
      <trkpt lat="44.65477" lon="0.80551">
        <ele>110.69</ele>
        <time>2013-08-18T08:23:03Z</time>
      </trkpt>
      <trkpt lat="44.65474" lon="0.80555">
        <ele>110.69</ele>
        <time>2013-08-18T08:23:04Z</time>
      </trkpt>
      <trkpt lat="44.65473" lon="0.80559">
        <ele>110.21</ele>
        <time>2013-08-18T08:23:05Z</time>
      </trkpt>
      <trkpt lat="44.65472" lon="0.80565">
        <ele>110.21</ele>
        <time>2013-08-18T08:23:06Z</time>
      </trkpt>
      <trkpt lat="44.65471" lon="0.80571">
        <ele>110.21</ele>
        <time>2013-08-18T08:23:07Z</time>
      </trkpt>
      <trkpt lat="44.65457" lon="0.80684">
        <ele>108.77</ele>
        <time>2013-08-18T08:23:23Z</time>
      </trkpt>
      <trkpt lat="44.65418" lon="0.80785">
        <ele>104.92</ele>
        <time>2013-08-18T08:23:35Z</time>
      </trkpt>
      <trkpt lat="44.65382" lon="0.80882">
        <ele>105.88</ele>
        <time>2013-08-18T08:23:48Z</time>
      </trkpt>
      <trkpt lat="44.65361" lon="0.80952">
        <ele>105.88</ele>
        <time>2013-08-18T08:24:01Z</time>
      </trkpt>
      <trkpt lat="44.65354" lon="0.80954">
        <ele>105.4</ele>
        <time>2013-08-18T08:24:03Z</time>
      </trkpt>
      <trkpt lat="44.6535" lon="0.80953">
        <ele>105.4</ele>
        <time>2013-08-18T08:24:04Z</time>
      </trkpt>
      <trkpt lat="44.65347" lon="0.80953">
        <ele>105.4</ele>
        <time>2013-08-18T08:24:05Z</time>
      </trkpt>
      <trkpt lat="44.65344" lon="0.80953">
        <ele>105.4</ele>
        <time>2013-08-18T08:24:06Z</time>
      </trkpt>
      <trkpt lat="44.65342" lon="0.80953">
        <ele>104.92</ele>
        <time>2013-08-18T08:24:07Z</time>
      </trkpt>
      <trkpt lat="44.6534" lon="0.80954">
        <ele>104.92</ele>
        <time>2013-08-18T08:24:08Z</time>
      </trkpt>
      <trkpt lat="44.65338" lon="0.80954">
        <ele>104.44</ele>
        <time>2013-08-18T08:24:09Z</time>
      </trkpt>
      <trkpt lat="44.65335" lon="0.80954">
        <ele>104.44</ele>
        <time>2013-08-18T08:24:10Z</time>
      </trkpt>
      <trkpt lat="44.65333" lon="0.80954">
        <ele>104.44</ele>
        <time>2013-08-18T08:24:11Z</time>
      </trkpt>
      <trkpt lat="44.65278" lon="0.8094">
        <ele>104.44</ele>
        <time>2013-08-18T08:24:22Z</time>
      </trkpt>
      <trkpt lat="44.65172" lon="0.80918">
        <ele>104.92</ele>
        <time>2013-08-18T08:24:40Z</time>
      </trkpt>
      <trkpt lat="44.65141" lon="0.80913">
        <ele>104.44</ele>
        <time>2013-08-18T08:24:45Z</time>
      </trkpt>
      <trkpt lat="44.65043" lon="0.80891">
        <ele>106.84</ele>
        <time>2013-08-18T08:25:02Z</time>
      </trkpt>
      <trkpt lat="44.65016" lon="0.80882">
        <ele>109.25</ele>
        <time>2013-08-18T08:25:12Z</time>
      </trkpt>
      <trkpt lat="44.65016" lon="0.80879">
        <ele>109.73</ele>
        <time>2013-08-18T08:25:13Z</time>
      </trkpt>
      <trkpt lat="44.65016" lon="0.80875">
        <ele>109.73</ele>
        <time>2013-08-18T08:25:14Z</time>
      </trkpt>
      <trkpt lat="44.65017" lon="0.80872">
        <ele>109.73</ele>
        <time>2013-08-18T08:25:15Z</time>
      </trkpt>
      <trkpt lat="44.65018" lon="0.80868">
        <ele>109.73</ele>
        <time>2013-08-18T08:25:16Z</time>
      </trkpt>
      <trkpt lat="44.6502" lon="0.80862">
        <ele>109.73</ele>
        <time>2013-08-18T08:25:17Z</time>
      </trkpt>
      <trkpt lat="44.65021" lon="0.80856">
        <ele>110.21</ele>
        <time>2013-08-18T08:25:18Z</time>
      </trkpt>
      <trkpt lat="44.65036" lon="0.80735">
        <ele>108.29</ele>
        <time>2013-08-18T08:25:35Z</time>
      </trkpt>
      <trkpt lat="44.65035" lon="0.80654">
        <ele>107.81</ele>
        <time>2013-08-18T08:25:46Z</time>
      </trkpt>
      <trkpt lat="44.65035" lon="0.80647">
        <ele>107.81</ele>
        <time>2013-08-18T08:25:47Z</time>
      </trkpt>
      <trkpt lat="44.65033" lon="0.80636">
        <ele>108.29</ele>
        <time>2013-08-18T08:25:49Z</time>
      </trkpt>
      <trkpt lat="44.6503" lon="0.80633">
        <ele>108.29</ele>
        <time>2013-08-18T08:25:50Z</time>
      </trkpt>
      <trkpt lat="44.65017" lon="0.80634">
        <ele>108.77</ele>
        <time>2013-08-18T08:25:54Z</time>
      </trkpt>
      <trkpt lat="44.64992" lon="0.80642">
        <ele>115.01</ele>
        <time>2013-08-18T08:26:07Z</time>
      </trkpt>
      <trkpt lat="44.64969" lon="0.80647">
        <ele>120.78</ele>
        <time>2013-08-18T08:26:21Z</time>
      </trkpt>
      <trkpt lat="44.64968" lon="0.80648">
        <ele>121.26</ele>
        <time>2013-08-18T08:26:22Z</time>
      </trkpt>
      <trkpt lat="44.64961" lon="0.80656">
        <ele>123.67</ele>
        <time>2013-08-18T08:26:30Z</time>
      </trkpt>
      <trkpt lat="44.64951" lon="0.80671">
        <ele>128.47</ele>
        <time>2013-08-18T08:26:42Z</time>
      </trkpt>
      <trkpt lat="44.6494" lon="0.80694">
        <ele>133.28</ele>
        <time>2013-08-18T08:26:56Z</time>
      </trkpt>
      <trkpt lat="44.64939" lon="0.80695">
        <ele>133.76</ele>
        <time>2013-08-18T08:26:57Z</time>
      </trkpt>
      <trkpt lat="44.64936" lon="0.80696">
        <ele>134.24</ele>
        <time>2013-08-18T08:26:59Z</time>
      </trkpt>
      <trkpt lat="44.64927" lon="0.80697">
        <ele>134.72</ele>
        <time>2013-08-18T08:27:04Z</time>
      </trkpt>
      <trkpt lat="44.64923" lon="0.80698">
        <ele>135.68</ele>
        <time>2013-08-18T08:27:06Z</time>
      </trkpt>
      <trkpt lat="44.64891" lon="0.80712">
        <ele>135.2</ele>
        <time>2013-08-18T08:27:25Z</time>
      </trkpt>
      <trkpt lat="44.64888" lon="0.80714">
        <ele>135.2</ele>
        <time>2013-08-18T08:27:27Z</time>
      </trkpt>
      <trkpt lat="44.64869" lon="0.80718">
        <ele>136.16</ele>
        <time>2013-08-18T08:27:39Z</time>
      </trkpt>
      <trkpt lat="44.64855" lon="0.8072">
        <ele>136.64</ele>
        <time>2013-08-18T08:27:52Z</time>
      </trkpt>
      <trkpt lat="44.64836" lon="0.80719">
        <ele>137.61</ele>
        <time>2013-08-18T08:28:04Z</time>
      </trkpt>
      <trkpt lat="44.64809" lon="0.80721">
        <ele>139.53</ele>
        <time>2013-08-18T08:28:17Z</time>
      </trkpt>
      <trkpt lat="44.64804" lon="0.8073">
        <ele>140.01</ele>
        <time>2013-08-18T08:28:21Z</time>
      </trkpt>
      <trkpt lat="44.64805" lon="0.80769">
        <ele>145.78</ele>
        <time>2013-08-18T08:28:37Z</time>
      </trkpt>
      <trkpt lat="44.64808" lon="0.80818">
        <ele>150.1</ele>
        <time>2013-08-18T08:28:56Z</time>
      </trkpt>
      <trkpt lat="44.64798" lon="0.80844">
        <ele>151.06</ele>
        <time>2013-08-18T08:29:06Z</time>
      </trkpt>
      <trkpt lat="44.64792" lon="0.80843">
        <ele>152.03</ele>
        <time>2013-08-18T08:29:10Z</time>
      </trkpt>
      <trkpt lat="44.64782" lon="0.80843">
        <ele>152.03</ele>
        <time>2013-08-18T08:29:22Z</time>
      </trkpt>
      <trkpt lat="44.64781" lon="0.80844">
        <ele>150.58</ele>
        <time>2013-08-18T08:29:44Z</time>
      </trkpt>
      <trkpt lat="44.64782" lon="0.80844">
        <ele>150.58</ele>
        <time>2013-08-18T08:30:17Z</time>
      </trkpt>
      <trkpt lat="44.64781" lon="0.80843">
        <ele>151.06</ele>
        <time>2013-08-18T08:30:41Z</time>
      </trkpt>
      <trkpt lat="44.64781" lon="0.80844">
        <ele>150.58</ele>
        <time>2013-08-18T08:31:10Z</time>
      </trkpt>
      <trkpt lat="44.64781" lon="0.80845">
        <ele>151.54</ele>
        <time>2013-08-18T08:31:41Z</time>
      </trkpt>
      <trkpt lat="44.64781" lon="0.80844">
        <ele>151.06</ele>
        <time>2013-08-18T08:32:06Z</time>
      </trkpt>
      <trkpt lat="44.64781" lon="0.80844">
        <ele>151.06</ele>
        <time>2013-08-18T08:32:31Z</time>
      </trkpt>
      <trkpt lat="44.64781" lon="0.80843">
        <ele>151.06</ele>
        <time>2013-08-18T08:32:50Z</time>
      </trkpt>
      <trkpt lat="44.64781" lon="0.80843">
        <ele>151.54</ele>
        <time>2013-08-18T08:33:22Z</time>
      </trkpt>
      <trkpt lat="44.6478" lon="0.80843">
        <ele>152.99</ele>
        <time>2013-08-18T08:33:49Z</time>
      </trkpt>
      <trkpt lat="44.64763" lon="0.80838">
        <ele>152.51</ele>
        <time>2013-08-18T08:34:03Z</time>
      </trkpt>
      <trkpt lat="44.6473" lon="0.80832">
        <ele>152.99</ele>
        <time>2013-08-18T08:34:19Z</time>
      </trkpt>
      <trkpt lat="44.64694" lon="0.80822">
        <ele>154.91</ele>
        <time>2013-08-18T08:34:37Z</time>
      </trkpt>
      <trkpt lat="44.64669" lon="0.80821">
        <ele>157.79</ele>
        <time>2013-08-18T08:34:51Z</time>
      </trkpt>
      <trkpt lat="44.64642" lon="0.80829">
        <ele>161.16</ele>
        <time>2013-08-18T08:35:08Z</time>
      </trkpt>
      <trkpt lat="44.64602" lon="0.80839">
        <ele>160.2</ele>
        <time>2013-08-18T08:35:23Z</time>
      </trkpt>
      <trkpt lat="44.64569" lon="0.80844">
        <ele>160.2</ele>
        <time>2013-08-18T08:35:32Z</time>
      </trkpt>
      <trkpt lat="44.64539" lon="0.80842">
        <ele>160.2</ele>
        <time>2013-08-18T08:35:39Z</time>
      </trkpt>
      <trkpt lat="44.6453" lon="0.8084">
        <ele>160.68</ele>
        <time>2013-08-18T08:35:41Z</time>
      </trkpt>
      <trkpt lat="44.64507" lon="0.8084">
        <ele>161.16</ele>
        <time>2013-08-18T08:35:46Z</time>
      </trkpt>
      <trkpt lat="44.64478" lon="0.8087">
        <ele>164.04</ele>
        <time>2013-08-18T08:35:58Z</time>
      </trkpt>
      <trkpt lat="44.6447" lon="0.80932">
        <ele>170.29</ele>
        <time>2013-08-18T08:36:13Z</time>
      </trkpt>
      <trkpt lat="44.64456" lon="0.80997">
        <ele>168.37</ele>
        <time>2013-08-18T08:36:29Z</time>
      </trkpt>
      <trkpt lat="44.64439" lon="0.8107">
        <ele>164.52</ele>
        <time>2013-08-18T08:36:40Z</time>
      </trkpt>
      <trkpt lat="44.64434" lon="0.81094">
        <ele>163.56</ele>
        <time>2013-08-18T08:36:43Z</time>
      </trkpt>
      <trkpt lat="44.64413" lon="0.81176">
        <ele>162.6</ele>
        <time>2013-08-18T08:36:56Z</time>
      </trkpt>
      <trkpt lat="44.6439" lon="0.81235">
        <ele>162.6</ele>
        <time>2013-08-18T08:37:10Z</time>
      </trkpt>
      <trkpt lat="44.64377" lon="0.81262">
        <ele>160.2</ele>
        <time>2013-08-18T08:37:21Z</time>
      </trkpt>
      <trkpt lat="44.64376" lon="0.81262">
        <ele>160.2</ele>
        <time>2013-08-18T08:37:42Z</time>
      </trkpt>
      <trkpt lat="44.64376" lon="0.81263">
        <ele>158.75</ele>
        <time>2013-08-18T08:38:06Z</time>
      </trkpt>
      <trkpt lat="44.64375" lon="0.81269">
        <ele>159.24</ele>
        <time>2013-08-18T08:38:21Z</time>
      </trkpt>
      <trkpt lat="44.64353" lon="0.81305">
        <ele>159.24</ele>
        <time>2013-08-18T08:38:33Z</time>
      </trkpt>
      <trkpt lat="44.64324" lon="0.81371">
        <ele>160.2</ele>
        <time>2013-08-18T08:38:48Z</time>
      </trkpt>
      <trkpt lat="44.64303" lon="0.81411">
        <ele>159.24</ele>
        <time>2013-08-18T08:38:56Z</time>
      </trkpt>
      <trkpt lat="44.643" lon="0.81415">
        <ele>159.24</ele>
        <time>2013-08-18T08:38:57Z</time>
      </trkpt>
      <trkpt lat="44.64269" lon="0.8147">
        <ele>161.64</ele>
        <time>2013-08-18T08:39:09Z</time>
      </trkpt>
      <trkpt lat="44.64247" lon="0.81505">
        <ele>162.12</ele>
        <time>2013-08-18T08:39:17Z</time>
      </trkpt>
      <trkpt lat="44.64209" lon="0.81568">
        <ele>164.52</ele>
        <time>2013-08-18T08:39:31Z</time>
      </trkpt>
      <trkpt lat="44.64156" lon="0.81642">
        <ele>165.96</ele>
        <time>2013-08-18T08:39:49Z</time>
      </trkpt>
      <trkpt lat="44.64126" lon="0.8169">
        <ele>161.64</ele>
        <time>2013-08-18T08:39:57Z</time>
      </trkpt>
      <trkpt lat="44.64094" lon="0.81741">
        <ele>158.27</ele>
        <time>2013-08-18T08:40:04Z</time>
      </trkpt>
      <trkpt lat="44.64058" lon="0.81821">
        <ele>157.31</ele>
        <time>2013-08-18T08:40:15Z</time>
      </trkpt>
      <trkpt lat="44.64055" lon="0.81829">
        <ele>156.83</ele>
        <time>2013-08-18T08:40:16Z</time>
      </trkpt>
      <trkpt lat="44.64023" lon="0.81889">
        <ele>156.83</ele>
        <time>2013-08-18T08:40:25Z</time>
      </trkpt>
      <trkpt lat="44.63989" lon="0.81946">
        <ele>156.83</ele>
        <time>2013-08-18T08:40:34Z</time>
      </trkpt>
      <trkpt lat="44.63982" lon="0.81961">
        <ele>156.83</ele>
        <time>2013-08-18T08:40:36Z</time>
      </trkpt>
      <trkpt lat="44.63941" lon="0.82083">
        <ele>159.24</ele>
        <time>2013-08-18T08:40:53Z</time>
      </trkpt>
      <trkpt lat="44.63929" lon="0.8212">
        <ele>161.64</ele>
        <time>2013-08-18T08:40:59Z</time>
      </trkpt>
      <trkpt lat="44.63915" lon="0.82217">
        <ele>163.08</ele>
        <time>2013-08-18T08:41:15Z</time>
      </trkpt>
      <trkpt lat="44.63909" lon="0.82256">
        <ele>161.16</ele>
        <time>2013-08-18T08:41:21Z</time>
      </trkpt>
      <trkpt lat="44.63896" lon="0.82315">
        <ele>159.72</ele>
        <time>2013-08-18T08:41:32Z</time>
      </trkpt>
      <trkpt lat="44.63896" lon="0.82314">
        <ele>159.72</ele>
        <time>2013-08-18T08:41:49Z</time>
      </trkpt>
      <trkpt lat="44.63897" lon="0.82314">
        <ele>159.72</ele>
        <time>2013-08-18T08:42:07Z</time>
      </trkpt>
      <trkpt lat="44.63897" lon="0.82315">
        <ele>159.24</ele>
        <time>2013-08-18T08:42:24Z</time>
      </trkpt>
      <trkpt lat="44.63896" lon="0.82317">
        <ele>159.24</ele>
        <time>2013-08-18T08:42:25Z</time>
      </trkpt>
      <trkpt lat="44.63895" lon="0.8232">
        <ele>159.24</ele>
        <time>2013-08-18T08:42:26Z</time>
      </trkpt>
      <trkpt lat="44.63895" lon="0.82324">
        <ele>159.24</ele>
        <time>2013-08-18T08:42:27Z</time>
      </trkpt>
      <trkpt lat="44.63895" lon="0.82328">
        <ele>159.24</ele>
        <time>2013-08-18T08:42:28Z</time>
      </trkpt>
      <trkpt lat="44.63901" lon="0.82414">
        <ele>161.16</ele>
        <time>2013-08-18T08:42:45Z</time>
      </trkpt>
      <trkpt lat="44.63911" lon="0.825">
        <ele>164.52</ele>
        <time>2013-08-18T08:43:03Z</time>
      </trkpt>
      <trkpt lat="44.63926" lon="0.82562">
        <ele>166.45</ele>
        <time>2013-08-18T08:43:17Z</time>
      </trkpt>
      <trkpt lat="44.63931" lon="0.82617">
        <ele>166.93</ele>
        <time>2013-08-18T08:43:29Z</time>
      </trkpt>
      <trkpt lat="44.63928" lon="0.82619">
        <ele>166.93</ele>
        <time>2013-08-18T08:43:30Z</time>
      </trkpt>
      <trkpt lat="44.63925" lon="0.82621">
        <ele>166.93</ele>
        <time>2013-08-18T08:43:31Z</time>
      </trkpt>
      <trkpt lat="44.63921" lon="0.82622">
        <ele>166.45</ele>
        <time>2013-08-18T08:43:32Z</time>
      </trkpt>
      <trkpt lat="44.63916" lon="0.82623">
        <ele>166.45</ele>
        <time>2013-08-18T08:43:33Z</time>
      </trkpt>
      <trkpt lat="44.63912" lon="0.82624">
        <ele>165.96</ele>
        <time>2013-08-18T08:43:34Z</time>
      </trkpt>
      <trkpt lat="44.63864" lon="0.82629">
        <ele>164.52</ele>
        <time>2013-08-18T08:43:44Z</time>
      </trkpt>
      <trkpt lat="44.63859" lon="0.8263">
        <ele>164.04</ele>
        <time>2013-08-18T08:43:45Z</time>
      </trkpt>
      <trkpt lat="44.63792" lon="0.82639">
        <ele>160.2</ele>
        <time>2013-08-18T08:43:54Z</time>
      </trkpt>
      <trkpt lat="44.63711" lon="0.82641">
        <ele>163.56</ele>
        <time>2013-08-18T08:44:07Z</time>
      </trkpt>
      <trkpt lat="44.63701" lon="0.82639">
        <ele>164.52</ele>
        <time>2013-08-18T08:44:09Z</time>
      </trkpt>
      <trkpt lat="44.63696" lon="0.82639">
        <ele>165</ele>
        <time>2013-08-18T08:44:10Z</time>
      </trkpt>
      <trkpt lat="44.63668" lon="0.82644">
        <ele>166.45</ele>
        <time>2013-08-18T08:44:17Z</time>
      </trkpt>
      <trkpt lat="44.63664" lon="0.82645">
        <ele>166.45</ele>
        <time>2013-08-18T08:44:18Z</time>
      </trkpt>
      <trkpt lat="44.63639" lon="0.82653">
        <ele>165</ele>
        <time>2013-08-18T08:44:23Z</time>
      </trkpt>
      <trkpt lat="44.63634" lon="0.82658">
        <ele>164.52</ele>
        <time>2013-08-18T08:44:24Z</time>
      </trkpt>
      <trkpt lat="44.63631" lon="0.82663">
        <ele>164.04</ele>
        <time>2013-08-18T08:44:25Z</time>
      </trkpt>
      <trkpt lat="44.63622" lon="0.82676">
        <ele>163.08</ele>
        <time>2013-08-18T08:44:28Z</time>
      </trkpt>
      <trkpt lat="44.63618" lon="0.82677">
        <ele>162.6</ele>
        <time>2013-08-18T08:44:29Z</time>
      </trkpt>
      <trkpt lat="44.63614" lon="0.82678">
        <ele>162.12</ele>
        <time>2013-08-18T08:44:30Z</time>
      </trkpt>
      <trkpt lat="44.636" lon="0.82715">
        <ele>159.72</ele>
        <time>2013-08-18T08:44:36Z</time>
      </trkpt>
      <trkpt lat="44.63599" lon="0.82726">
        <ele>159.24</ele>
        <time>2013-08-18T08:44:38Z</time>
      </trkpt>
      <trkpt lat="44.63582" lon="0.82792">
        <ele>161.16</ele>
        <time>2013-08-18T08:44:54Z</time>
      </trkpt>
      <trkpt lat="44.63549" lon="0.82825">
        <ele>166.45</ele>
        <time>2013-08-18T08:45:10Z</time>
      </trkpt>
      <trkpt lat="44.63515" lon="0.82853">
        <ele>167.89</ele>
        <time>2013-08-18T08:45:25Z</time>
      </trkpt>
      <trkpt lat="44.63465" lon="0.82889">
        <ele>168.37</ele>
        <time>2013-08-18T08:45:44Z</time>
      </trkpt>
      <trkpt lat="44.63413" lon="0.82927">
        <ele>169.33</ele>
        <time>2013-08-18T08:46:02Z</time>
      </trkpt>
      <trkpt lat="44.63386" lon="0.82954">
        <ele>169.81</ele>
        <time>2013-08-18T08:46:14Z</time>
      </trkpt>
      <trkpt lat="44.63386" lon="0.82956">
        <ele>169.81</ele>
        <time>2013-08-18T08:46:15Z</time>
      </trkpt>
      <trkpt lat="44.63387" lon="0.82957">
        <ele>170.29</ele>
        <time>2013-08-18T08:46:16Z</time>
      </trkpt>
      <trkpt lat="44.63387" lon="0.82959">
        <ele>170.29</ele>
        <time>2013-08-18T08:46:17Z</time>
      </trkpt>
      <trkpt lat="44.63387" lon="0.82961">
        <ele>170.29</ele>
        <time>2013-08-18T08:46:18Z</time>
      </trkpt>
      <trkpt lat="44.63387" lon="0.82963">
        <ele>170.29</ele>
        <time>2013-08-18T08:46:19Z</time>
      </trkpt>
      <trkpt lat="44.63387" lon="0.82965">
        <ele>170.29</ele>
        <time>2013-08-18T08:46:20Z</time>
      </trkpt>
      <trkpt lat="44.63387" lon="0.82966">
        <ele>169.33</ele>
        <time>2013-08-18T08:46:30Z</time>
      </trkpt>
      <trkpt lat="44.63388" lon="0.82967">
        <ele>170.77</ele>
        <time>2013-08-18T08:47:01Z</time>
      </trkpt>
      <trkpt lat="44.63387" lon="0.82967">
        <ele>170.77</ele>
        <time>2013-08-18T08:47:32Z</time>
      </trkpt>
      <trkpt lat="44.63386" lon="0.82965">
        <ele>170.29</ele>
        <time>2013-08-18T08:47:53Z</time>
      </trkpt>
      <trkpt lat="44.6338" lon="0.82971">
        <ele>170.29</ele>
        <time>2013-08-18T08:48:09Z</time>
      </trkpt>
      <trkpt lat="44.63353" lon="0.82996">
        <ele>169.33</ele>
        <time>2013-08-18T08:48:18Z</time>
      </trkpt>
      <trkpt lat="44.63346" lon="0.83002">
        <ele>169.81</ele>
        <time>2013-08-18T08:48:20Z</time>
      </trkpt>
      <trkpt lat="44.63339" lon="0.83007">
        <ele>169.33</ele>
        <time>2013-08-18T08:48:22Z</time>
      </trkpt>
      <trkpt lat="44.6333" lon="0.83036">
        <ele>168.37</ele>
        <time>2013-08-18T08:48:29Z</time>
      </trkpt>
      <trkpt lat="44.63337" lon="0.83059">
        <ele>167.41</ele>
        <time>2013-08-18T08:48:33Z</time>
      </trkpt>
      <trkpt lat="44.63338" lon="0.8311">
        <ele>166.93</ele>
        <time>2013-08-18T08:48:42Z</time>
      </trkpt>
      <trkpt lat="44.63335" lon="0.83113">
        <ele>166.45</ele>
        <time>2013-08-18T08:48:43Z</time>
      </trkpt>
      <trkpt lat="44.63312" lon="0.83134">
        <ele>165.48</ele>
        <time>2013-08-18T08:48:49Z</time>
      </trkpt>
      <trkpt lat="44.63297" lon="0.8316">
        <ele>164.04</ele>
        <time>2013-08-18T08:48:53Z</time>
      </trkpt>
      <trkpt lat="44.63271" lon="0.83188">
        <ele>161.64</ele>
        <time>2013-08-18T08:48:58Z</time>
      </trkpt>
      <trkpt lat="44.63228" lon="0.83203">
        <ele>157.31</ele>
        <time>2013-08-18T08:49:05Z</time>
      </trkpt>
      <trkpt lat="44.63172" lon="0.83248">
        <ele>153.47</ele>
        <time>2013-08-18T08:49:14Z</time>
      </trkpt>
      <trkpt lat="44.63135" lon="0.83297">
        <ele>151.06</ele>
        <time>2013-08-18T08:49:21Z</time>
      </trkpt>
      <trkpt lat="44.63127" lon="0.83311">
        <ele>150.58</ele>
        <time>2013-08-18T08:49:23Z</time>
      </trkpt>
      <trkpt lat="44.63111" lon="0.83357">
        <ele>149.62</ele>
        <time>2013-08-18T08:49:30Z</time>
      </trkpt>
      <trkpt lat="44.63089" lon="0.83431">
        <ele>152.99</ele>
        <time>2013-08-18T08:49:44Z</time>
      </trkpt>
      <trkpt lat="44.63071" lon="0.83509">
        <ele>153.47</ele>
        <time>2013-08-18T08:49:58Z</time>
      </trkpt>
      <trkpt lat="44.63059" lon="0.83582">
        <ele>153.95</ele>
        <time>2013-08-18T08:50:13Z</time>
      </trkpt>
      <trkpt lat="44.63054" lon="0.83694">
        <ele>150.58</ele>
        <time>2013-08-18T08:50:28Z</time>
      </trkpt>
      <trkpt lat="44.63041" lon="0.83811">
        <ele>146.26</ele>
        <time>2013-08-18T08:50:38Z</time>
      </trkpt>
      <trkpt lat="44.63037" lon="0.83821">
        <ele>145.78</ele>
        <time>2013-08-18T08:50:39Z</time>
      </trkpt>
      <trkpt lat="44.63033" lon="0.8383">
        <ele>145.3</ele>
        <time>2013-08-18T08:50:40Z</time>
      </trkpt>
      <trkpt lat="44.63025" lon="0.83845">
        <ele>144.34</ele>
        <time>2013-08-18T08:50:42Z</time>
      </trkpt>
      <trkpt lat="44.63022" lon="0.83851">
        <ele>143.85</ele>
        <time>2013-08-18T08:50:43Z</time>
      </trkpt>
      <trkpt lat="44.63019" lon="0.83857">
        <ele>143.85</ele>
        <time>2013-08-18T08:50:44Z</time>
      </trkpt>
      <trkpt lat="44.63017" lon="0.83863">
        <ele>143.85</ele>
        <time>2013-08-18T08:50:45Z</time>
      </trkpt>
      <trkpt lat="44.63016" lon="0.83869">
        <ele>144.34</ele>
        <time>2013-08-18T08:50:46Z</time>
      </trkpt>
      <trkpt lat="44.63015" lon="0.83875">
        <ele>144.82</ele>
        <time>2013-08-18T08:50:47Z</time>
      </trkpt>
      <trkpt lat="44.63014" lon="0.83881">
        <ele>145.3</ele>
        <time>2013-08-18T08:50:48Z</time>
      </trkpt>
      <trkpt lat="44.63014" lon="0.83887">
        <ele>145.78</ele>
        <time>2013-08-18T08:50:49Z</time>
      </trkpt>
      <trkpt lat="44.63014" lon="0.83931">
        <ele>148.66</ele>
        <time>2013-08-18T08:50:57Z</time>
      </trkpt>
      <trkpt lat="44.63011" lon="0.83946">
        <ele>148.66</ele>
        <time>2013-08-18T08:50:59Z</time>
      </trkpt>
      <trkpt lat="44.63005" lon="0.83985">
        <ele>147.7</ele>
        <time>2013-08-18T08:51:05Z</time>
      </trkpt>
      <trkpt lat="44.63003" lon="0.83987">
        <ele>148.18</ele>
        <time>2013-08-18T08:51:06Z</time>
      </trkpt>
      <trkpt lat="44.63002" lon="0.83989">
        <ele>149.14</ele>
        <time>2013-08-18T08:51:17Z</time>
      </trkpt>
      <trkpt lat="44.63001" lon="0.8399">
        <ele>149.62</ele>
        <time>2013-08-18T08:51:25Z</time>
      </trkpt>
      <trkpt lat="44.63" lon="0.83992">
        <ele>149.62</ele>
        <time>2013-08-18T08:51:26Z</time>
      </trkpt>
      <trkpt lat="44.63001" lon="0.83995">
        <ele>150.1</ele>
        <time>2013-08-18T08:51:27Z</time>
      </trkpt>
      <trkpt lat="44.63002" lon="0.83997">
        <ele>150.1</ele>
        <time>2013-08-18T08:51:28Z</time>
      </trkpt>
      <trkpt lat="44.63003" lon="0.83999">
        <ele>150.1</ele>
        <time>2013-08-18T08:51:29Z</time>
      </trkpt>
      <trkpt lat="44.63004" lon="0.84002">
        <ele>150.1</ele>
        <time>2013-08-18T08:51:30Z</time>
      </trkpt>
      <trkpt lat="44.63004" lon="0.84006">
        <ele>150.58</ele>
        <time>2013-08-18T08:51:31Z</time>
      </trkpt>
      <trkpt lat="44.63003" lon="0.8401">
        <ele>150.1</ele>
        <time>2013-08-18T08:51:32Z</time>
      </trkpt>
      <trkpt lat="44.63002" lon="0.84015">
        <ele>150.1</ele>
        <time>2013-08-18T08:51:33Z</time>
      </trkpt>
      <trkpt lat="44.62992" lon="0.84067">
        <ele>150.58</ele>
        <time>2013-08-18T08:51:44Z</time>
      </trkpt>
      <trkpt lat="44.62988" lon="0.84068">
        <ele>150.58</ele>
        <time>2013-08-18T08:51:45Z</time>
      </trkpt>
      <trkpt lat="44.62984" lon="0.84068">
        <ele>150.1</ele>
        <time>2013-08-18T08:51:46Z</time>
      </trkpt>
      <trkpt lat="44.62924" lon="0.84056">
        <ele>144.82</ele>
        <time>2013-08-18T08:51:55Z</time>
      </trkpt>
      <trkpt lat="44.62821" lon="0.84026">
        <ele>140.49</ele>
        <time>2013-08-18T08:52:07Z</time>
      </trkpt>
      <trkpt lat="44.6275" lon="0.84005">
        <ele>146.74</ele>
        <time>2013-08-18T08:52:21Z</time>
      </trkpt>
      <trkpt lat="44.627" lon="0.84009">
        <ele>152.03</ele>
        <time>2013-08-18T08:52:36Z</time>
      </trkpt>
      <trkpt lat="44.62699" lon="0.84014">
        <ele>152.51</ele>
        <time>2013-08-18T08:52:37Z</time>
      </trkpt>
      <trkpt lat="44.627" lon="0.84032">
        <ele>153.47</ele>
        <time>2013-08-18T08:52:41Z</time>
      </trkpt>
      <trkpt lat="44.62699" lon="0.84053">
        <ele>153.95</ele>
        <time>2013-08-18T08:52:45Z</time>
      </trkpt>
      <trkpt lat="44.62693" lon="0.84098">
        <ele>152.99</ele>
        <time>2013-08-18T08:52:54Z</time>
      </trkpt>
      <trkpt lat="44.62681" lon="0.84161">
        <ele>152.51</ele>
        <time>2013-08-18T08:53:07Z</time>
      </trkpt>
      <trkpt lat="44.62677" lon="0.84178">
        <ele>151.54</ele>
        <time>2013-08-18T08:53:11Z</time>
      </trkpt>
      <trkpt lat="44.62673" lon="0.84188">
        <ele>151.54</ele>
        <time>2013-08-18T08:53:13Z</time>
      </trkpt>
      <trkpt lat="44.62661" lon="0.84215">
        <ele>151.06</ele>
        <time>2013-08-18T08:53:18Z</time>
      </trkpt>
      <trkpt lat="44.62651" lon="0.84279">
        <ele>152.03</ele>
        <time>2013-08-18T08:53:31Z</time>
      </trkpt>
      <trkpt lat="44.62652" lon="0.84292">
        <ele>152.99</ele>
        <time>2013-08-18T08:53:34Z</time>
      </trkpt>
      <trkpt lat="44.62662" lon="0.84323">
        <ele>154.43</ele>
        <time>2013-08-18T08:53:40Z</time>
      </trkpt>
      <trkpt lat="44.62661" lon="0.8439">
        <ele>158.75</ele>
        <time>2013-08-18T08:53:52Z</time>
      </trkpt>
      <trkpt lat="44.62645" lon="0.84461">
        <ele>163.08</ele>
        <time>2013-08-18T08:54:05Z</time>
      </trkpt>
      <trkpt lat="44.62647" lon="0.84517">
        <ele>163.56</ele>
        <time>2013-08-18T08:54:16Z</time>
      </trkpt>
      <trkpt lat="44.62628" lon="0.84585">
        <ele>162.6</ele>
        <time>2013-08-18T08:54:29Z</time>
      </trkpt>
      <trkpt lat="44.62625" lon="0.84627">
        <ele>163.08</ele>
        <time>2013-08-18T08:54:39Z</time>
      </trkpt>
      <trkpt lat="44.62616" lon="0.84678">
        <ele>165.48</ele>
        <time>2013-08-18T08:54:52Z</time>
      </trkpt>
      <trkpt lat="44.62611" lon="0.84693">
        <ele>165.48</ele>
        <time>2013-08-18T08:54:55Z</time>
      </trkpt>
      <trkpt lat="44.62609" lon="0.84731">
        <ele>166.45</ele>
        <time>2013-08-18T08:55:01Z</time>
      </trkpt>
      <trkpt lat="44.62609" lon="0.84761">
        <ele>167.41</ele>
        <time>2013-08-18T08:55:05Z</time>
      </trkpt>
      <trkpt lat="44.6262" lon="0.84819">
        <ele>171.73</ele>
        <time>2013-08-18T08:55:14Z</time>
      </trkpt>
      <trkpt lat="44.62625" lon="0.84889">
        <ele>178.94</ele>
        <time>2013-08-18T08:55:26Z</time>
      </trkpt>
      <trkpt lat="44.62637" lon="0.84941">
        <ele>183.27</ele>
        <time>2013-08-18T08:55:38Z</time>
      </trkpt>
      <trkpt lat="44.62644" lon="0.84952">
        <ele>179.9</ele>
        <time>2013-08-18T08:56:01Z</time>
      </trkpt>
      <trkpt lat="44.62644" lon="0.84953">
        <ele>179.42</ele>
        <time>2013-08-18T08:56:03Z</time>
      </trkpt>
      <trkpt lat="44.62615" lon="0.84971">
        <ele>180.38</ele>
        <time>2013-08-18T08:56:14Z</time>
      </trkpt>
      <trkpt lat="44.62583" lon="0.84994">
        <ele>182.31</ele>
        <time>2013-08-18T08:56:23Z</time>
      </trkpt>
      <trkpt lat="44.6257" lon="0.85002">
        <ele>182.31</ele>
        <time>2013-08-18T08:56:26Z</time>
      </trkpt>
      <trkpt lat="44.62531" lon="0.85028">
        <ele>179.9</ele>
        <time>2013-08-18T08:56:38Z</time>
      </trkpt>
      <trkpt lat="44.62525" lon="0.85035">
        <ele>177.98</ele>
        <time>2013-08-18T08:56:41Z</time>
      </trkpt>
      <trkpt lat="44.62482" lon="0.85031">
        <ele>172.69</ele>
        <time>2013-08-18T08:56:52Z</time>
      </trkpt>
      <trkpt lat="44.62446" lon="0.85024">
        <ele>170.77</ele>
        <time>2013-08-18T08:56:59Z</time>
      </trkpt>
      <trkpt lat="44.62429" lon="0.85024">
        <ele>170.29</ele>
        <time>2013-08-18T08:57:03Z</time>
      </trkpt>
      <trkpt lat="44.62426" lon="0.85028">
        <ele>169.81</ele>
        <time>2013-08-18T08:57:04Z</time>
      </trkpt>
      <trkpt lat="44.62426" lon="0.85032">
        <ele>169.33</ele>
        <time>2013-08-18T08:57:05Z</time>
      </trkpt>
      <trkpt lat="44.62427" lon="0.85037">
        <ele>168.85</ele>
        <time>2013-08-18T08:57:06Z</time>
      </trkpt>
      <trkpt lat="44.62428" lon="0.85044">
        <ele>167.89</ele>
        <time>2013-08-18T08:57:07Z</time>
      </trkpt>
      <trkpt lat="44.62429" lon="0.85061">
        <ele>165.48</ele>
        <time>2013-08-18T08:57:10Z</time>
      </trkpt>
      <trkpt lat="44.62427" lon="0.85067">
        <ele>164.52</ele>
        <time>2013-08-18T08:57:11Z</time>
      </trkpt>
      <trkpt lat="44.62424" lon="0.85079">
        <ele>162.6</ele>
        <time>2013-08-18T08:57:13Z</time>
      </trkpt>
      <trkpt lat="44.62404" lon="0.85136">
        <ele>155.39</ele>
        <time>2013-08-18T08:57:21Z</time>
      </trkpt>
      <trkpt lat="44.62402" lon="0.85137">
        <ele>154.43</ele>
        <time>2013-08-18T08:57:22Z</time>
      </trkpt>
      <trkpt lat="44.62399" lon="0.85137">
        <ele>153.47</ele>
        <time>2013-08-18T08:57:23Z</time>
      </trkpt>
      <trkpt lat="44.62397" lon="0.85135">
        <ele>152.03</ele>
        <time>2013-08-18T08:57:24Z</time>
      </trkpt>
      <trkpt lat="44.62394" lon="0.85133">
        <ele>151.54</ele>
        <time>2013-08-18T08:57:25Z</time>
      </trkpt>
      <trkpt lat="44.62364" lon="0.85116">
        <ele>148.18</ele>
        <time>2013-08-18T08:57:37Z</time>
      </trkpt>
      <trkpt lat="44.62327" lon="0.85111">
        <ele>146.26</ele>
        <time>2013-08-18T08:57:50Z</time>
      </trkpt>
      <trkpt lat="44.62324" lon="0.85111">
        <ele>145.3</ele>
        <time>2013-08-18T08:58:02Z</time>
      </trkpt>
      <trkpt lat="44.6232" lon="0.85112">
        <ele>145.78</ele>
        <time>2013-08-18T08:58:06Z</time>
      </trkpt>
      <trkpt lat="44.62319" lon="0.85113">
        <ele>145.78</ele>
        <time>2013-08-18T08:58:07Z</time>
      </trkpt>
      <trkpt lat="44.62317" lon="0.85114">
        <ele>145.78</ele>
        <time>2013-08-18T08:58:08Z</time>
      </trkpt>
      <trkpt lat="44.62293" lon="0.85122">
        <ele>147.22</ele>
        <time>2013-08-18T08:58:19Z</time>
      </trkpt>
      <trkpt lat="44.62286" lon="0.85123">
        <ele>147.7</ele>
        <time>2013-08-18T08:58:32Z</time>
      </trkpt>
      <trkpt lat="44.62283" lon="0.85121">
        <ele>146.26</ele>
        <time>2013-08-18T08:58:59Z</time>
      </trkpt>
      <trkpt lat="44.62283" lon="0.85122">
        <ele>149.14</ele>
        <time>2013-08-18T08:59:24Z</time>
      </trkpt>
      <trkpt lat="44.62265" lon="0.85121">
        <ele>149.14</ele>
        <time>2013-08-18T08:59:35Z</time>
      </trkpt>
      <trkpt lat="44.62247" lon="0.85117">
        <ele>148.66</ele>
        <time>2013-08-18T08:59:40Z</time>
      </trkpt>
      <trkpt lat="44.62234" lon="0.85117">
        <ele>148.66</ele>
        <time>2013-08-18T08:59:43Z</time>
      </trkpt>
      <trkpt lat="44.6223" lon="0.85116">
        <ele>148.18</ele>
        <time>2013-08-18T08:59:44Z</time>
      </trkpt>
      <trkpt lat="44.62225" lon="0.85116">
        <ele>148.18</ele>
        <time>2013-08-18T08:59:45Z</time>
      </trkpt>
      <trkpt lat="44.62221" lon="0.85115">
        <ele>148.18</ele>
        <time>2013-08-18T08:59:46Z</time>
      </trkpt>
      <trkpt lat="44.62217" lon="0.85115">
        <ele>147.7</ele>
        <time>2013-08-18T08:59:47Z</time>
      </trkpt>
      <trkpt lat="44.6218" lon="0.8511">
        <ele>145.78</ele>
        <time>2013-08-18T08:59:56Z</time>
      </trkpt>
      <trkpt lat="44.62165" lon="0.85113">
        <ele>148.18</ele>
        <time>2013-08-18T09:00:06Z</time>
      </trkpt>
      <trkpt lat="44.62165" lon="0.85115">
        <ele>148.18</ele>
        <time>2013-08-18T09:00:21Z</time>
      </trkpt>
      <trkpt lat="44.62163" lon="0.85114">
        <ele>147.7</ele>
        <time>2013-08-18T09:00:22Z</time>
      </trkpt>
      <trkpt lat="44.62162" lon="0.85113">
        <ele>147.7</ele>
        <time>2013-08-18T09:00:23Z</time>
      </trkpt>
      <trkpt lat="44.62161" lon="0.85111">
        <ele>147.7</ele>
        <time>2013-08-18T09:00:24Z</time>
      </trkpt>
      <trkpt lat="44.6216" lon="0.8511">
        <ele>148.18</ele>
        <time>2013-08-18T09:00:25Z</time>
      </trkpt>
      <trkpt lat="44.62148" lon="0.85078">
        <ele>150.1</ele>
        <time>2013-08-18T09:00:38Z</time>
      </trkpt>
      <trkpt lat="44.62148" lon="0.8507">
        <ele>147.7</ele>
        <time>2013-08-18T09:00:50Z</time>
      </trkpt>
      <trkpt lat="44.62145" lon="0.85057">
        <ele>143.85</ele>
        <time>2013-08-18T09:01:00Z</time>
      </trkpt>
      <trkpt lat="44.62143" lon="0.85056">
        <ele>142.41</ele>
        <time>2013-08-18T09:01:06Z</time>
      </trkpt>
      <trkpt lat="44.6213" lon="0.85055">
        <ele>142.41</ele>
        <time>2013-08-18T09:01:19Z</time>
      </trkpt>
      <trkpt lat="44.62115" lon="0.85076">
        <ele>143.85</ele>
        <time>2013-08-18T09:01:28Z</time>
      </trkpt>
      <trkpt lat="44.62094" lon="0.85085">
        <ele>146.26</ele>
        <time>2013-08-18T09:01:38Z</time>
      </trkpt>
      <trkpt lat="44.62091" lon="0.85087">
        <ele>146.74</ele>
        <time>2013-08-18T09:01:40Z</time>
      </trkpt>
      <trkpt lat="44.62075" lon="0.85104">
        <ele>152.51</ele>
        <time>2013-08-18T09:01:53Z</time>
      </trkpt>
      <trkpt lat="44.62058" lon="0.85121">
        <ele>157.79</ele>
        <time>2013-08-18T09:02:08Z</time>
      </trkpt>
      <trkpt lat="44.62059" lon="0.8512">
        <ele>156.35</ele>
        <time>2013-08-18T09:02:21Z</time>
      </trkpt>
      <trkpt lat="44.62064" lon="0.85125">
        <ele>156.83</ele>
        <time>2013-08-18T09:02:33Z</time>
      </trkpt>
      <trkpt lat="44.62063" lon="0.85129">
        <ele>157.31</ele>
        <time>2013-08-18T09:02:40Z</time>
      </trkpt>
      <trkpt lat="44.62063" lon="0.85138">
        <ele>158.75</ele>
        <time>2013-08-18T09:02:45Z</time>
      </trkpt>
      <trkpt lat="44.62057" lon="0.85161">
        <ele>159.24</ele>
        <time>2013-08-18T09:02:57Z</time>
      </trkpt>
      <trkpt lat="44.62054" lon="0.85163">
        <ele>158.27</ele>
        <time>2013-08-18T09:03:01Z</time>
      </trkpt>
      <trkpt lat="44.62051" lon="0.85154">
        <ele>155.39</ele>
        <time>2013-08-18T09:03:06Z</time>
      </trkpt>
      <trkpt lat="44.62046" lon="0.85157">
        <ele>154.91</ele>
        <time>2013-08-18T09:03:15Z</time>
      </trkpt>
      <trkpt lat="44.62033" lon="0.8517">
        <ele>155.87</ele>
        <time>2013-08-18T09:03:29Z</time>
      </trkpt>
      <trkpt lat="44.6203" lon="0.85175">
        <ele>155.87</ele>
        <time>2013-08-18T09:03:40Z</time>
      </trkpt>
      <trkpt lat="44.62025" lon="0.85177">
        <ele>156.35</ele>
        <time>2013-08-18T09:03:53Z</time>
      </trkpt>
      <trkpt lat="44.62021" lon="0.85184">
        <ele>157.31</ele>
        <time>2013-08-18T09:04:05Z</time>
      </trkpt>
      <trkpt lat="44.6202" lon="0.85192">
        <ele>156.83</ele>
        <time>2013-08-18T09:04:25Z</time>
      </trkpt>
      <trkpt lat="44.62021" lon="0.85194">
        <ele>155.39</ele>
        <time>2013-08-18T09:04:40Z</time>
      </trkpt>
      <trkpt lat="44.62021" lon="0.85195">
        <ele>155.39</ele>
        <time>2013-08-18T09:04:59Z</time>
      </trkpt>
      <trkpt lat="44.62021" lon="0.85195">
        <ele>154.91</ele>
        <time>2013-08-18T09:05:03Z</time>
      </trkpt>
      <trkpt lat="44.62011" lon="0.85192">
        <ele>153.95</ele>
        <time>2013-08-18T09:05:11Z</time>
      </trkpt>
      <trkpt lat="44.62009" lon="0.85193">
        <ele>154.43</ele>
        <time>2013-08-18T09:05:13Z</time>
      </trkpt>
      <trkpt lat="44.62002" lon="0.852">
        <ele>154.91</ele>
        <time>2013-08-18T09:05:18Z</time>
      </trkpt>
      <trkpt lat="44.61993" lon="0.85209">
        <ele>156.83</ele>
        <time>2013-08-18T09:05:23Z</time>
      </trkpt>
      <trkpt lat="44.61987" lon="0.85215">
        <ele>159.24</ele>
        <time>2013-08-18T09:05:27Z</time>
      </trkpt>
      <trkpt lat="44.61965" lon="0.85244">
        <ele>162.12</ele>
        <time>2013-08-18T09:05:39Z</time>
      </trkpt>
      <trkpt lat="44.6194" lon="0.8528">
        <ele>164.04</ele>
        <time>2013-08-18T09:05:48Z</time>
      </trkpt>
      <trkpt lat="44.6192" lon="0.85301">
        <ele>164.04</ele>
        <time>2013-08-18T09:05:53Z</time>
      </trkpt>
      <trkpt lat="44.619" lon="0.85334">
        <ele>165.48</ele>
        <time>2013-08-18T09:06:00Z</time>
      </trkpt>
      <trkpt lat="44.61887" lon="0.85369">
        <ele>165.96</ele>
        <time>2013-08-18T09:06:07Z</time>
      </trkpt>
      <trkpt lat="44.61882" lon="0.85381">
        <ele>165.96</ele>
        <time>2013-08-18T09:06:09Z</time>
      </trkpt>
      <trkpt lat="44.61855" lon="0.85447">
        <ele>166.45</ele>
        <time>2013-08-18T09:06:21Z</time>
      </trkpt>
      <trkpt lat="44.61818" lon="0.85472">
        <ele>165</ele>
        <time>2013-08-18T09:06:32Z</time>
      </trkpt>
      <trkpt lat="44.61767" lon="0.85487">
        <ele>156.83</ele>
        <time>2013-08-18T09:06:45Z</time>
      </trkpt>
      <trkpt lat="44.61723" lon="0.85486">
        <ele>153.95</ele>
        <time>2013-08-18T09:06:59Z</time>
      </trkpt>
      <trkpt lat="44.61715" lon="0.85484">
        <ele>153.95</ele>
        <time>2013-08-18T09:07:01Z</time>
      </trkpt>
      <trkpt lat="44.61686" lon="0.85483">
        <ele>154.43</ele>
        <time>2013-08-18T09:07:09Z</time>
      </trkpt>
      <trkpt lat="44.61645" lon="0.85495">
        <ele>155.87</ele>
        <time>2013-08-18T09:07:20Z</time>
      </trkpt>
      <trkpt lat="44.61621" lon="0.85516">
        <ele>156.83</ele>
        <time>2013-08-18T09:07:30Z</time>
      </trkpt>
      <trkpt lat="44.61604" lon="0.85543">
        <ele>155.87</ele>
        <time>2013-08-18T09:07:42Z</time>
      </trkpt>
      <trkpt lat="44.61593" lon="0.8555">
        <ele>155.87</ele>
        <time>2013-08-18T09:07:47Z</time>
      </trkpt>
      <trkpt lat="44.61541" lon="0.85561">
        <ele>157.79</ele>
        <time>2013-08-18T09:07:57Z</time>
      </trkpt>
      <trkpt lat="44.61528" lon="0.85561">
        <ele>156.83</ele>
        <time>2013-08-18T09:08:02Z</time>
      </trkpt>
      <trkpt lat="44.61514" lon="0.85568">
        <ele>157.31</ele>
        <time>2013-08-18T09:08:10Z</time>
      </trkpt>
      <trkpt lat="44.61491" lon="0.85574">
        <ele>162.6</ele>
        <time>2013-08-18T09:08:21Z</time>
      </trkpt>
      <trkpt lat="44.61465" lon="0.85578">
        <ele>168.37</ele>
        <time>2013-08-18T09:08:33Z</time>
      </trkpt>
      <trkpt lat="44.61458" lon="0.8558">
        <ele>170.77</ele>
        <time>2013-08-18T09:08:37Z</time>
      </trkpt>
      <trkpt lat="44.61447" lon="0.85587">
        <ele>172.69</ele>
        <time>2013-08-18T09:08:45Z</time>
      </trkpt>
      <trkpt lat="44.61443" lon="0.85593">
        <ele>172.69</ele>
        <time>2013-08-18T09:08:49Z</time>
      </trkpt>
      <trkpt lat="44.6143" lon="0.85622">
        <ele>171.25</ele>
        <time>2013-08-18T09:09:01Z</time>
      </trkpt>
      <trkpt lat="44.61414" lon="0.85665">
        <ele>170.77</ele>
        <time>2013-08-18T09:09:15Z</time>
      </trkpt>
      <trkpt lat="44.61404" lon="0.85715">
        <ele>174.14</ele>
        <time>2013-08-18T09:09:31Z</time>
      </trkpt>
      <trkpt lat="44.61401" lon="0.85737">
        <ele>174.14</ele>
        <time>2013-08-18T09:09:39Z</time>
      </trkpt>
      <trkpt lat="44.614" lon="0.85739">
        <ele>174.62</ele>
        <time>2013-08-18T09:09:40Z</time>
      </trkpt>
      <trkpt lat="44.61398" lon="0.8574">
        <ele>174.62</ele>
        <time>2013-08-18T09:09:41Z</time>
      </trkpt>
      <trkpt lat="44.61396" lon="0.85742">
        <ele>175.1</ele>
        <time>2013-08-18T09:09:42Z</time>
      </trkpt>
      <trkpt lat="44.61394" lon="0.85743">
        <ele>175.1</ele>
        <time>2013-08-18T09:09:43Z</time>
      </trkpt>
      <trkpt lat="44.61393" lon="0.85745">
        <ele>175.1</ele>
        <time>2013-08-18T09:09:44Z</time>
      </trkpt>
      <trkpt lat="44.61392" lon="0.85746">
        <ele>175.58</ele>
        <time>2013-08-18T09:09:45Z</time>
      </trkpt>
      <trkpt lat="44.61389" lon="0.85749">
        <ele>178.46</ele>
        <time>2013-08-18T09:09:59Z</time>
      </trkpt>
      <trkpt lat="44.61387" lon="0.85751">
        <ele>177.98</ele>
        <time>2013-08-18T09:10:14Z</time>
      </trkpt>
      <trkpt lat="44.61386" lon="0.85752">
        <ele>175.58</ele>
        <time>2013-08-18T09:10:39Z</time>
      </trkpt>
      <trkpt lat="44.61387" lon="0.85752">
        <ele>178.46</ele>
        <time>2013-08-18T09:11:08Z</time>
      </trkpt>
      <trkpt lat="44.61378" lon="0.85763">
        <ele>178.94</ele>
        <time>2013-08-18T09:11:19Z</time>
      </trkpt>
      <trkpt lat="44.61351" lon="0.85803">
        <ele>178.94</ele>
        <time>2013-08-18T09:11:31Z</time>
      </trkpt>
      <trkpt lat="44.61342" lon="0.85814">
        <ele>179.42</ele>
        <time>2013-08-18T09:11:34Z</time>
      </trkpt>
      <trkpt lat="44.61329" lon="0.85836">
        <ele>180.38</ele>
        <time>2013-08-18T09:11:38Z</time>
      </trkpt>
      <trkpt lat="44.6132" lon="0.85856">
        <ele>180.87</ele>
        <time>2013-08-18T09:11:41Z</time>
      </trkpt>
      <trkpt lat="44.61318" lon="0.85863">
        <ele>180.87</ele>
        <time>2013-08-18T09:11:42Z</time>
      </trkpt>
      <trkpt lat="44.61316" lon="0.85869">
        <ele>181.35</ele>
        <time>2013-08-18T09:11:43Z</time>
      </trkpt>
      <trkpt lat="44.61313" lon="0.85881">
        <ele>181.83</ele>
        <time>2013-08-18T09:11:45Z</time>
      </trkpt>
      <trkpt lat="44.61301" lon="0.85927">
        <ele>183.75</ele>
        <time>2013-08-18T09:11:52Z</time>
      </trkpt>
      <trkpt lat="44.61299" lon="0.85934">
        <ele>183.75</ele>
        <time>2013-08-18T09:11:53Z</time>
      </trkpt>
      <trkpt lat="44.61297" lon="0.8594">
        <ele>184.23</ele>
        <time>2013-08-18T09:11:54Z</time>
      </trkpt>
      <trkpt lat="44.61286" lon="0.85988">
        <ele>183.27</ele>
        <time>2013-08-18T09:12:00Z</time>
      </trkpt>
      <trkpt lat="44.61284" lon="0.85995">
        <ele>182.79</ele>
        <time>2013-08-18T09:12:01Z</time>
      </trkpt>
      <trkpt lat="44.61278" lon="0.86007">
        <ele>182.79</ele>
        <time>2013-08-18T09:12:03Z</time>
      </trkpt>
      <trkpt lat="44.61269" lon="0.86023">
        <ele>182.79</ele>
        <time>2013-08-18T09:12:06Z</time>
      </trkpt>
      <trkpt lat="44.61247" lon="0.86051">
        <ele>184.23</ele>
        <time>2013-08-18T09:12:12Z</time>
      </trkpt>
      <trkpt lat="44.6124" lon="0.86061">
        <ele>184.71</ele>
        <time>2013-08-18T09:12:14Z</time>
      </trkpt>
      <trkpt lat="44.61237" lon="0.86066">
        <ele>185.19</ele>
        <time>2013-08-18T09:12:15Z</time>
      </trkpt>
      <trkpt lat="44.61234" lon="0.86071">
        <ele>185.67</ele>
        <time>2013-08-18T09:12:16Z</time>
      </trkpt>
      <trkpt lat="44.61231" lon="0.86076">
        <ele>186.15</ele>
        <time>2013-08-18T09:12:17Z</time>
      </trkpt>
      <trkpt lat="44.61228" lon="0.86082">
        <ele>186.63</ele>
        <time>2013-08-18T09:12:18Z</time>
      </trkpt>
      <trkpt lat="44.61225" lon="0.86088">
        <ele>187.11</ele>
        <time>2013-08-18T09:12:19Z</time>
      </trkpt>
      <trkpt lat="44.61223" lon="0.86095">
        <ele>187.59</ele>
        <time>2013-08-18T09:12:20Z</time>
      </trkpt>
      <trkpt lat="44.6121" lon="0.86135">
        <ele>190</ele>
        <time>2013-08-18T09:12:27Z</time>
      </trkpt>
      <trkpt lat="44.61202" lon="0.86156">
        <ele>189.52</ele>
        <time>2013-08-18T09:12:31Z</time>
      </trkpt>
      <trkpt lat="44.61199" lon="0.86169">
        <ele>189.52</ele>
        <time>2013-08-18T09:12:33Z</time>
      </trkpt>
      <trkpt lat="44.61198" lon="0.86175">
        <ele>189.52</ele>
        <time>2013-08-18T09:12:34Z</time>
      </trkpt>
      <trkpt lat="44.61198" lon="0.86181">
        <ele>189.52</ele>
        <time>2013-08-18T09:12:35Z</time>
      </trkpt>
      <trkpt lat="44.61199" lon="0.862">
        <ele>189.52</ele>
        <time>2013-08-18T09:12:38Z</time>
      </trkpt>
      <trkpt lat="44.612" lon="0.86206">
        <ele>189.52</ele>
        <time>2013-08-18T09:12:39Z</time>
      </trkpt>
      <trkpt lat="44.612" lon="0.86219">
        <ele>189.04</ele>
        <time>2013-08-18T09:12:41Z</time>
      </trkpt>
      <trkpt lat="44.61201" lon="0.86226">
        <ele>189.04</ele>
        <time>2013-08-18T09:12:42Z</time>
      </trkpt>
      <trkpt lat="44.61202" lon="0.86255">
        <ele>187.59</ele>
        <time>2013-08-18T09:12:46Z</time>
      </trkpt>
      <trkpt lat="44.612" lon="0.86269">
        <ele>187.11</ele>
        <time>2013-08-18T09:12:48Z</time>
      </trkpt>
      <trkpt lat="44.61196" lon="0.86289">
        <ele>186.63</ele>
        <time>2013-08-18T09:12:51Z</time>
      </trkpt>
      <trkpt lat="44.61195" lon="0.86296">
        <ele>186.15</ele>
        <time>2013-08-18T09:12:52Z</time>
      </trkpt>
      <trkpt lat="44.61193" lon="0.86307">
        <ele>186.15</ele>
        <time>2013-08-18T09:12:54Z</time>
      </trkpt>
      <trkpt lat="44.61192" lon="0.86313">
        <ele>185.67</ele>
        <time>2013-08-18T09:12:55Z</time>
      </trkpt>
      <trkpt lat="44.61186" lon="0.86338">
        <ele>184.23</ele>
        <time>2013-08-18T09:13:03Z</time>
      </trkpt>
      <trkpt lat="44.61184" lon="0.86338">
        <ele>184.23</ele>
        <time>2013-08-18T09:13:04Z</time>
      </trkpt>
      <trkpt lat="44.61183" lon="0.86339">
        <ele>183.75</ele>
        <time>2013-08-18T09:13:05Z</time>
      </trkpt>
      <trkpt lat="44.61182" lon="0.86338">
        <ele>183.75</ele>
        <time>2013-08-18T09:13:06Z</time>
      </trkpt>
      <trkpt lat="44.61181" lon="0.86338">
        <ele>183.75</ele>
        <time>2013-08-18T09:13:07Z</time>
      </trkpt>
      <trkpt lat="44.6118" lon="0.86337">
        <ele>183.75</ele>
        <time>2013-08-18T09:13:08Z</time>
      </trkpt>
      <trkpt lat="44.61179" lon="0.86336">
        <ele>183.75</ele>
        <time>2013-08-18T09:13:09Z</time>
      </trkpt>
      <trkpt lat="44.61178" lon="0.86335">
        <ele>183.75</ele>
        <time>2013-08-18T09:13:10Z</time>
      </trkpt>
      <trkpt lat="44.61176" lon="0.86333">
        <ele>183.75</ele>
        <time>2013-08-18T09:13:11Z</time>
      </trkpt>
      <trkpt lat="44.61175" lon="0.86332">
        <ele>183.75</ele>
        <time>2013-08-18T09:13:12Z</time>
      </trkpt>
      <trkpt lat="44.61173" lon="0.86331">
        <ele>183.75</ele>
        <time>2013-08-18T09:13:13Z</time>
      </trkpt>
      <trkpt lat="44.61171" lon="0.86329">
        <ele>183.75</ele>
        <time>2013-08-18T09:13:14Z</time>
      </trkpt>
      <trkpt lat="44.6117" lon="0.86328">
        <ele>183.75</ele>
        <time>2013-08-18T09:13:15Z</time>
      </trkpt>
      <trkpt lat="44.61168" lon="0.86326">
        <ele>183.27</ele>
        <time>2013-08-18T09:13:16Z</time>
      </trkpt>
      <trkpt lat="44.61155" lon="0.86316">
        <ele>184.23</ele>
        <time>2013-08-18T09:13:24Z</time>
      </trkpt>
      <trkpt lat="44.61154" lon="0.86314">
        <ele>184.23</ele>
        <time>2013-08-18T09:13:25Z</time>
      </trkpt>
      <trkpt lat="44.6114" lon="0.86301">
        <ele>185.67</ele>
        <time>2013-08-18T09:13:34Z</time>
      </trkpt>
      <trkpt lat="44.61114" lon="0.86276">
        <ele>186.63</ele>
        <time>2013-08-18T09:13:48Z</time>
      </trkpt>
      <trkpt lat="44.61092" lon="0.86234">
        <ele>186.63</ele>
        <time>2013-08-18T09:14:02Z</time>
      </trkpt>
      <trkpt lat="44.61068" lon="0.8617">
        <ele>187.11</ele>
        <time>2013-08-18T09:14:17Z</time>
      </trkpt>
      <trkpt lat="44.61041" lon="0.86103">
        <ele>189.04</ele>
        <time>2013-08-18T09:14:33Z</time>
      </trkpt>
      <trkpt lat="44.61006" lon="0.86031">
        <ele>187.11</ele>
        <time>2013-08-18T09:14:48Z</time>
      </trkpt>
      <trkpt lat="44.60946" lon="0.85956">
        <ele>186.63</ele>
        <time>2013-08-18T09:15:03Z</time>
      </trkpt>
      <trkpt lat="44.60877" lon="0.8591">
        <ele>185.67</ele>
        <time>2013-08-18T09:15:17Z</time>
      </trkpt>
      <trkpt lat="44.60791" lon="0.85906">
        <ele>181.35</ele>
        <time>2013-08-18T09:15:30Z</time>
      </trkpt>
      <trkpt lat="44.60774" lon="0.85908">
        <ele>179.9</ele>
        <time>2013-08-18T09:15:34Z</time>
      </trkpt>
      <trkpt lat="44.60772" lon="0.85911">
        <ele>179.9</ele>
        <time>2013-08-18T09:15:35Z</time>
      </trkpt>
      <trkpt lat="44.60771" lon="0.85914">
        <ele>179.9</ele>
        <time>2013-08-18T09:15:36Z</time>
      </trkpt>
      <trkpt lat="44.60771" lon="0.85918">
        <ele>179.42</ele>
        <time>2013-08-18T09:15:37Z</time>
      </trkpt>
      <trkpt lat="44.60771" lon="0.85923">
        <ele>179.42</ele>
        <time>2013-08-18T09:15:38Z</time>
      </trkpt>
      <trkpt lat="44.60768" lon="0.85984">
        <ele>178.94</ele>
        <time>2013-08-18T09:15:49Z</time>
      </trkpt>
      <trkpt lat="44.60755" lon="0.86075">
        <ele>177.5</ele>
        <time>2013-08-18T09:16:00Z</time>
      </trkpt>
      <trkpt lat="44.60748" lon="0.86097">
        <ele>177.98</ele>
        <time>2013-08-18T09:16:03Z</time>
      </trkpt>
      <trkpt lat="44.60745" lon="0.86103">
        <ele>177.98</ele>
        <time>2013-08-18T09:16:04Z</time>
      </trkpt>
      <trkpt lat="44.60741" lon="0.86109">
        <ele>178.46</ele>
        <time>2013-08-18T09:16:05Z</time>
      </trkpt>
      <trkpt lat="44.60737" lon="0.86114">
        <ele>178.46</ele>
        <time>2013-08-18T09:16:06Z</time>
      </trkpt>
      <trkpt lat="44.60732" lon="0.86119">
        <ele>178.94</ele>
        <time>2013-08-18T09:16:07Z</time>
      </trkpt>
      <trkpt lat="44.6071" lon="0.86143">
        <ele>180.87</ele>
        <time>2013-08-18T09:16:11Z</time>
      </trkpt>
      <trkpt lat="44.60705" lon="0.8615">
        <ele>181.35</ele>
        <time>2013-08-18T09:16:12Z</time>
      </trkpt>
      <trkpt lat="44.60692" lon="0.86176">
        <ele>182.79</ele>
        <time>2013-08-18T09:16:15Z</time>
      </trkpt>
      <trkpt lat="44.60689" lon="0.86187">
        <ele>183.27</ele>
        <time>2013-08-18T09:16:16Z</time>
      </trkpt>
      <trkpt lat="44.60686" lon="0.86198">
        <ele>183.27</ele>
        <time>2013-08-18T09:16:17Z</time>
      </trkpt>
      <trkpt lat="44.60661" lon="0.86295">
        <ele>184.23</ele>
        <time>2013-08-18T09:16:26Z</time>
      </trkpt>
      <trkpt lat="44.6065" lon="0.86353">
        <ele>183.27</ele>
        <time>2013-08-18T09:16:32Z</time>
      </trkpt>
      <trkpt lat="44.60641" lon="0.86399">
        <ele>181.83</ele>
        <time>2013-08-18T09:16:39Z</time>
      </trkpt>
      <trkpt lat="44.60616" lon="0.86385">
        <ele>180.87</ele>
        <time>2013-08-18T09:16:47Z</time>
      </trkpt>
      <trkpt lat="44.60596" lon="0.86382">
        <ele>181.83</ele>
        <time>2013-08-18T09:16:51Z</time>
      </trkpt>
      <trkpt lat="44.60562" lon="0.86375">
        <ele>182.79</ele>
        <time>2013-08-18T09:17:00Z</time>
      </trkpt>
      <trkpt lat="44.60533" lon="0.86373">
        <ele>183.27</ele>
        <time>2013-08-18T09:17:06Z</time>
      </trkpt>
      <trkpt lat="44.60499" lon="0.86365">
        <ele>183.27</ele>
        <time>2013-08-18T09:17:15Z</time>
      </trkpt>
      <trkpt lat="44.60469" lon="0.86355">
        <ele>181.35</ele>
        <time>2013-08-18T09:17:22Z</time>
      </trkpt>
      <trkpt lat="44.60457" lon="0.86346">
        <ele>180.38</ele>
        <time>2013-08-18T09:17:27Z</time>
      </trkpt>
      <trkpt lat="44.60453" lon="0.86337">
        <ele>178.94</ele>
        <time>2013-08-18T09:17:31Z</time>
      </trkpt>
      <trkpt lat="44.6044" lon="0.86326">
        <ele>177.5</ele>
        <time>2013-08-18T09:17:36Z</time>
      </trkpt>
      <trkpt lat="44.60421" lon="0.86308">
        <ele>176.54</ele>
        <time>2013-08-18T09:17:41Z</time>
      </trkpt>
      <trkpt lat="44.60385" lon="0.86307">
        <ele>176.54</ele>
        <time>2013-08-18T09:17:50Z</time>
      </trkpt>
      <trkpt lat="44.60348" lon="0.86332">
        <ele>178.46</ele>
        <time>2013-08-18T09:17:57Z</time>
      </trkpt>
      <trkpt lat="44.60341" lon="0.86336">
        <ele>178.46</ele>
        <time>2013-08-18T09:17:58Z</time>
      </trkpt>
      <trkpt lat="44.60335" lon="0.86338">
        <ele>178.94</ele>
        <time>2013-08-18T09:17:59Z</time>
      </trkpt>
      <trkpt lat="44.60318" lon="0.86343">
        <ele>179.42</ele>
        <time>2013-08-18T09:18:02Z</time>
      </trkpt>
      <trkpt lat="44.60312" lon="0.86346">
        <ele>179.9</ele>
        <time>2013-08-18T09:18:03Z</time>
      </trkpt>
      <trkpt lat="44.60307" lon="0.86351">
        <ele>180.38</ele>
        <time>2013-08-18T09:18:04Z</time>
      </trkpt>
      <trkpt lat="44.60303" lon="0.86357">
        <ele>180.38</ele>
        <time>2013-08-18T09:18:05Z</time>
      </trkpt>
      <trkpt lat="44.60299" lon="0.86363">
        <ele>180.38</ele>
        <time>2013-08-18T09:18:06Z</time>
      </trkpt>
      <trkpt lat="44.60296" lon="0.8637">
        <ele>179.9</ele>
        <time>2013-08-18T09:18:07Z</time>
      </trkpt>
      <trkpt lat="44.60281" lon="0.86396">
        <ele>178.94</ele>
        <time>2013-08-18T09:18:11Z</time>
      </trkpt>
      <trkpt lat="44.6027" lon="0.86416">
        <ele>178.46</ele>
        <time>2013-08-18T09:18:14Z</time>
      </trkpt>
      <trkpt lat="44.60259" lon="0.86435">
        <ele>178.46</ele>
        <time>2013-08-18T09:18:17Z</time>
      </trkpt>
      <trkpt lat="44.60256" lon="0.86442">
        <ele>178.46</ele>
        <time>2013-08-18T09:18:18Z</time>
      </trkpt>
      <trkpt lat="44.60255" lon="0.8645">
        <ele>178.46</ele>
        <time>2013-08-18T09:18:19Z</time>
      </trkpt>
      <trkpt lat="44.60254" lon="0.86458">
        <ele>178.46</ele>
        <time>2013-08-18T09:18:20Z</time>
      </trkpt>
      <trkpt lat="44.60253" lon="0.86467">
        <ele>178.46</ele>
        <time>2013-08-18T09:18:21Z</time>
      </trkpt>
      <trkpt lat="44.60252" lon="0.86475">
        <ele>178.46</ele>
        <time>2013-08-18T09:18:22Z</time>
      </trkpt>
      <trkpt lat="44.60253" lon="0.86483">
        <ele>178.46</ele>
        <time>2013-08-18T09:18:23Z</time>
      </trkpt>
      <trkpt lat="44.60254" lon="0.86489">
        <ele>178.46</ele>
        <time>2013-08-18T09:18:24Z</time>
      </trkpt>
      <trkpt lat="44.60257" lon="0.86494">
        <ele>178.46</ele>
        <time>2013-08-18T09:18:25Z</time>
      </trkpt>
      <trkpt lat="44.60266" lon="0.86499">
        <ele>177.98</ele>
        <time>2013-08-18T09:18:27Z</time>
      </trkpt>
      <trkpt lat="44.60278" lon="0.86504">
        <ele>177.5</ele>
        <time>2013-08-18T09:18:29Z</time>
      </trkpt>
      <trkpt lat="44.60303" lon="0.86524">
        <ele>177.5</ele>
        <time>2013-08-18T09:18:34Z</time>
      </trkpt>
      <trkpt lat="44.60325" lon="0.86592">
        <ele>178.46</ele>
        <time>2013-08-18T09:18:44Z</time>
      </trkpt>
      <trkpt lat="44.60325" lon="0.86601">
        <ele>178.46</ele>
        <time>2013-08-18T09:18:45Z</time>
      </trkpt>
      <trkpt lat="44.60325" lon="0.86665">
        <ele>176.54</ele>
        <time>2013-08-18T09:18:56Z</time>
      </trkpt>
      <trkpt lat="44.60324" lon="0.86675">
        <ele>176.06</ele>
        <time>2013-08-18T09:18:58Z</time>
      </trkpt>
      <trkpt lat="44.60312" lon="0.86714">
        <ele>173.66</ele>
        <time>2013-08-18T09:19:03Z</time>
      </trkpt>
      <trkpt lat="44.60312" lon="0.86745">
        <ele>172.69</ele>
        <time>2013-08-18T09:19:08Z</time>
      </trkpt>
      <trkpt lat="44.60313" lon="0.86754">
        <ele>171.73</ele>
        <time>2013-08-18T09:19:12Z</time>
      </trkpt>
      <trkpt lat="44.60315" lon="0.8678">
        <ele>169.33</ele>
        <time>2013-08-18T09:19:25Z</time>
      </trkpt>
      <trkpt lat="44.60316" lon="0.86783">
        <ele>165.96</ele>
        <time>2013-08-18T09:19:42Z</time>
      </trkpt>
      <trkpt lat="44.60317" lon="0.86804">
        <ele>167.41</ele>
        <time>2013-08-18T09:19:57Z</time>
      </trkpt>
      <trkpt lat="44.60323" lon="0.86835">
        <ele>165.96</ele>
        <time>2013-08-18T09:20:07Z</time>
      </trkpt>
      <trkpt lat="44.60326" lon="0.86876">
        <ele>165.48</ele>
        <time>2013-08-18T09:20:19Z</time>
      </trkpt>
      <trkpt lat="44.60327" lon="0.8692">
        <ele>164.04</ele>
        <time>2013-08-18T09:20:32Z</time>
      </trkpt>
      <trkpt lat="44.60325" lon="0.86948">
        <ele>165</ele>
        <time>2013-08-18T09:20:41Z</time>
      </trkpt>
      <trkpt lat="44.6032" lon="0.86955">
        <ele>166.45</ele>
        <time>2013-08-18T09:20:45Z</time>
      </trkpt>
      <trkpt lat="44.60311" lon="0.86959">
        <ele>169.33</ele>
        <time>2013-08-18T09:20:57Z</time>
      </trkpt>
      <trkpt lat="44.6031" lon="0.8696">
        <ele>171.25</ele>
        <time>2013-08-18T09:21:10Z</time>
      </trkpt>
      <trkpt lat="44.60308" lon="0.86958">
        <ele>171.25</ele>
        <time>2013-08-18T09:21:25Z</time>
      </trkpt>
      <trkpt lat="44.60307" lon="0.86962">
        <ele>172.21</ele>
        <time>2013-08-18T09:21:48Z</time>
      </trkpt>
      <trkpt lat="44.60284" lon="0.86979">
        <ele>174.14</ele>
        <time>2013-08-18T09:21:59Z</time>
      </trkpt>
      <trkpt lat="44.60231" lon="0.87003">
        <ele>174.14</ele>
        <time>2013-08-18T09:22:10Z</time>
      </trkpt>
      <trkpt lat="44.60217" lon="0.87007">
        <ele>173.66</ele>
        <time>2013-08-18T09:22:12Z</time>
      </trkpt>
      <trkpt lat="44.60196" lon="0.87015">
        <ele>173.17</ele>
        <time>2013-08-18T09:22:15Z</time>
      </trkpt>
      <trkpt lat="44.6019" lon="0.87019">
        <ele>173.17</ele>
        <time>2013-08-18T09:22:16Z</time>
      </trkpt>
      <trkpt lat="44.60184" lon="0.87024">
        <ele>173.17</ele>
        <time>2013-08-18T09:22:17Z</time>
      </trkpt>
      <trkpt lat="44.60144" lon="0.87059">
        <ele>171.73</ele>
        <time>2013-08-18T09:22:24Z</time>
      </trkpt>
      <trkpt lat="44.60138" lon="0.8706">
        <ele>171.25</ele>
        <time>2013-08-18T09:22:25Z</time>
      </trkpt>
      <trkpt lat="44.60133" lon="0.87061">
        <ele>171.25</ele>
        <time>2013-08-18T09:22:26Z</time>
      </trkpt>
      <trkpt lat="44.60055" lon="0.87086">
        <ele>166.93</ele>
        <time>2013-08-18T09:22:37Z</time>
      </trkpt>
      <trkpt lat="44.60024" lon="0.87094">
        <ele>161.16</ele>
        <time>2013-08-18T09:22:44Z</time>
      </trkpt>
      <trkpt lat="44.60023" lon="0.87096">
        <ele>160.68</ele>
        <time>2013-08-18T09:22:45Z</time>
      </trkpt>
      <trkpt lat="44.60022" lon="0.87098">
        <ele>160.2</ele>
        <time>2013-08-18T09:22:46Z</time>
      </trkpt>
      <trkpt lat="44.60022" lon="0.87099">
        <ele>160.2</ele>
        <time>2013-08-18T09:22:47Z</time>
      </trkpt>
      <trkpt lat="44.60022" lon="0.87101">
        <ele>159.72</ele>
        <time>2013-08-18T09:22:48Z</time>
      </trkpt>
      <trkpt lat="44.60022" lon="0.87103">
        <ele>159.72</ele>
        <time>2013-08-18T09:22:49Z</time>
      </trkpt>
      <trkpt lat="44.60023" lon="0.87105">
        <ele>159.72</ele>
        <time>2013-08-18T09:22:50Z</time>
      </trkpt>
      <trkpt lat="44.60028" lon="0.87148">
        <ele>156.83</ele>
        <time>2013-08-18T09:23:05Z</time>
      </trkpt>
      <trkpt lat="44.60032" lon="0.87206">
        <ele>154.43</ele>
        <time>2013-08-18T09:23:18Z</time>
      </trkpt>
      <trkpt lat="44.60031" lon="0.87212">
        <ele>154.43</ele>
        <time>2013-08-18T09:23:19Z</time>
      </trkpt>
      <trkpt lat="44.6003" lon="0.87217">
        <ele>153.95</ele>
        <time>2013-08-18T09:23:20Z</time>
      </trkpt>
      <trkpt lat="44.60029" lon="0.87223">
        <ele>153.95</ele>
        <time>2013-08-18T09:23:21Z</time>
      </trkpt>
      <trkpt lat="44.60029" lon="0.87228">
        <ele>153.95</ele>
        <time>2013-08-18T09:23:22Z</time>
      </trkpt>
      <trkpt lat="44.60029" lon="0.87234">
        <ele>154.43</ele>
        <time>2013-08-18T09:23:23Z</time>
      </trkpt>
      <trkpt lat="44.60034" lon="0.87277">
        <ele>155.87</ele>
        <time>2013-08-18T09:23:33Z</time>
      </trkpt>
      <trkpt lat="44.60036" lon="0.87279">
        <ele>155.87</ele>
        <time>2013-08-18T09:23:34Z</time>
      </trkpt>
      <trkpt lat="44.60039" lon="0.8728">
        <ele>155.39</ele>
        <time>2013-08-18T09:23:35Z</time>
      </trkpt>
      <trkpt lat="44.60041" lon="0.87281">
        <ele>155.39</ele>
        <time>2013-08-18T09:23:36Z</time>
      </trkpt>
      <trkpt lat="44.60044" lon="0.87281">
        <ele>155.39</ele>
        <time>2013-08-18T09:23:37Z</time>
      </trkpt>
      <trkpt lat="44.60046" lon="0.87283">
        <ele>155.39</ele>
        <time>2013-08-18T09:23:38Z</time>
      </trkpt>
      <trkpt lat="44.60075" lon="0.87289">
        <ele>157.79</ele>
        <time>2013-08-18T09:23:50Z</time>
      </trkpt>
      <trkpt lat="44.60126" lon="0.87304">
        <ele>159.24</ele>
        <time>2013-08-18T09:24:02Z</time>
      </trkpt>
      <trkpt lat="44.60135" lon="0.87305">
        <ele>159.72</ele>
        <time>2013-08-18T09:24:04Z</time>
      </trkpt>
      <trkpt lat="44.6014" lon="0.87305">
        <ele>159.72</ele>
        <time>2013-08-18T09:24:05Z</time>
      </trkpt>
      <trkpt lat="44.60212" lon="0.87305">
        <ele>159.72</ele>
        <time>2013-08-18T09:24:19Z</time>
      </trkpt>
      <trkpt lat="44.60243" lon="0.87308">
        <ele>159.72</ele>
        <time>2013-08-18T09:24:25Z</time>
      </trkpt>
      <trkpt lat="44.60247" lon="0.87312">
        <ele>159.72</ele>
        <time>2013-08-18T09:24:26Z</time>
      </trkpt>
      <trkpt lat="44.6025" lon="0.87317">
        <ele>159.72</ele>
        <time>2013-08-18T09:24:27Z</time>
      </trkpt>
      <trkpt lat="44.60253" lon="0.87323">
        <ele>159.72</ele>
        <time>2013-08-18T09:24:28Z</time>
      </trkpt>
      <trkpt lat="44.60256" lon="0.87328">
        <ele>159.72</ele>
        <time>2013-08-18T09:24:29Z</time>
      </trkpt>
      <trkpt lat="44.60259" lon="0.87332">
        <ele>159.72</ele>
        <time>2013-08-18T09:24:30Z</time>
      </trkpt>
      <trkpt lat="44.60262" lon="0.87338">
        <ele>160.2</ele>
        <time>2013-08-18T09:24:31Z</time>
      </trkpt>
      <trkpt lat="44.60263" lon="0.87343">
        <ele>160.2</ele>
        <time>2013-08-18T09:24:32Z</time>
      </trkpt>
      <trkpt lat="44.60265" lon="0.87348">
        <ele>160.2</ele>
        <time>2013-08-18T09:24:33Z</time>
      </trkpt>
      <trkpt lat="44.60267" lon="0.87351">
        <ele>160.2</ele>
        <time>2013-08-18T09:24:34Z</time>
      </trkpt>
      <trkpt lat="44.60271" lon="0.87354">
        <ele>160.68</ele>
        <time>2013-08-18T09:24:35Z</time>
      </trkpt>
      <trkpt lat="44.60276" lon="0.87356">
        <ele>160.68</ele>
        <time>2013-08-18T09:24:36Z</time>
      </trkpt>
      <trkpt lat="44.60289" lon="0.87364">
        <ele>161.16</ele>
        <time>2013-08-18T09:24:39Z</time>
      </trkpt>
      <trkpt lat="44.60293" lon="0.87367">
        <ele>161.64</ele>
        <time>2013-08-18T09:24:40Z</time>
      </trkpt>
      <trkpt lat="44.60296" lon="0.87371">
        <ele>162.12</ele>
        <time>2013-08-18T09:24:41Z</time>
      </trkpt>
      <trkpt lat="44.60341" lon="0.87437">
        <ele>165.96</ele>
        <time>2013-08-18T09:24:56Z</time>
      </trkpt>
      <trkpt lat="44.60365" lon="0.87475">
        <ele>168.37</ele>
        <time>2013-08-18T09:25:07Z</time>
      </trkpt>
      <trkpt lat="44.60397" lon="0.87513">
        <ele>169.33</ele>
        <time>2013-08-18T09:25:20Z</time>
      </trkpt>
      <trkpt lat="44.6042" lon="0.87537">
        <ele>170.77</ele>
        <time>2013-08-18T09:25:31Z</time>
      </trkpt>
      <trkpt lat="44.60422" lon="0.87538">
        <ele>170.77</ele>
        <time>2013-08-18T09:25:32Z</time>
      </trkpt>
      <trkpt lat="44.60424" lon="0.87541">
        <ele>170.77</ele>
        <time>2013-08-18T09:25:33Z</time>
      </trkpt>
      <trkpt lat="44.60425" lon="0.87544">
        <ele>170.77</ele>
        <time>2013-08-18T09:25:34Z</time>
      </trkpt>
      <trkpt lat="44.60427" lon="0.87548">
        <ele>170.77</ele>
        <time>2013-08-18T09:25:35Z</time>
      </trkpt>
      <trkpt lat="44.60436" lon="0.87569">
        <ele>172.69</ele>
        <time>2013-08-18T09:25:41Z</time>
      </trkpt>
      <trkpt lat="44.60457" lon="0.87626">
        <ele>176.06</ele>
        <time>2013-08-18T09:25:56Z</time>
      </trkpt>
      <trkpt lat="44.60467" lon="0.87658">
        <ele>176.54</ele>
        <time>2013-08-18T09:26:04Z</time>
      </trkpt>
      <trkpt lat="44.60482" lon="0.87711">
        <ele>179.42</ele>
        <time>2013-08-18T09:26:16Z</time>
      </trkpt>
      <trkpt lat="44.60504" lon="0.87761">
        <ele>177.98</ele>
        <time>2013-08-18T09:26:28Z</time>
      </trkpt>
      <trkpt lat="44.60518" lon="0.87774">
        <ele>176.54</ele>
        <time>2013-08-18T09:26:39Z</time>
      </trkpt>
      <trkpt lat="44.6052" lon="0.87774">
        <ele>177.98</ele>
        <time>2013-08-18T09:26:51Z</time>
      </trkpt>
      <trkpt lat="44.6052" lon="0.87772">
        <ele>177.02</ele>
        <time>2013-08-18T09:27:09Z</time>
      </trkpt>
      <trkpt lat="44.60521" lon="0.87776">
        <ele>177.02</ele>
        <time>2013-08-18T09:27:13Z</time>
      </trkpt>
      <trkpt lat="44.60534" lon="0.87806">
        <ele>179.42</ele>
        <time>2013-08-18T09:27:22Z</time>
      </trkpt>
      <trkpt lat="44.60561" lon="0.87859">
        <ele>185.67</ele>
        <time>2013-08-18T09:27:36Z</time>
      </trkpt>
      <trkpt lat="44.60586" lon="0.87888">
        <ele>186.15</ele>
        <time>2013-08-18T09:27:48Z</time>
      </trkpt>
      <trkpt lat="44.60603" lon="0.87927">
        <ele>185.67</ele>
        <time>2013-08-18T09:28:00Z</time>
      </trkpt>
      <trkpt lat="44.6062" lon="0.87981">
        <ele>185.67</ele>
        <time>2013-08-18T09:28:12Z</time>
      </trkpt>
      <trkpt lat="44.60632" lon="0.88009">
        <ele>189.52</ele>
        <time>2013-08-18T09:28:24Z</time>
      </trkpt>
      <trkpt lat="44.60651" lon="0.88058">
        <ele>192.88</ele>
        <time>2013-08-18T09:28:38Z</time>
      </trkpt>
      <trkpt lat="44.60673" lon="0.88099">
        <ele>196.25</ele>
        <time>2013-08-18T09:28:49Z</time>
      </trkpt>
      <trkpt lat="44.60703" lon="0.88133">
        <ele>198.17</ele>
        <time>2013-08-18T09:29:00Z</time>
      </trkpt>
      <trkpt lat="44.60721" lon="0.88135">
        <ele>200.09</ele>
        <time>2013-08-18T09:29:05Z</time>
      </trkpt>
      <trkpt lat="44.6076" lon="0.88151">
        <ele>202.01</ele>
        <time>2013-08-18T09:29:16Z</time>
      </trkpt>
      <trkpt lat="44.60809" lon="0.88157">
        <ele>202.98</ele>
        <time>2013-08-18T09:29:29Z</time>
      </trkpt>
      <trkpt lat="44.60821" lon="0.8815">
        <ele>205.86</ele>
        <time>2013-08-18T09:29:33Z</time>
      </trkpt>
      <trkpt lat="44.60837" lon="0.88175">
        <ele>208.74</ele>
        <time>2013-08-18T09:29:42Z</time>
      </trkpt>
      <trkpt lat="44.60837" lon="0.88224">
        <ele>208.74</ele>
        <time>2013-08-18T09:29:55Z</time>
      </trkpt>
      <trkpt lat="44.6084" lon="0.88272">
        <ele>205.38</ele>
        <time>2013-08-18T09:30:05Z</time>
      </trkpt>
      <trkpt lat="44.60845" lon="0.88318">
        <ele>201.05</ele>
        <time>2013-08-18T09:30:15Z</time>
      </trkpt>
      <trkpt lat="44.60845" lon="0.88329">
        <ele>199.61</ele>
        <time>2013-08-18T09:30:18Z</time>
      </trkpt>
      <trkpt lat="44.60862" lon="0.8834">
        <ele>199.13</ele>
        <time>2013-08-18T09:30:25Z</time>
      </trkpt>
      <trkpt lat="44.6088" lon="0.88343">
        <ele>197.21</ele>
        <time>2013-08-18T09:30:37Z</time>
      </trkpt>
      <trkpt lat="44.60883" lon="0.88348">
        <ele>199.61</ele>
        <time>2013-08-18T09:30:57Z</time>
      </trkpt>
      <trkpt lat="44.60883" lon="0.88348">
        <ele>200.57</ele>
        <time>2013-08-18T09:31:12Z</time>
      </trkpt>
      <trkpt lat="44.60911" lon="0.88359">
        <ele>203.94</ele>
        <time>2013-08-18T09:31:24Z</time>
      </trkpt>
      <trkpt lat="44.60928" lon="0.8836">
        <ele>204.9</ele>
        <time>2013-08-18T09:31:29Z</time>
      </trkpt>
      <trkpt lat="44.60935" lon="0.88379">
        <ele>204.42</ele>
        <time>2013-08-18T09:31:34Z</time>
      </trkpt>
      <trkpt lat="44.60933" lon="0.88389">
        <ele>203.94</ele>
        <time>2013-08-18T09:31:36Z</time>
      </trkpt>
      <trkpt lat="44.60945" lon="0.88405">
        <ele>202.98</ele>
        <time>2013-08-18T09:31:42Z</time>
      </trkpt>
      <trkpt lat="44.60961" lon="0.88423">
        <ele>204.42</ele>
        <time>2013-08-18T09:31:48Z</time>
      </trkpt>
      <trkpt lat="44.60969" lon="0.88432">
        <ele>204.9</ele>
        <time>2013-08-18T09:31:50Z</time>
      </trkpt>
      <trkpt lat="44.60994" lon="0.88479">
        <ele>203.94</ele>
        <time>2013-08-18T09:31:58Z</time>
      </trkpt>
      <trkpt lat="44.60996" lon="0.88482">
        <ele>203.46</ele>
        <time>2013-08-18T09:31:59Z</time>
      </trkpt>
      <trkpt lat="44.61003" lon="0.88492">
        <ele>201.53</ele>
        <time>2013-08-18T09:32:06Z</time>
      </trkpt>
      <trkpt lat="44.61004" lon="0.885">
        <ele>200.57</ele>
        <time>2013-08-18T09:32:09Z</time>
      </trkpt>
      <trkpt lat="44.61004" lon="0.88504">
        <ele>199.61</ele>
        <time>2013-08-18T09:32:10Z</time>
      </trkpt>
      <trkpt lat="44.61004" lon="0.88509">
        <ele>199.13</ele>
        <time>2013-08-18T09:32:11Z</time>
      </trkpt>
      <trkpt lat="44.61006" lon="0.88514">
        <ele>198.65</ele>
        <time>2013-08-18T09:32:12Z</time>
      </trkpt>
      <trkpt lat="44.61009" lon="0.88518">
        <ele>197.21</ele>
        <time>2013-08-18T09:32:13Z</time>
      </trkpt>
      <trkpt lat="44.61012" lon="0.88522">
        <ele>196.73</ele>
        <time>2013-08-18T09:32:14Z</time>
      </trkpt>
      <trkpt lat="44.61015" lon="0.88526">
        <ele>196.25</ele>
        <time>2013-08-18T09:32:15Z</time>
      </trkpt>
      <trkpt lat="44.61019" lon="0.88531">
        <ele>196.25</ele>
        <time>2013-08-18T09:32:16Z</time>
      </trkpt>
      <trkpt lat="44.61022" lon="0.88536">
        <ele>195.77</ele>
        <time>2013-08-18T09:32:17Z</time>
      </trkpt>
      <trkpt lat="44.61025" lon="0.88542">
        <ele>195.77</ele>
        <time>2013-08-18T09:32:18Z</time>
      </trkpt>
      <trkpt lat="44.61035" lon="0.88566">
        <ele>193.84</ele>
        <time>2013-08-18T09:32:22Z</time>
      </trkpt>
      <trkpt lat="44.61037" lon="0.88572">
        <ele>193.84</ele>
        <time>2013-08-18T09:32:23Z</time>
      </trkpt>
      <trkpt lat="44.61037" lon="0.8858">
        <ele>193.36</ele>
        <time>2013-08-18T09:32:24Z</time>
      </trkpt>
      <trkpt lat="44.61036" lon="0.88605">
        <ele>192.4</ele>
        <time>2013-08-18T09:32:27Z</time>
      </trkpt>
      <trkpt lat="44.61036" lon="0.88709">
        <ele>185.19</ele>
        <time>2013-08-18T09:32:37Z</time>
      </trkpt>
      <trkpt lat="44.6101" lon="0.88743">
        <ele>181.35</ele>
        <time>2013-08-18T09:32:43Z</time>
      </trkpt>
      <trkpt lat="44.60979" lon="0.88769">
        <ele>179.9</ele>
        <time>2013-08-18T09:32:49Z</time>
      </trkpt>
      <trkpt lat="44.60935" lon="0.88802">
        <ele>180.87</ele>
        <time>2013-08-18T09:32:58Z</time>
      </trkpt>
      <trkpt lat="44.60922" lon="0.88816">
        <ele>181.35</ele>
        <time>2013-08-18T09:33:01Z</time>
      </trkpt>
      <trkpt lat="44.60913" lon="0.88826">
        <ele>180.87</ele>
        <time>2013-08-18T09:33:03Z</time>
      </trkpt>
      <trkpt lat="44.60847" lon="0.88874">
        <ele>184.71</ele>
        <time>2013-08-18T09:33:17Z</time>
      </trkpt>
      <trkpt lat="44.60803" lon="0.88908">
        <ele>187.59</ele>
        <time>2013-08-18T09:33:27Z</time>
      </trkpt>
      <trkpt lat="44.60735" lon="0.88944">
        <ele>191.92</ele>
        <time>2013-08-18T09:33:40Z</time>
      </trkpt>
      <trkpt lat="44.60713" lon="0.88959">
        <ele>192.88</ele>
        <time>2013-08-18T09:33:45Z</time>
      </trkpt>
      <trkpt lat="44.60709" lon="0.88961">
        <ele>193.36</ele>
        <time>2013-08-18T09:33:46Z</time>
      </trkpt>
      <trkpt lat="44.60704" lon="0.88963">
        <ele>193.36</ele>
        <time>2013-08-18T09:33:47Z</time>
      </trkpt>
      <trkpt lat="44.60681" lon="0.8897">
        <ele>192.4</ele>
        <time>2013-08-18T09:33:52Z</time>
      </trkpt>
      <trkpt lat="44.60617" lon="0.88993">
        <ele>186.15</ele>
        <time>2013-08-18T09:34:04Z</time>
      </trkpt>
      <trkpt lat="44.60534" lon="0.89027">
        <ele>181.35</ele>
        <time>2013-08-18T09:34:18Z</time>
      </trkpt>
      <trkpt lat="44.60529" lon="0.89031">
        <ele>181.35</ele>
        <time>2013-08-18T09:34:19Z</time>
      </trkpt>
      <trkpt lat="44.60501" lon="0.89054">
        <ele>182.31</ele>
        <time>2013-08-18T09:34:25Z</time>
      </trkpt>
      <trkpt lat="44.60488" lon="0.89062">
        <ele>182.79</ele>
        <time>2013-08-18T09:34:28Z</time>
      </trkpt>
      <trkpt lat="44.60483" lon="0.89063">
        <ele>182.79</ele>
        <time>2013-08-18T09:34:29Z</time>
      </trkpt>
      <trkpt lat="44.6046" lon="0.89072">
        <ele>183.75</ele>
        <time>2013-08-18T09:34:34Z</time>
      </trkpt>
      <trkpt lat="44.60455" lon="0.89075">
        <ele>183.75</ele>
        <time>2013-08-18T09:34:35Z</time>
      </trkpt>
      <trkpt lat="44.6045" lon="0.89079">
        <ele>183.27</ele>
        <time>2013-08-18T09:34:36Z</time>
      </trkpt>
      <trkpt lat="44.60445" lon="0.89084">
        <ele>182.79</ele>
        <time>2013-08-18T09:34:37Z</time>
      </trkpt>
      <trkpt lat="44.6044" lon="0.89088">
        <ele>182.31</ele>
        <time>2013-08-18T09:34:38Z</time>
      </trkpt>
      <trkpt lat="44.60353" lon="0.89142">
        <ele>177.02</ele>
        <time>2013-08-18T09:34:52Z</time>
      </trkpt>
      <trkpt lat="44.60326" lon="0.89162">
        <ele>177.02</ele>
        <time>2013-08-18T09:34:56Z</time>
      </trkpt>
      <trkpt lat="44.6032" lon="0.89169">
        <ele>176.54</ele>
        <time>2013-08-18T09:34:57Z</time>
      </trkpt>
      <trkpt lat="44.60315" lon="0.89178">
        <ele>176.54</ele>
        <time>2013-08-18T09:34:58Z</time>
      </trkpt>
      <trkpt lat="44.60286" lon="0.89222">
        <ele>176.06</ele>
        <time>2013-08-18T09:35:04Z</time>
      </trkpt>
      <trkpt lat="44.6028" lon="0.89226">
        <ele>176.06</ele>
        <time>2013-08-18T09:35:05Z</time>
      </trkpt>
      <trkpt lat="44.60218" lon="0.8925">
        <ele>176.54</ele>
        <time>2013-08-18T09:35:16Z</time>
      </trkpt>
      <trkpt lat="44.60181" lon="0.89281">
        <ele>172.69</ele>
        <time>2013-08-18T09:35:23Z</time>
      </trkpt>
      <trkpt lat="44.60176" lon="0.89287">
        <ele>172.21</ele>
        <time>2013-08-18T09:35:24Z</time>
      </trkpt>
      <trkpt lat="44.60171" lon="0.89293">
        <ele>171.73</ele>
        <time>2013-08-18T09:35:25Z</time>
      </trkpt>
      <trkpt lat="44.60166" lon="0.89297">
        <ele>171.25</ele>
        <time>2013-08-18T09:35:26Z</time>
      </trkpt>
      <trkpt lat="44.6016" lon="0.893">
        <ele>170.77</ele>
        <time>2013-08-18T09:35:27Z</time>
      </trkpt>
      <trkpt lat="44.60155" lon="0.89301">
        <ele>170.77</ele>
        <time>2013-08-18T09:35:28Z</time>
      </trkpt>
      <trkpt lat="44.60149" lon="0.89302">
        <ele>170.77</ele>
        <time>2013-08-18T09:35:29Z</time>
      </trkpt>
      <trkpt lat="44.6013" lon="0.89309">
        <ele>171.73</ele>
        <time>2013-08-18T09:35:33Z</time>
      </trkpt>
      <trkpt lat="44.60129" lon="0.89312">
        <ele>172.21</ele>
        <time>2013-08-18T09:35:34Z</time>
      </trkpt>
      <trkpt lat="44.60129" lon="0.89316">
        <ele>172.21</ele>
        <time>2013-08-18T09:35:35Z</time>
      </trkpt>
      <trkpt lat="44.60119" lon="0.89379">
        <ele>170.29</ele>
        <time>2013-08-18T09:35:46Z</time>
      </trkpt>
      <trkpt lat="44.60116" lon="0.89398">
        <ele>169.81</ele>
        <time>2013-08-18T09:35:49Z</time>
      </trkpt>
      <trkpt lat="44.60109" lon="0.89415">
        <ele>169.81</ele>
        <time>2013-08-18T09:35:52Z</time>
      </trkpt>
      <trkpt lat="44.60075" lon="0.89491">
        <ele>168.85</ele>
        <time>2013-08-18T09:36:06Z</time>
      </trkpt>
      <trkpt lat="44.60073" lon="0.89494">
        <ele>168.85</ele>
        <time>2013-08-18T09:36:07Z</time>
      </trkpt>
      <trkpt lat="44.60071" lon="0.89495">
        <ele>168.85</ele>
        <time>2013-08-18T09:36:08Z</time>
      </trkpt>
      <trkpt lat="44.60069" lon="0.89496">
        <ele>168.85</ele>
        <time>2013-08-18T09:36:09Z</time>
      </trkpt>
      <trkpt lat="44.60058" lon="0.89495">
        <ele>169.33</ele>
        <time>2013-08-18T09:36:20Z</time>
      </trkpt>
      <trkpt lat="44.60059" lon="0.89496">
        <ele>169.33</ele>
        <time>2013-08-18T09:36:22Z</time>
      </trkpt>
      <trkpt lat="44.6006" lon="0.89496">
        <ele>169.33</ele>
        <time>2013-08-18T09:36:23Z</time>
      </trkpt>
      <trkpt lat="44.60061" lon="0.89498">
        <ele>169.81</ele>
        <time>2013-08-18T09:36:24Z</time>
      </trkpt>
      <trkpt lat="44.60061" lon="0.89501">
        <ele>169.81</ele>
        <time>2013-08-18T09:36:25Z</time>
      </trkpt>
      <trkpt lat="44.60059" lon="0.89503">
        <ele>170.29</ele>
        <time>2013-08-18T09:36:26Z</time>
      </trkpt>
      <trkpt lat="44.60057" lon="0.89505">
        <ele>170.29</ele>
        <time>2013-08-18T09:36:27Z</time>
      </trkpt>
      <trkpt lat="44.60054" lon="0.89506">
        <ele>170.77</ele>
        <time>2013-08-18T09:36:28Z</time>
      </trkpt>
      <trkpt lat="44.60014" lon="0.8953">
        <ele>168.85</ele>
        <time>2013-08-18T09:36:40Z</time>
      </trkpt>
      <trkpt lat="44.60012" lon="0.89533">
        <ele>168.85</ele>
        <time>2013-08-18T09:36:41Z</time>
      </trkpt>
      <trkpt lat="44.60012" lon="0.89536">
        <ele>168.37</ele>
        <time>2013-08-18T09:36:42Z</time>
      </trkpt>
      <trkpt lat="44.60012" lon="0.89554">
        <ele>167.41</ele>
        <time>2013-08-18T09:36:46Z</time>
      </trkpt>
      <trkpt lat="44.60014" lon="0.89556">
        <ele>167.41</ele>
        <time>2013-08-18T09:36:47Z</time>
      </trkpt>
      <trkpt lat="44.60017" lon="0.89557">
        <ele>167.41</ele>
        <time>2013-08-18T09:36:48Z</time>
      </trkpt>
      <trkpt lat="44.6002" lon="0.89556">
        <ele>167.41</ele>
        <time>2013-08-18T09:36:49Z</time>
      </trkpt>
      <trkpt lat="44.60021" lon="0.89555">
        <ele>167.41</ele>
        <time>2013-08-18T09:36:50Z</time>
      </trkpt>
      <trkpt lat="44.60023" lon="0.89554">
        <ele>166.93</ele>
        <time>2013-08-18T09:36:51Z</time>
      </trkpt>
      <trkpt lat="44.60024" lon="0.89553">
        <ele>166.45</ele>
        <time>2013-08-18T09:37:01Z</time>
      </trkpt>
    </trkseg>
  </trk>
</gpx>